Provisional Data: Young Woman's Creek near North Bend, PA


Please select a monitoring station.
Please select start date.
Please select start date.

Toggle Unit: C/F Toggle Unit: C/F
Sample Time Temperature (C) Temperature (F) Specific Conductivity (mS/cm) pH   Turbidity (NTU+) DO (mg/L)
12/23/2022 12:00:00 AM 1.94 35.492 0.032 6.89 6.73 13.59
12/23/2022 12:15:00 AM 1.99 35.582 0.032 6.84 6.77 13.57
12/23/2022 12:30:00 AM 2 35.6 0.034 6.94 6.22 13.55
12/23/2022 12:45:00 AM 2.08 35.744 0.034 6.93 6.3 13.5
12/23/2022 1:00:00 AM 2.13 35.834 0.033 6.91 7.36 13.47
12/23/2022 1:15:00 AM 2.14 35.852 0.032 6.84 7.5 13.47
12/23/2022 1:30:00 AM 2.14 35.852 0.032 6.88 7.95 13.48
12/23/2022 1:45:00 AM 2.17 35.906 0.032 6.89 8.81 13.45
12/23/2022 2:00:00 AM 2.21 35.978 0.033 6.92 6.47 13.43
12/23/2022 2:15:00 AM 2.23 36.014 0.033 6.93 8.86 13.42
12/23/2022 2:30:00 AM 2.27 36.086 0.033 6.92 8.19 13.39
12/23/2022 2:45:00 AM 2.3 36.14 0.032 6.85 10.21 13.38
12/23/2022 3:00:00 AM 2.34 36.212 0.033 6.9 6.96 13.36
12/23/2022 3:15:00 AM 2.37 36.266 0.032 6.84 11.39 13.33
12/23/2022 3:30:00 AM 2.41 36.338 0.033 6.88 6.82 13.31
12/23/2022 3:45:00 AM 2.46 36.428 0.032 6.83 10.13 13.28
12/23/2022 4:00:00 AM 2.5 36.5 0.033 6.88 7.39 13.26
12/23/2022 4:15:00 AM 2.54 36.572 0.033 6.88 8 13.24
12/23/2022 4:30:00 AM 2.58 36.644 0.033 6.88 8.01 13.22
12/23/2022 4:45:00 AM 2.61 36.698 0.033 6.87 14.47 13.2
12/23/2022 5:00:00 AM 2.66 36.788 0.033 6.89 8.02 13.18
12/23/2022 5:15:00 AM 2.7 36.86 0.033 6.86 7.97 13.17
12/23/2022 5:30:00 AM 2.74 36.932 0.033 6.86 9.77 13.14
12/23/2022 5:45:00 AM 2.79 37.022 0.032 6.85 8.38 13.12
12/23/2022 6:00:00 AM 2.82 37.076 0.032 6.84 8.41 13.1
12/23/2022 6:15:00 AM 2.87 37.166 0.032 6.8 9.79 13.08
12/23/2022 6:30:00 AM 2.91 37.238 0.032 6.84 8.55 13.07
12/23/2022 6:45:00 AM 2.94 37.292 0.031 6.76 10.52 13.04
12/23/2022 7:00:00 AM 2.98 37.364 0.03 6.76 10.53 13.03
12/23/2022 7:15:00 AM 3.02 37.436 0.032 6.82 7.97 13.01
12/23/2022 7:30:00 AM 3.06 37.508 0.03 6.77 9.77 12.99
12/23/2022 7:45:00 AM 3.09 37.562 0.032 6.78 8.17 12.97
12/23/2022 8:00:00 AM 3.13 37.634 0.031 6.8 10.2 12.96
12/23/2022 8:15:00 AM 3.16 37.688 0.032 6.83 7.45 12.95
12/23/2022 8:30:00 AM 3.2 37.76 0.033 6.85 7.37 12.94
12/23/2022 8:45:00 AM 3.22 37.796 0.032 6.78 9.98 12.94
12/23/2022 9:00:00 AM 3.24 37.832 0.033 6.77 9.55 12.94
12/23/2022 9:15:00 AM 3.22 37.796 0.034 6.82 6.82 12.94
12/23/2022 9:30:00 AM 3.21 37.778 0.034 6.82 7.2 12.96
12/23/2022 9:45:00 AM 3.2 37.76 0.034 6.82 9.65 12.98
12/23/2022 10:00:00 AM 3.17 37.706 0.033 6.79 9.93 13
12/23/2022 10:15:00 AM 3.15 37.67 0.033 6.79 9.46 13.04
12/23/2022 10:30:00 AM 3.14 37.652 0.034 6.81 10.26 13.07
12/23/2022 10:45:00 AM 3.1 37.58 0.033 6.86 9.49 13.08
12/23/2022 11:00:00 AM 3.03 37.454 0.035 6.87 7.44 13.12
12/23/2022 11:15:00 AM 2.97 37.346 0.035 6.87 7.47 13.15
12/23/2022 11:30:00 AM 2.9 37.22 0.034 6.83 7.37 13.2
12/23/2022 11:45:00 AM 2.8 37.04 0.034 6.87 8.99 13.24
12/23/2022 12:00:00 PM 2.76 36.968 0.034 6.89 7.14 13.27
12/23/2022 12:15:00 PM 2.7 36.86 0.031 6.85 9.14 13.31
12/23/2022 12:30:00 PM 2.61 36.698 0.032 6.85 9.26 13.34
12/23/2022 12:45:00 PM 2.53 36.554 0.034 6.88 7.68 13.37
12/23/2022 1:00:00 PM 2.44 36.392 0.034 6.89 7.46 13.41
12/23/2022 1:15:00 PM 2.41 36.338 0.031 6.87 8.17 13.45
12/23/2022 1:30:00 PM 2.35 36.23 0.034 6.89 7.24 13.47
12/23/2022 1:45:00 PM 2.27 36.086 0.031 6.85 8.09 13.5
12/23/2022 2:00:00 PM 2.22 35.996 0.033 6.89 7.49 13.52
12/23/2022 2:15:00 PM 2.14 35.852 0.031 6.86 9.31 13.55
12/23/2022 2:30:00 PM 2.04 35.672 0.031 6.85 9.29 13.59
12/23/2022 2:45:00 PM 1.93 35.474 0.033 6.86 7.01 13.63
12/23/2022 3:00:00 PM 1.86 35.348 0.031 6.87 8.31 13.66
12/23/2022 3:15:00 PM 1.76 35.168 0.033 6.87 6.66 13.69
12/23/2022 3:30:00 PM 1.67 35.006 0.031 6.87 8.4 13.72
12/23/2022 3:45:00 PM 1.57 34.826 0.033 6.88 6.57 13.76
12/23/2022 4:00:00 PM 1.49 34.682 0.031 6.83 8.95 13.79
12/23/2022 4:15:00 PM 1.38 34.484 0.031 6.82 11.12 13.81
12/23/2022 4:30:00 PM 1.27 34.286 0.033 6.86 6.07 13.85
12/23/2022 4:45:00 PM 1.16 34.088 0.032 6.81 7.93 13.88
12/23/2022 5:00:00 PM 1.08 33.944 0.033 6.84 6.55 13.91
12/23/2022 5:15:00 PM 0.97 33.746 0.033 6.81 6.12 13.94
12/23/2022 5:30:00 PM 0.89 33.602 0.034 6.85 6.27 13.98
12/23/2022 5:45:00 PM 0.81 33.458 0.034 6.82 6.51 14.02
12/23/2022 6:00:00 PM 0.71 33.278 0.034 6.81 6.13 14.06
12/23/2022 6:15:00 PM 0.63 33.134 0.034 6.85 5.92 14.1
12/23/2022 6:30:00 PM 0.54 32.972 0.034 6.84 6 14.14
12/23/2022 6:45:00 PM 0.46 32.828 0.034 6.84 6.19 14.17
12/23/2022 7:00:00 PM 0.39 32.702 0.034 6.82 5.93 14.21
12/23/2022 7:15:00 PM 0.31 32.558 0.034 6.79 6.03 14.24
12/23/2022 7:30:00 PM 0.24 32.432 0.034 6.85 5.97 14.28
12/23/2022 7:45:00 PM 0.15 32.27 0.034 6.86 5.89 14.32
12/23/2022 8:00:00 PM 0.1 32.18 0.034 6.81 6.07 14.35
12/23/2022 8:15:00 PM 0.05 32.09 0.034 6.81 5.75 14.37
12/23/2022 8:30:00 PM -0.01 31.982 0.031 6.76 7.27 14.4
12/23/2022 8:45:00 PM -0.06 31.892 0.034 6.77 5.74 14.42
12/23/2022 9:00:00 PM -0.08 31.856 0.034 6.77 5.83 14.46
12/23/2022 9:15:00 PM -0.09 31.838 0.034 6.77 5.72 14.48
12/23/2022 9:30:00 PM -0.09 31.838 0.032 6.75 7.13 14.5
12/23/2022 9:45:00 PM -0.09 31.838 0.034 6.79 5.67 14.52
12/23/2022 10:00:00 PM -0.09 31.838 0.031 6.78 6.35 14.52
12/23/2022 10:15:00 PM -0.09 31.838 0.032 6.78 7.22 14.53
12/23/2022 10:30:00 PM -0.09 31.838 0.034 6.81 5.56 14.54
12/23/2022 10:45:00 PM -0.09 31.838 0.034 6.82 5.66 14.54
12/23/2022 11:00:00 PM -0.09 31.838 0.031 6.78 6.17 14.55
12/23/2022 11:15:00 PM -0.09 31.838 0.034 6.82 5.32 14.55
12/23/2022 11:30:00 PM -0.09 31.838 0.034 6.82 5.64 14.56
12/23/2022 11:45:00 PM -0.09 31.838 0.034 6.83 5.4 14.56
12/24/2022 12:00:00 AM -0.09 31.838 0.031 6.77 5.78 14.56
12/24/2022 12:15:00 AM -0.09 31.838 0.032 6.79 7.03 14.55
12/24/2022 12:30:00 AM -0.09 31.838 0.032 6.79 6.83 14.56
12/24/2022 12:45:00 AM -0.09 31.838 0.034 6.83 5.48 14.55
12/24/2022 1:00:00 AM -0.09 31.838 0.034 6.84 5.28 14.56
12/24/2022 1:15:00 AM -0.09 31.838 0.034 6.82 5.18 14.57
12/24/2022 1:30:00 AM -0.09 31.838 0.031 6.76 6.24 14.56
12/24/2022 1:45:00 AM -0.09 31.838 0.034 6.82 5.17 14.57
12/24/2022 2:00:00 AM -0.09 31.838 0.034 6.81 5.25 14.57
12/24/2022 2:15:00 AM -0.09 31.838 0.034 6.82 5.23 14.58
12/24/2022 2:30:00 AM -0.09 31.838 0.034 6.82 5.44 14.58
12/24/2022 2:45:00 AM -0.09 31.838 0.034 6.82 5.49 14.57
12/24/2022 3:00:00 AM -0.09 31.838 0.034 6.83 5.4 14.58
12/24/2022 3:15:00 AM -0.09 31.838 0.034 6.84 5.26 14.59
12/24/2022 3:30:00 AM -0.09 31.838 0.034 6.84 5.4 14.59
12/24/2022 3:45:00 AM -0.09 31.838 0.034 6.85 5.32 14.59
12/24/2022 4:00:00 AM -0.09 31.838 0.033 6.85 5.29 14.59
12/24/2022 4:15:00 AM -0.09 31.838 0.031 6.82 5.9 14.59
12/24/2022 4:30:00 AM -0.09 31.838 0.031 6.84 5.76 14.6
12/24/2022 4:45:00 AM -0.09 31.838 0.033 6.87 5.22 14.59
12/24/2022 5:00:00 AM -0.09 31.838 0.033 6.85 5.28 14.6
12/24/2022 5:15:00 AM -0.09 31.838 0.033 6.76 5.26 14.61
12/24/2022 5:30:00 AM -0.09 31.838 0.033 6.83 5.24 14.61
12/24/2022 5:45:00 AM -0.09 31.838 0.033 6.79 5.32 14.61
12/24/2022 6:00:00 AM -0.09 31.838 0.033 6.76 5.3 14.62
12/24/2022 6:15:00 AM -0.09 31.838 0.032 6.72 6.39 14.62
12/24/2022 6:30:00 AM -0.09 31.838 0.031 6.75 6.43 14.61
12/24/2022 6:45:00 AM -0.09 31.838 0.033 6.74 5.3 14.62
12/24/2022 7:00:00 AM -0.09 31.838 0.033 6.81 5.11 14.62
12/24/2022 7:15:00 AM -0.09 31.838 0.031 6.72 6.31 14.63
12/24/2022 7:30:00 AM -0.09 31.838 0.033 6.78 5.13 14.64
12/24/2022 7:45:00 AM -0.09 31.838 0.033 6.78 5.26 14.63
12/24/2022 8:00:00 AM -0.09 31.838 0.033 6.77 5.39 14.64
12/24/2022 8:15:00 AM -0.09 31.838 0.033 6.8 5.17 14.66
12/24/2022 8:30:00 AM -0.09 31.838 0.033 6.78 5.24 14.66
12/24/2022 8:45:00 AM -0.09 31.838 0.031 6.75 7 14.68
12/24/2022 9:00:00 AM -0.09 31.838 0.033 6.77 5.3 14.7
12/24/2022 9:15:00 AM -0.09 31.838 0.033 6.77 5.21 14.71
12/24/2022 9:30:00 AM -0.09 31.838 0.033 6.78 5.39 14.73
12/24/2022 9:45:00 AM -0.09 31.838 0.03 6.78 6.24 14.73
12/24/2022 10:00:00 AM -0.09 31.838 0.033 6.79 5.32 14.73
12/24/2022 10:15:00 AM -0.09 31.838 0.033 6.84 5.51 14.74
12/24/2022 10:30:00 AM -0.09 31.838 0.033 6.82 5.34 14.75
12/24/2022 10:45:00 AM -0.09 31.838 0.033 6.81 5.33 14.74
12/24/2022 11:00:00 AM -0.09 31.838 0.033 6.82 5.53 14.74
12/24/2022 11:15:00 AM -0.09 31.838 0.033 6.84 5.6 14.74
12/24/2022 11:30:00 AM -0.09 31.838 0.033 6.84 5.69 14.73
12/24/2022 11:45:00 AM -0.09 31.838 0.03 6.77 5.77 14.73
12/24/2022 12:00:00 PM -0.09 31.838 0.033 6.82 5.53 14.74
12/24/2022 12:15:00 PM -0.08 31.856 0.03 6.79 5.78 14.73
12/24/2022 12:30:00 PM -0.09 31.838 0.033 6.83 5.93 14.72
12/24/2022 12:45:00 PM -0.09 31.838 0.031 6.79 6.77 14.72
12/24/2022 1:00:00 PM -0.08 31.856 0.031 6.8 7.35 14.73
12/24/2022 1:15:00 PM -0.08 31.856 0.031 6.79 7.92 14.74
12/24/2022 1:30:00 PM -0.09 31.838 0.032 6.81 5.8 14.73
12/24/2022 1:45:00 PM -0.09 31.838 0.032 6.81 5.63 14.72
12/24/2022 2:00:00 PM -0.09 31.838 0.032 6.83 5.82 14.72
12/24/2022 2:15:00 PM -0.08 31.856 0.03 6.8 7.52 14.72
12/24/2022 2:30:00 PM -0.08 31.856 0.03 6.8 6.81 14.71
12/24/2022 2:45:00 PM -0.09 31.838 0.032 6.78 6.82 14.71
12/24/2022 3:00:00 PM -0.09 31.838 0.032 6.82 6.12 14.71
12/24/2022 3:15:00 PM -0.08 31.856 0.029 6.79 6.12 14.7
12/24/2022 3:30:00 PM -0.09 31.838 0.032 6.82 5.38 14.7
12/24/2022 3:45:00 PM -0.09 31.838 0.032 6.85 5.27 14.71
12/24/2022 4:00:00 PM -0.09 31.838 0.032 6.81 5.42 14.69
12/24/2022 4:15:00 PM -0.09 31.838 0.032 6.82 5.6 14.68
12/24/2022 4:30:00 PM -0.09 31.838 0.032 6.83 5.24 14.66
12/24/2022 4:45:00 PM -0.09 31.838 0.032 6.81 5.57 14.64
12/24/2022 5:00:00 PM -0.09 31.838 0.032 6.77 6.3 14.62
12/24/2022 5:15:00 PM -0.09 31.838 0.032 6.84 5.78 14.61
12/24/2022 5:30:00 PM -0.09 31.838 0.032 6.81 5.32 14.62
12/24/2022 5:45:00 PM -0.09 31.838 0.032 6.74 5.47 14.58
12/24/2022 6:00:00 PM -0.09 31.838 0.031 6.69 7.36 14.58
12/24/2022 6:15:00 PM -0.09 31.838 0.032 6.8 5.3 14.56
12/24/2022 6:30:00 PM -0.09 31.838 0.032 6.76 5.33 14.55
12/24/2022 6:45:00 PM -0.08 31.856 0.03 6.71 6.6 14.53
12/24/2022 7:00:00 PM -0.09 31.838 0.032 6.78 5.73 14.52
12/24/2022 7:15:00 PM -0.09 31.838 0.032 6.81 6.45 14.5
12/24/2022 7:30:00 PM -0.09 31.838 0.032 6.79 6.83 14.48
12/24/2022 7:45:00 PM -0.09 31.838 0.032 6.81 6.86 14.46
12/24/2022 8:00:00 PM -0.08 31.856 0.029 6.74 8.52 14.46
12/24/2022 8:15:00 PM -0.08 31.856 0.032 6.82 7.35 14.44
12/24/2022 8:30:00 PM -0.08 31.856 0.032 6.81 7.36 14.42
12/24/2022 8:45:00 PM -0.08 31.856 0.03 6.77 8.61 14.41
12/24/2022 9:00:00 PM -0.08 31.856 0.032 6.81 8.47 14.4
12/24/2022 9:15:00 PM -0.07 31.874 0.032 6.81 11.79 14.4
12/24/2022 9:30:00 PM -0.02 31.964 0.032 6.78 8.83 14.39
12/24/2022 9:45:00 PM 0.06 32.108 0.033 6.86 8.13 14.41
12/24/2022 10:00:00 PM 0.08 32.144 0.033 6.85 7.23 14.4
12/24/2022 10:15:00 PM 0.07 32.126 0.033 6.84 7.24 14.4
12/24/2022 10:30:00 PM 0.08 32.144 0.033 6.84 6.46 14.4
12/24/2022 10:45:00 PM 0.11 32.198 0.033 6.83 8.61 14.39
12/24/2022 11:00:00 PM 0.12 32.216 0.033 6.84 6.86 14.38
12/24/2022 11:15:00 PM 0.19 32.342 0.021 6.79 6.63 14.4
12/24/2022 11:30:00 PM 0.23 32.414 0.018 6.82 6.37 14.41
12/24/2022 11:45:00 PM 0.24 32.432 0.032 6.83 6.1 14.38
12/25/2022 12:00:00 AM 0.24 32.432 0.033 6.84 6.15 14.39
12/25/2022 12:15:00 AM 0.28 32.504 0.031 6.8 11.84 14.37
12/25/2022 12:30:00 AM 0.28 32.504 0.033 6.84 6.49 14.37
12/25/2022 12:45:00 AM 0.29 32.522 0.022 6.79 5.58 14.37
12/25/2022 1:00:00 AM 0.31 32.558 0.021 6.81 6.18 14.37
12/25/2022 1:15:00 AM 0.34 32.612 0.032 6.85 5.83 14.36
12/25/2022 1:30:00 AM 0.36 32.648 0.032 6.83 5.53 14.36
12/25/2022 1:45:00 AM 0.38 32.684 0.032 6.79 6.58 14.34
12/25/2022 2:00:00 AM 0.4 32.72 0.019 6.81 5.89 14.35
12/25/2022 2:15:00 AM 0.41 32.738 0.032 6.82 6.91 14.34
12/25/2022 2:30:00 AM 0.43 32.774 0.021 6.82 6.67 14.33
12/25/2022 2:45:00 AM 0.45 32.81 0.032 6.78 5.07 14.34
12/25/2022 3:00:00 AM 0.47 32.846 0.018 6.8 5.24 14.33
12/25/2022 3:15:00 AM 0.48 32.864 0.032 6.85 4.81 14.32
12/25/2022 3:30:00 AM 0.5 32.9 0.016 6.8 4.81 14.32
12/25/2022 3:45:00 AM 0.53 32.954 0.028 6.81 4.66 14.3
12/25/2022 4:00:00 AM 0.54 32.972 0.022 6.81 5.53 14.3
12/25/2022 4:15:00 AM 0.55 32.99 0.019 6.81 4.42 14.29
12/25/2022 4:30:00 AM 0.57 33.026 0.018 6.8 4.52 14.29
12/25/2022 4:45:00 AM 0.58 33.044 0.032 6.81 4.31 14.29
12/25/2022 5:00:00 AM 0.6 33.08 0.018 6.82 4.28 14.29
12/25/2022 5:15:00 AM 0.61 33.098 0.032 6.81 4.17 14.28
12/25/2022 5:30:00 AM 0.62 33.116 0.018 6.81 4.42 14.27
12/25/2022 5:45:00 AM 0.64 33.152 0.02 6.81 4.52 14.27
12/25/2022 6:00:00 AM 0.65 33.17 0.032 6.8 4.63 14.27
12/25/2022 6:15:00 AM 0.66 33.188 0.025 6.8 4.49 14.27
12/25/2022 6:30:00 AM 0.67 33.206 0.017 6.8 4.39 14.26
12/25/2022 6:45:00 AM 0.67 33.206 0.032 6.81 4.52 14.27
12/25/2022 7:00:00 AM 0.68 33.224 0.019 6.8 4.43 14.26
12/25/2022 7:15:00 AM 0.68 33.224 0.032 6.8 4.82 14.26
12/25/2022 7:30:00 AM 0.7 33.26 0.02 6.81 4.89 14.26
12/25/2022 7:45:00 AM 0.71 33.278 0.032 6.8 4.52 14.26
12/25/2022 8:00:00 AM 0.72 33.296 0.032 6.84 4.49 14.27
12/25/2022 8:15:00 AM 0.73 33.314 0.032 6.81 4.62 14.27
12/25/2022 8:30:00 AM 0.75 33.35 0.02 6.8 4.37 14.28
12/25/2022 8:45:00 AM 0.76 33.368 0.019 6.83 4.21 14.3
12/25/2022 9:00:00 AM 0.78 33.404 0.032 6.85 3.98 14.32
12/25/2022 9:15:00 AM 0.81 33.458 0.032 6.84 4.01 14.32
12/25/2022 9:30:00 AM 0.84 33.512 0.032 6.86 3.9 14.33
12/25/2022 9:45:00 AM 0.88 33.584 0.031 6.82 6.55 14.34
12/25/2022 10:00:00 AM 0.92 33.656 0.021 6.83 4.03 14.33
12/25/2022 10:15:00 AM 0.94 33.692 0.032 6.85 3.92 14.33
12/25/2022 10:30:00 AM 0.95 33.71 0.032 6.87 3.94 14.32
12/25/2022 10:45:00 AM 0.98 33.764 0.032 6.87 3.94 14.31
12/25/2022 11:00:00 AM 1.03 33.854 0.017 6.83 3.93 14.31
12/25/2022 11:15:00 AM 1.08 33.944 0.03 6.84 5.09 14.3
12/25/2022 11:30:00 AM 1.11 33.998 0.032 6.86 3.8 14.29
12/25/2022 11:45:00 AM 1.17 34.106 0.032 6.87 4.06 14.27
12/25/2022 12:00:00 PM 1.24 34.232 0.029 6.86 5.11 14.25
12/25/2022 12:15:00 PM 1.31 34.358 0.029 6.85 5.38 14.23
12/25/2022 12:30:00 PM 1.31 34.358 0.032 6.88 4.17 14.21
12/25/2022 12:45:00 PM 1.34 34.412 0.031 6.84 4.47 14.19
12/25/2022 1:00:00 PM 1.36 34.448 0.029 6.82 7.26 14.17
12/25/2022 1:15:00 PM 1.41 34.538 0.031 6.85 14.04 14.16
12/25/2022 1:30:00 PM 1.44 34.592 0.031 6.84 5.62 14.14
12/25/2022 1:45:00 PM 1.47 34.646 0.032 6.85 6.94 14.12
12/25/2022 2:00:00 PM 1.5 34.7 0.031 6.84 6.9 14.11
12/25/2022 2:15:00 PM 1.49 34.682 0.032 6.84 5.93 14.1
12/25/2022 2:30:00 PM 1.5 34.7 0.032 6.86 9.08 14.09
12/25/2022 2:45:00 PM 1.51 34.718 0.03 6.83 6.16 14.08
12/25/2022 3:00:00 PM 1.53 34.754 0.032 6.84 3.82 14.07
12/25/2022 3:15:00 PM 1.55 34.79 0.03 6.84 6.12 14.06
12/25/2022 3:30:00 PM 1.56 34.808 0.03 6.83 5.88 14.07
12/25/2022 3:45:00 PM 1.56 34.808 0.03 6.81 5.83 14.06
12/25/2022 4:00:00 PM 1.56 34.808 0.031 6.82 6.16 14.05
12/25/2022 4:15:00 PM 1.55 34.79 0.032 6.83 5.25 14.04
12/25/2022 4:30:00 PM 1.53 34.754 0.03 6.8 6.3 14.03
12/25/2022 4:45:00 PM 1.51 34.718 0.03 6.82 7.09 14.02
12/25/2022 5:00:00 PM 1.5 34.7 0.032 6.84 4.39 14
12/25/2022 5:15:00 PM 1.48 34.664 0.03 6.78 6.36 14
12/25/2022 5:30:00 PM 1.47 34.646 0.032 6.82 5.01 14
12/25/2022 5:45:00 PM 1.46 34.628 0.03 6.79 7.11 14
12/25/2022 6:00:00 PM 1.44 34.592 0.032 6.8 4.59 14
12/25/2022 6:15:00 PM 1.44 34.592 0.032 6.79 4.21 14
12/25/2022 6:30:00 PM 1.42 34.556 0.03 6.79 6.27 14.01
12/25/2022 6:45:00 PM 1.4 34.52 0.032 6.82 4.64 14.02
12/25/2022 7:00:00 PM 1.39 34.502 0.032 6.77 4.7 14.03
12/25/2022 7:15:00 PM 1.38 34.484 0.03 6.79 7.48 14.04
12/25/2022 7:30:00 PM 1.36 34.448 0.03 6.77 7.97 14.05
12/25/2022 7:45:00 PM 1.34 34.412 0.031 6.79 8.48 14.06
12/25/2022 8:00:00 PM 1.34 34.412 0.032 6.82 4.65 14.06
12/25/2022 8:15:00 PM 1.32 34.376 0.032 6.81 4.46 14.07
12/25/2022 8:30:00 PM 1.3 34.34 0.032 6.79 5.07 14.09
12/25/2022 8:45:00 PM 1.29 34.322 0.032 6.79 5.54 14.09
12/25/2022 9:00:00 PM 1.28 34.304 0.031 6.79 7.91 14.1
12/25/2022 9:15:00 PM 1.26 34.268 0.031 6.79 7.7 14.1
12/25/2022 9:30:00 PM 1.25 34.25 0.03 6.79 6.68 14.11
12/25/2022 9:45:00 PM 1.23 34.214 0.032 6.8 5.24 14.12
12/25/2022 10:00:00 PM 1.22 34.196 0.03 6.79 7.78 14.12
12/25/2022 10:15:00 PM 1.2 34.16 0.031 6.79 7.69 14.14
12/25/2022 10:30:00 PM 1.19 34.142 0.03 6.8 8.12 14.15
12/25/2022 10:45:00 PM 1.17 34.106 0.03 6.8 7.51 14.15
12/25/2022 11:00:00 PM 1.16 34.088 0.03 6.79 6.35 14.16
12/25/2022 11:15:00 PM 1.13 34.034 0.032 6.82 5.25 14.17
12/25/2022 11:30:00 PM 1.11 33.998 0.03 6.79 11.16 14.17
12/25/2022 11:45:00 PM 1.09 33.962 0.031 6.78 7.98 14.19
12/26/2022 12:00:00 AM 1.1 33.98 0.032 6.82 5.85 14.19
12/26/2022 12:15:00 AM 1.08 33.944 0.032 6.81 4.72 14.21
12/26/2022 12:30:00 AM 1.06 33.908 0.03 6.78 7.76 14.21
12/26/2022 12:45:00 AM 1.04 33.872 0.032 6.82 5.06 14.22
12/26/2022 1:00:00 AM 1.04 33.872 0.032 6.82 5.23 14.22
12/26/2022 1:15:00 AM 1.03 33.854 0.031 6.76 7.86 14.22
12/26/2022 1:30:00 AM 1.02 33.836 0.032 6.83 4.96 14.23
12/26/2022 1:45:00 AM 1.01 33.818 0.032 6.83 7.77 14.25
12/26/2022 2:00:00 AM 1 33.8 0.03 6.79 7.33 14.25
12/26/2022 2:15:00 AM 0.99 33.782 0.032 6.82 5.21 14.26
12/26/2022 2:30:00 AM 0.97 33.746 0.03 6.78 7.28 14.26
12/26/2022 2:45:00 AM 0.96 33.728 0.031 6.78 6.99 14.28
12/26/2022 3:00:00 AM 0.95 33.71 0.031 6.77 7.38 14.28
12/26/2022 3:15:00 AM 0.95 33.71 0.032 6.82 5.21 14.3
12/26/2022 3:30:00 AM 0.95 33.71 0.03 6.77 6.65 14.29
12/26/2022 3:45:00 AM 0.95 33.71 0.032 6.83 4.77 14.29
12/26/2022 4:00:00 AM 0.95 33.71 0.03 6.8 6.83 14.29
12/26/2022 4:15:00 AM 0.94 33.692 0.03 6.78 6.8 14.29
12/26/2022 4:30:00 AM 0.93 33.674 0.03 6.77 6.04 14.3
12/26/2022 4:45:00 AM 0.93 33.674 0.03 6.78 6.19 14.3
12/26/2022 5:00:00 AM 0.92 33.656 0.032 6.82 4.98 14.32
12/26/2022 5:15:00 AM 0.91 33.638 0.03 6.77 6.72 14.32
12/26/2022 5:30:00 AM 0.91 33.638 0.032 6.78 4.69 14.32
12/26/2022 5:45:00 AM 0.9 33.62 0.032 6.85 5.16 14.33
12/26/2022 6:00:00 AM 0.88 33.584 0.031 6.78 7.07 14.33
12/26/2022 6:15:00 AM 0.86 33.548 0.031 6.78 6.97 14.35
12/26/2022 6:30:00 AM 0.85 33.53 0.032 6.82 5.01 14.35
12/26/2022 6:45:00 AM 0.83 33.494 0.032 6.82 5.09 14.36
12/26/2022 7:00:00 AM 0.82 33.476 0.03 6.76 6.36 14.36
12/26/2022 7:15:00 AM 0.79 33.422 0.032 6.79 4.92 14.38
12/26/2022 7:30:00 AM 0.78 33.404 0.031 6.79 6.73 14.39
12/26/2022 7:45:00 AM 0.76 33.368 0.03 6.78 6.74 14.4
12/26/2022 8:00:00 AM 0.76 33.368 0.03 6.79 6.75 14.42
12/26/2022 8:15:00 AM 0.75 33.35 0.032 6.83 4.95 14.43
12/26/2022 8:30:00 AM 0.75 33.35 0.03 6.8 6.6 14.45
12/26/2022 8:45:00 AM 0.75 33.35 0.032 6.83 4.78 14.48
12/26/2022 9:00:00 AM 0.76 33.368 0.031 6.8 6.63 14.5
12/26/2022 9:15:00 AM 0.77 33.386 0.031 6.82 6.87 14.52
12/26/2022 9:30:00 AM 0.77 33.386 0.032 6.85 4.95 14.54
12/26/2022 9:45:00 AM 0.79 33.422 0.032 6.85 4.71 14.55
12/26/2022 10:00:00 AM 0.81 33.458 0.032 6.84 4.78 14.54
12/26/2022 10:15:00 AM 0.84 33.512 0.031 6.85 6.48 14.55
12/26/2022 10:30:00 AM 0.86 33.548 0.031 6.84 6.49 14.56
12/26/2022 10:45:00 AM 0.89 33.602 0.031 6.84 6.43 14.54
12/26/2022 11:00:00 AM 0.94 33.692 0.031 6.84 6.32 14.53
12/26/2022 11:15:00 AM 0.98 33.764 0.031 6.84 6.27 14.53
12/26/2022 11:30:00 AM 1.01 33.818 0.031 6.84 6.48 14.51
12/26/2022 11:45:00 AM 1.06 33.908 0.03 6.84 6.61 14.5
12/26/2022 12:00:00 PM 1.11 33.998 0.03 6.85 5.91 14.49
12/26/2022 12:15:00 PM 1.16 34.088 0.032 6.89 4.93 14.46
12/26/2022 12:30:00 PM 1.2 34.16 0.031 6.85 6.48 14.44
12/26/2022 12:45:00 PM 1.24 34.232 0.03 6.84 5.87 14.42
12/26/2022 1:00:00 PM 1.28 34.304 0.032 6.89 4.97 14.39
12/26/2022 1:15:00 PM 1.31 34.358 0.031 6.84 6.63 14.38
12/26/2022 1:30:00 PM 1.34 34.412 0.031 6.83 6.99 14.35
12/26/2022 1:45:00 PM 1.38 34.484 0.031 6.85 6.55 14.33
12/26/2022 2:00:00 PM 1.41 34.538 0.032 6.88 4.95 14.31
12/26/2022 2:15:00 PM 1.44 34.592 0.031 6.88 5.09 14.29
12/26/2022 2:30:00 PM 1.47 34.646 0.031 6.88 4.64 14.27
12/26/2022 2:45:00 PM 1.5 34.7 0.03 6.84 6.52 14.26
12/26/2022 3:00:00 PM 1.52 34.736 0.031 6.88 4.88 14.24
12/26/2022 3:15:00 PM 1.53 34.754 0.03 6.83 6.63 14.23
12/26/2022 3:30:00 PM 1.55 34.79 0.03 6.84 6.22 14.21
12/26/2022 3:45:00 PM 1.55 34.79 0.031 6.86 4.98 14.19
12/26/2022 4:00:00 PM 1.56 34.808 0.031 6.82 6.6 14.17
12/26/2022 4:15:00 PM 1.57 34.826 0.031 6.82 6.51 14.15
12/26/2022 4:30:00 PM 1.58 34.844 0.03 6.82 6.49 14.12
12/26/2022 4:45:00 PM 1.57 34.826 0.03 6.82 6.57 14.11
12/26/2022 5:00:00 PM 1.57 34.826 0.03 6.81 6.46 14.09
12/26/2022 5:15:00 PM 1.56 34.808 0.03 6.8 6.07 14.08
12/26/2022 5:30:00 PM 1.56 34.808 0.032 6.82 5.01 14.08
12/26/2022 5:45:00 PM 1.55 34.79 0.03 6.82 6.71 14.08
12/26/2022 6:00:00 PM 1.55 34.79 0.03 6.78 7.06 14.07
12/26/2022 6:15:00 PM 1.54 34.772 0.032 6.82 5.46 14.08
12/26/2022 6:30:00 PM 1.53 34.754 0.03 6.82 7.12 14.08
12/26/2022 6:45:00 PM 1.52 34.736 0.032 6.85 5.51 14.09
12/26/2022 7:00:00 PM 1.5 34.7 0.032 6.86 5.47 14.09
12/26/2022 7:15:00 PM 1.49 34.682 0.032 6.84 5.55 14.1
12/26/2022 7:30:00 PM 1.48 34.664 0.031 6.8 7.16 14.1
12/26/2022 7:45:00 PM 1.47 34.646 0.03 6.8 7.07 14.11
12/26/2022 8:00:00 PM 1.45 34.61 0.03 6.8 7.9 14.12
12/26/2022 8:15:00 PM 1.43 34.574 0.03 6.79 6.36 14.12
12/26/2022 8:30:00 PM 1.4 34.52 0.03 6.8 6.27 14.13
12/26/2022 8:45:00 PM 1.38 34.484 0.03 6.81 6.56 14.14
12/26/2022 9:00:00 PM 1.37 34.466 0.03 6.8 6.24 14.15
12/26/2022 9:15:00 PM 1.35 34.43 0.032 6.85 5.6 14.16
12/26/2022 9:30:00 PM 1.35 34.43 0.03 6.83 7.18 14.16
12/26/2022 9:45:00 PM 1.34 34.412 0.03 6.8 6.2 14.17
12/26/2022 10:00:00 PM 1.33 34.394 0.03 6.8 6.11 14.17
12/26/2022 10:15:00 PM 1.33 34.394 0.03 6.8 6.35 14.18
12/26/2022 10:30:00 PM 1.33 34.394 0.032 6.84 5.82 14.18
12/26/2022 10:45:00 PM 1.33 34.394 0.03 6.8 7.04 14.18
12/26/2022 11:00:00 PM 1.32 34.376 0.031 6.81 7.12 14.18
12/26/2022 11:15:00 PM 1.32 34.376 0.031 6.81 7.17 14.18
12/26/2022 11:30:00 PM 1.32 34.376 0.032 6.85 5.7 14.18
12/26/2022 11:45:00 PM 1.32 34.376 0.032 6.84 5.77 14.18
12/27/2022 12:00:00 AM 1.32 34.376 0.032 6.85 5.53 14.19
12/27/2022 12:15:00 AM 1.33 34.394 0.031 6.81 6.92 14.17
12/27/2022 12:30:00 AM 1.33 34.394 0.03 6.8 6.23 14.18
12/27/2022 12:45:00 AM 1.34 34.412 0.03 6.8 6.49 14.17
12/27/2022 1:00:00 AM 1.33 34.394 0.032 6.85 5.42 14.17
12/27/2022 1:15:00 AM 1.34 34.412 0.032 6.85 5.42 14.17
12/27/2022 1:30:00 AM 1.35 34.43 0.031 6.8 6.98 14.16
12/27/2022 1:45:00 AM 1.35 34.43 0.031 6.82 7.91 14.16
12/27/2022 2:00:00 AM 1.35 34.43 0.031 6.8 7.41 14.17
12/27/2022 2:15:00 AM 1.36 34.448 0.03 6.8 6.88 14.17
12/27/2022 2:30:00 AM 1.36 34.448 0.03 6.79 6.71 14.16
12/27/2022 2:45:00 AM 1.36 34.448 0.032 6.85 5.68 14.16
12/27/2022 3:00:00 AM 1.36 34.448 0.03 6.8 7.37 14.16
12/27/2022 3:15:00 AM 1.36 34.448 0.03 6.81 6.65 14.16
12/27/2022 3:30:00 AM 1.36 34.448 0.03 6.8 6.9 14.16
12/27/2022 3:45:00 AM 1.36 34.448 0.03 6.83 7.08 14.16
12/27/2022 4:00:00 AM 1.36 34.448 0.032 6.86 5.96 14.16
12/27/2022 4:15:00 AM 1.36 34.448 0.031 6.82 7.09 14.16
12/27/2022 4:30:00 AM 1.37 34.466 0.03 6.81 6.87 14.16
12/27/2022 4:45:00 AM 1.37 34.466 0.03 6.81 6.77 14.16
12/27/2022 5:00:00 AM 1.37 34.466 0.032 6.86 5.81 14.16
12/27/2022 5:15:00 AM 1.38 34.484 0.032 6.86 6.02 14.16
12/27/2022 5:30:00 AM 1.39 34.502 0.031 6.82 7.32 14.16
12/27/2022 5:45:00 AM 1.38 34.484 0.032 6.86 5.85 14.17
12/27/2022 6:00:00 AM 1.39 34.502 0.031 6.81 6.99 14.16
12/27/2022 6:15:00 AM 1.4 34.52 0.031 6.83 7.29 14.16
12/27/2022 6:30:00 AM 1.4 34.52 0.031 6.81 7.19 14.16
12/27/2022 6:45:00 AM 1.41 34.538 0.031 6.82 7.21 14.15
12/27/2022 7:00:00 AM 1.42 34.556 0.032 6.83 5.89 14.16
12/27/2022 7:15:00 AM 1.43 34.574 0.031 6.84 7.25 14.15
12/27/2022 7:30:00 AM 1.43 34.574 0.032 6.87 5.98 14.15
12/27/2022 7:45:00 AM 1.44 34.592 0.031 6.82 7.16 14.15
12/27/2022 8:00:00 AM 1.45 34.61 0.031 6.82 7.01 14.16
12/27/2022 8:15:00 AM 1.46 34.628 0.032 6.87 5.8 14.17
12/27/2022 8:30:00 AM 1.47 34.646 0.032 6.87 5.88 14.18
12/27/2022 8:45:00 AM 1.49 34.682 0.031 6.85 7.18 14.18
12/27/2022 9:00:00 AM 1.5 34.7 0.03 6.85 6.88 14.2
12/27/2022 9:15:00 AM 1.52 34.736 0.032 6.89 6.03 14.22
12/27/2022 9:30:00 AM 1.54 34.772 0.032 6.89 6.06 14.23
12/27/2022 9:45:00 AM 1.56 34.808 0.032 6.92 6.09 14.23
12/27/2022 10:00:00 AM 1.58 34.844 0.031 6.87 7.19 14.24
12/27/2022 10:15:00 AM 1.61 34.898 0.032 6.92 5.99 14.24
12/27/2022 10:30:00 AM 1.64 34.952 0.031 6.88 7.24 14.25
12/27/2022 10:45:00 AM 1.68 35.024 0.032 6.93 6.01 14.24
12/27/2022 11:00:00 AM 1.71 35.078 0.032 6.92 6.15 14.24
12/27/2022 11:15:00 AM 1.76 35.168 0.031 6.91 7.16 14.23
12/27/2022 11:30:00 AM 1.78 35.204 0.032 6.94 6.03 14.22
12/27/2022 11:45:00 AM 1.82 35.276 0.032 6.92 6.01 14.2
12/27/2022 12:00:00 PM 1.85 35.33 0.032 6.95 5.95 14.18
12/27/2022 12:15:00 PM 1.87 35.366 0.031 6.9 7.17 14.17
12/27/2022 12:30:00 PM 1.9 35.42 0.032 6.94 6.02 14.15
12/27/2022 12:45:00 PM 1.92 35.456 0.032 6.93 6.05 14.13
12/27/2022 1:00:00 PM 1.95 35.51 0.03 6.88 7.33 14.12
12/27/2022 1:15:00 PM 1.97 35.546 0.03 6.88 7.06 14.11
12/27/2022 1:30:00 PM 1.99 35.582 0.032 6.93 6.02 14.11
12/27/2022 1:45:00 PM 2.02 35.636 0.031 6.92 6.09 14.09
12/27/2022 2:00:00 PM 2.05 35.69 0.031 6.94 6.08 14.08
12/27/2022 2:15:00 PM 2.07 35.726 0.031 6.93 6.14 14.06
12/27/2022 2:30:00 PM 2.08 35.744 0.031 6.93 6.14 14.04
12/27/2022 2:45:00 PM 2.1 35.78 0.031 6.93 6.3 14.03
12/27/2022 3:00:00 PM 2.12 35.816 0.031 6.93 6.19 14.02
12/27/2022 3:15:00 PM 2.14 35.852 0.031 6.93 6.07 14
12/27/2022 3:30:00 PM 2.15 35.87 0.031 6.89 7.11 13.98
12/27/2022 3:45:00 PM 2.17 35.906 0.031 6.92 5.98 13.97
12/27/2022 4:00:00 PM 2.17 35.906 0.031 6.93 6.05 13.94
12/27/2022 4:15:00 PM 2.18 35.924 0.031 6.87 6.94 13.93
12/27/2022 4:30:00 PM 2.19 35.942 0.031 6.94 5.88 13.91
12/27/2022 4:45:00 PM 2.19 35.942 0.032 6.89 6.02 13.89
12/27/2022 5:00:00 PM 2.19 35.942 0.032 6.9 6.05 13.87
12/27/2022 5:15:00 PM 2.2 35.96 0.032 6.89 5.99 13.85
12/27/2022 5:30:00 PM 2.21 35.978 0.032 6.9 6.04 13.84
12/27/2022 5:45:00 PM 2.21 35.978 0.032 6.89 6.08 13.83
12/27/2022 6:00:00 PM 2.22 35.996 0.032 6.88 6.09 13.83
12/27/2022 6:15:00 PM 2.22 35.996 0.032 6.89 6.09 13.83
12/27/2022 6:30:00 PM 2.23 36.014 0.03 6.83 6.95 13.82
12/27/2022 6:45:00 PM 2.23 36.014 0.032 6.88 6.04 13.83
12/27/2022 7:00:00 PM 2.23 36.014 0.032 6.88 6.04 13.82
12/27/2022 7:15:00 PM 2.23 36.014 0.031 6.85 7.1 13.81
12/27/2022 7:30:00 PM 2.24 36.032 0.031 6.84 7.05 13.82
12/27/2022 7:45:00 PM 2.24 36.032 0.032 6.88 5.95 13.82
12/27/2022 8:00:00 PM 2.24 36.032 0.031 6.84 7.18 13.82
12/27/2022 8:15:00 PM 2.25 36.05 0.03 6.83 6.96 13.81
12/27/2022 8:30:00 PM 2.25 36.05 0.032 6.9 6 13.81
12/27/2022 8:45:00 PM 2.25 36.05 0.032 6.89 6.05 13.81
12/27/2022 9:00:00 PM 2.26 36.068 0.032 6.88 6.11 13.81
12/27/2022 9:15:00 PM 2.26 36.068 0.032 6.89 6.06 13.81
12/27/2022 9:30:00 PM 2.26 36.068 0.031 6.84 7.16 13.81
12/27/2022 9:45:00 PM 2.27 36.086 0.032 6.88 6.09 13.8
12/27/2022 10:00:00 PM 2.27 36.086 0.032 6.88 6.08 13.81
12/27/2022 10:15:00 PM 2.27 36.086 0.031 6.84 7.1 13.79
12/27/2022 10:30:00 PM 2.28 36.104 0.032 6.88 5.91 13.79
12/27/2022 10:45:00 PM 2.28 36.104 0.032 6.91 6.08 13.79
12/27/2022 11:00:00 PM 2.29 36.122 0.031 6.83 7.03 13.79
12/27/2022 11:15:00 PM 2.29 36.122 0.032 6.88 6.12 13.79
12/27/2022 11:30:00 PM 2.29 36.122 0.032 6.88 6 13.79
12/27/2022 11:45:00 PM 2.3 36.14 0.032 6.88 6.02 13.79
12/28/2022 12:00:00 AM 2.3 36.14 0.032 6.88 6.05 13.78
12/28/2022 12:15:00 AM 2.3 36.14 0.032 6.88 6.03 13.78
12/28/2022 12:30:00 AM 2.31 36.158 0.032 6.89 6.09 13.78
12/28/2022 12:45:00 AM 2.31 36.158 0.032 6.87 5.85 13.78
12/28/2022 1:00:00 AM 2.32 36.176 0.031 6.86 7.1 13.76
12/28/2022 1:15:00 AM 2.31 36.158 0.032 6.88 6.07 13.77
12/28/2022 1:30:00 AM 2.32 36.176 0.032 6.9 6.05 13.76
12/28/2022 1:45:00 AM 2.32 36.176 0.032 6.89 6.07 13.76
12/28/2022 2:00:00 AM 2.32 36.176 0.032 6.9 5.86 13.76
12/28/2022 2:15:00 AM 2.32 36.176 0.032 6.88 6.02 13.76
12/28/2022 2:30:00 AM 2.31 36.158 0.031 6.86 7.04 13.76
12/28/2022 2:45:00 AM 2.32 36.176 0.032 6.9 6.1 13.76
12/28/2022 3:00:00 AM 2.32 36.176 0.032 6.89 6.12 13.76
12/28/2022 3:15:00 AM 2.31 36.158 0.032 6.92 6.04 13.77
12/28/2022 3:30:00 AM 2.3 36.14 0.031 6.83 7.24 13.76
12/28/2022 3:45:00 AM 2.28 36.104 0.031 6.84 7.2 13.76
12/28/2022 4:00:00 AM 2.27 36.086 0.031 6.86 7.19 13.76
12/28/2022 4:15:00 AM 2.26 36.068 0.032 6.89 6.04 13.78
12/28/2022 4:30:00 AM 2.24 36.032 0.032 6.92 6.13 13.78
12/28/2022 4:45:00 AM 2.22 35.996 0.032 6.89 6.09 13.79
12/28/2022 5:00:00 AM 2.2 35.96 0.032 6.88 6.05 13.8
12/28/2022 5:15:00 AM 2.18 35.924 0.032 6.89 6.05 13.8
12/28/2022 5:30:00 AM 2.16 35.888 0.032 6.89 6.17 13.81
12/28/2022 5:45:00 AM 2.15 35.87 0.032 6.88 6.09 13.83
12/28/2022 6:00:00 AM 2.12 35.816 0.032 6.88 6.07 13.83
12/28/2022 6:15:00 AM 2.1 35.78 0.031 6.84 7.12 13.83
12/28/2022 6:30:00 AM 2.08 35.744 0.032 6.88 6.07 13.86
12/28/2022 6:45:00 AM 2.06 35.708 0.03 6.83 7.04 13.86
12/28/2022 7:00:00 AM 2.04 35.672 0.032 6.88 5.99 13.88
12/28/2022 7:15:00 AM 2.01 35.618 0.032 6.89 6.04 13.88
12/28/2022 7:30:00 AM 1.99 35.582 0.031 6.83 7.05 13.88
12/28/2022 7:45:00 AM 1.96 35.528 0.031 6.84 7.12 13.91
12/28/2022 8:00:00 AM 1.94 35.492 0.032 6.89 6.08 13.94
12/28/2022 8:15:00 AM 1.93 35.474 0.03 6.84 7.24 13.98
12/28/2022 8:30:00 AM 1.92 35.456 0.03 6.84 7.04 14.01
12/28/2022 8:45:00 AM 1.91 35.438 0.032 6.91 6.04 14.05
12/28/2022 9:00:00 AM 1.9 35.42 0.03 6.87 6.75 14.07
12/28/2022 9:15:00 AM 1.9 35.42 0.032 6.92 5.92 14.09
12/28/2022 9:30:00 AM 1.91 35.438 0.032 6.97 5.98 14.12
12/28/2022 9:45:00 AM 1.92 35.456 0.031 6.88 7.07 14.12
12/28/2022 10:00:00 AM 1.91 35.438 0.032 6.92 6.06 14.13
12/28/2022 10:15:00 AM 1.93 35.474 0.032 6.94 5.96 14.13
12/28/2022 10:30:00 AM 1.98 35.564 0.032 6.96 6.02 14.14
12/28/2022 10:45:00 AM 2 35.6 0.032 6.99 5.92 14.13
12/28/2022 11:00:00 AM 2.07 35.726 0.032 6.95 6.02 14.12
12/28/2022 11:15:00 AM 2.13 35.834 0.031 6.91 6.98 14.12
12/28/2022 11:30:00 AM 2.19 35.942 0.031 6.91 6.92 14.09
12/28/2022 11:45:00 AM 2.26 36.068 0.03 6.9 6.96 14.06
12/28/2022 12:00:00 PM 2.32 36.176 0.032 6.95 5.89 14.04
12/28/2022 12:15:00 PM 2.42 36.356 0.032 6.96 6.02 14.01
12/28/2022 12:30:00 PM 2.53 36.554 0.032 6.96 6.2 13.97
12/28/2022 12:45:00 PM 2.61 36.698 0.031 6.91 6.79 13.93
12/28/2022 1:00:00 PM 2.69 36.842 0.032 6.96 5.94 13.91
12/28/2022 1:15:00 PM 2.77 36.986 0.03 6.91 6.93 13.87
12/28/2022 1:30:00 PM 2.85 37.13 0.03 6.9 7 13.83
12/28/2022 1:45:00 PM 2.92 37.256 0.031 6.97 5.89 13.8
12/28/2022 2:00:00 PM 2.98 37.364 0.031 6.92 6.98 13.76
12/28/2022 2:15:00 PM 3.04 37.472 0.031 6.98 6.01 13.74
12/28/2022 2:30:00 PM 3.1 37.58 0.031 7.01 5.87 13.71
12/28/2022 2:45:00 PM 3.13 37.634 0.031 6.96 5.88 13.68
12/28/2022 3:00:00 PM 3.17 37.706 0.031 6.94 6.96 13.66
12/28/2022 3:15:00 PM 3.19 37.742 0.031 6.97 5.78 13.63
12/28/2022 3:30:00 PM 3.22 37.796 0.031 6.96 5.98 13.61
12/28/2022 3:45:00 PM 3.24 37.832 0.031 6.96 5.87 13.58
12/28/2022 4:00:00 PM 3.26 37.868 0.031 6.96 5.99 13.56
12/28/2022 4:15:00 PM 3.29 37.922 0.031 6.95 5.99 13.52
12/28/2022 4:30:00 PM 3.31 37.958 0.03 6.88 9.51 13.48
12/28/2022 4:45:00 PM 3.32 37.976 0.031 6.92 5.84 13.45
12/28/2022 5:00:00 PM 3.33 37.994 0.031 6.93 5.96 13.41
12/28/2022 5:15:00 PM 3.34 38.012 0.031 6.91 5.91 13.39
12/28/2022 5:30:00 PM 3.35 38.03 0.031 6.91 5.98 13.38
12/28/2022 5:45:00 PM 3.35 38.03 0.031 6.87 5.99 13.37
12/28/2022 6:00:00 PM 3.33 37.994 0.032 6.9 6.03 13.36
12/28/2022 6:15:00 PM 3.32 37.976 0.031 6.87 7.26 13.36
12/28/2022 6:30:00 PM 3.3 37.94 0.031 6.87 7.12 13.37
12/28/2022 6:45:00 PM 3.28 37.904 0.032 6.89 6.15 13.37
12/28/2022 7:00:00 PM 3.26 37.868 0.031 6.87 7.21 13.38
12/28/2022 7:15:00 PM 3.23 37.814 0.032 6.91 5.88 13.4
12/28/2022 7:30:00 PM 3.21 37.778 0.032 6.93 6.07 13.4
12/28/2022 7:45:00 PM 3.19 37.742 0.032 6.91 6.07 13.41
12/28/2022 8:00:00 PM 3.17 37.706 0.031 6.87 7.18 13.42
12/28/2022 8:15:00 PM 3.14 37.652 0.03 6.83 7.02 13.43
12/28/2022 8:30:00 PM 3.12 37.616 0.03 6.84 6.95 13.44
12/28/2022 8:45:00 PM 3.09 37.562 0.032 6.94 5.97 13.45
12/28/2022 9:00:00 PM 3.07 37.526 0.032 6.9 6.14 13.46
12/28/2022 9:15:00 PM 3.05 37.49 0.032 6.92 5.97 13.47
12/28/2022 9:30:00 PM 3.03 37.454 0.031 6.85 7 13.47
12/28/2022 9:45:00 PM 3 37.4 0.03 6.85 6.79 13.49
12/28/2022 10:00:00 PM 2.97 37.346 0.03 6.86 7.06 13.49
12/28/2022 10:15:00 PM 2.94 37.292 0.03 6.88 7.05 13.5
12/28/2022 10:30:00 PM 2.91 37.238 0.03 6.86 6.87 13.51
12/28/2022 10:45:00 PM 2.89 37.202 0.03 6.86 6.8 13.53
12/28/2022 11:00:00 PM 2.86 37.148 0.03 6.85 6.95 13.53
12/28/2022 11:15:00 PM 2.83 37.094 0.03 6.85 6.76 13.55
12/28/2022 11:30:00 PM 2.8 37.04 0.03 6.87 6.96 13.56
12/28/2022 11:45:00 PM 2.78 37.004 0.032 6.93 5.85 13.57
12/29/2022 12:00:00 AM 2.75 36.95 0.032 6.9 5.97 13.58
12/29/2022 12:15:00 AM 2.72 36.896 0.031 6.87 7.06 13.59
12/29/2022 12:30:00 AM 2.7 36.86 0.032 6.91 6.03 13.6
12/29/2022 12:45:00 AM 2.67 36.806 0.031 6.88 7 13.61
12/29/2022 1:00:00 AM 2.64 36.752 0.032 6.92 5.86 13.62
12/29/2022 1:15:00 AM 2.62 36.716 0.031 6.85 6.99 13.63
12/29/2022 1:30:00 AM 2.59 36.662 0.032 6.91 5.91 13.65
12/29/2022 1:45:00 AM 2.56 36.608 0.032 6.9 5.94 13.66
12/29/2022 2:00:00 AM 2.53 36.554 0.032 6.86 7.16 13.67
12/29/2022 2:15:00 AM 2.5 36.5 0.032 6.85 7.14 13.68
12/29/2022 2:30:00 AM 2.48 36.464 0.032 6.86 7.09 13.7
12/29/2022 2:45:00 AM 2.45 36.41 0.032 6.9 5.91 13.7
12/29/2022 3:00:00 AM 2.42 36.356 0.032 6.91 5.98 13.72
12/29/2022 3:15:00 AM 2.4 36.32 0.032 6.85 7.18 13.73
12/29/2022 3:30:00 AM 2.37 36.266 0.032 6.85 7.01 13.73
12/29/2022 3:45:00 AM 2.34 36.212 0.032 6.85 7.01 13.75
12/29/2022 4:00:00 AM 2.31 36.158 0.032 6.93 5.92 13.76
12/29/2022 4:15:00 AM 2.28 36.104 0.032 6.89 5.85 13.76
12/29/2022 4:30:00 AM 2.25 36.05 0.032 6.86 7.11 13.78
12/29/2022 4:45:00 AM 2.22 35.996 0.033 6.89 6.05 13.8
12/29/2022 5:00:00 AM 2.19 35.942 0.031 6.83 7.01 13.8
12/29/2022 5:15:00 AM 2.16 35.888 0.033 6.9 5.87 13.82
12/29/2022 5:30:00 AM 2.12 35.816 0.033 6.91 6.02 13.85
12/29/2022 5:45:00 AM 2.1 35.78 0.033 6.9 5.9 13.86
12/29/2022 6:00:00 AM 2.07 35.726 0.033 6.91 5.83 13.87
12/29/2022 6:15:00 AM 2.04 35.672 0.032 6.85 7.17 13.88
12/29/2022 6:30:00 AM 2.01 35.618 0.031 6.84 7.01 13.89
12/29/2022 6:45:00 AM 1.98 35.564 0.033 6.89 5.95 13.91
12/29/2022 7:00:00 AM 1.95 35.51 0.032 6.84 7 13.92
12/29/2022 7:15:00 AM 1.92 35.456 0.033 6.89 5.86 13.93
12/29/2022 7:30:00 AM 1.89 35.402 0.033 6.89 5.96 13.95
12/29/2022 7:45:00 AM 1.86 35.348 0.032 6.85 7.06 13.97
12/29/2022 8:00:00 AM 1.83 35.294 0.033 6.9 5.94 13.99
12/29/2022 8:15:00 AM 1.81 35.258 0.032 6.85 6.98 14.04
12/29/2022 8:30:00 AM 1.79 35.222 0.033 6.92 5.91 14.08
12/29/2022 8:45:00 AM 1.78 35.204 0.033 6.92 5.77 14.11
12/29/2022 9:00:00 AM 1.77 35.186 0.031 6.87 6.87 14.13
12/29/2022 9:15:00 AM 1.75 35.15 0.031 6.87 6.92 14.15
12/29/2022 9:30:00 AM 1.74 35.132 0.033 6.93 5.76 14.17
12/29/2022 9:45:00 AM 1.73 35.114 0.033 6.96 5.93 14.17
12/29/2022 10:00:00 AM 1.73 35.114 0.033 6.95 5.84 14.19
12/29/2022 10:15:00 AM 1.73 35.114 0.032 6.9 6.82 14.2
12/29/2022 10:30:00 AM 1.74 35.132 0.032 6.95 5.87 14.2
12/29/2022 10:45:00 AM 1.78 35.204 0.031 6.91 6.86 14.21
12/29/2022 11:00:00 AM 1.83 35.294 0.031 6.9 6.86 14.21
12/29/2022 11:15:00 AM 1.89 35.402 0.032 6.96 5.69 14.2
12/29/2022 11:30:00 AM 1.97 35.546 0.031 6.91 6.88 14.19
12/29/2022 11:45:00 AM 2.07 35.726 0.032 6.96 5.83 14.18
12/29/2022 12:00:00 PM 2.16 35.888 0.03 6.91 6.91 14.13
12/29/2022 12:15:00 PM 2.29 36.122 0.032 6.97 5.84 14.09
12/29/2022 12:30:00 PM 2.39 36.302 0.032 6.98 5.76 14.06
12/29/2022 12:45:00 PM 2.53 36.554 0.032 6.99 5.78 14.01
12/29/2022 1:00:00 PM 2.62 36.716 0.031 6.93 6.87 13.97
12/29/2022 1:15:00 PM 2.7 36.86 0.031 6.92 6.98 13.93
12/29/2022 1:30:00 PM 2.73 36.914 0.03 6.95 6.84 13.91
12/29/2022 1:45:00 PM 2.81 37.058 0.03 6.91 7 13.88
12/29/2022 2:00:00 PM 2.84 37.112 0.03 6.94 7.05 13.85
12/29/2022 2:15:00 PM 2.9 37.22 0.032 6.99 5.81 13.8
12/29/2022 2:30:00 PM 2.96 37.328 0.032 6.99 5.85 13.75
12/29/2022 2:45:00 PM 3.02 37.436 0.031 6.93 6.89 13.71
12/29/2022 3:00:00 PM 3.06 37.508 0.03 6.9 6.88 13.67
12/29/2022 3:15:00 PM 3.09 37.562 0.032 6.99 5.77 13.63
12/29/2022 3:30:00 PM 3.13 37.634 0.032 7 5.73 13.6
12/29/2022 3:45:00 PM 3.16 37.688 0.031 6.9 6.9 13.59
12/29/2022 4:00:00 PM 3.19 37.742 0.032 6.96 5.79 13.56
12/29/2022 4:15:00 PM 3.23 37.814 0.031 6.9 6.9 13.53
12/29/2022 4:30:00 PM 3.28 37.904 0.032 6.95 5.71 13.49
12/29/2022 4:45:00 PM 3.32 37.976 0.032 6.94 5.87 13.44
12/29/2022 5:00:00 PM 3.36 38.048 0.031 6.87 6.91 13.41
12/29/2022 5:15:00 PM 3.38 38.084 0.031 6.87 7.04 13.37
12/29/2022 5:30:00 PM 3.39 38.102 0.031 6.87 7 13.35
12/29/2022 5:45:00 PM 3.4 38.12 0.031 6.87 6.94 13.33
12/29/2022 6:00:00 PM 3.4 38.12 0.032 6.92 5.95 13.34
12/29/2022 6:15:00 PM 3.41 38.138 0.032 6.92 5.78 13.32
12/29/2022 6:30:00 PM 3.43 38.174 0.032 6.95 5.87 13.32
12/29/2022 6:45:00 PM 3.44 38.192 0.032 6.89 5.85 13.32
12/29/2022 7:00:00 PM 3.45 38.21 0.031 6.86 7.11 13.32
12/29/2022 7:15:00 PM 3.46 38.228 0.032 6.91 5.98 13.31
12/29/2022 7:30:00 PM 3.47 38.246 0.032 6.91 5.89 13.31
12/29/2022 7:45:00 PM 3.49 38.282 0.032 6.93 5.97 13.3
12/29/2022 8:00:00 PM 3.5 38.3 0.032 6.91 5.86 13.31
12/29/2022 8:15:00 PM 3.51 38.318 0.032 6.95 5.78 13.3
12/29/2022 8:30:00 PM 3.52 38.336 0.032 6.91 5.9 13.3
12/29/2022 8:45:00 PM 3.52 38.336 0.032 6.91 5.79 13.29
12/29/2022 9:00:00 PM 3.53 38.354 0.032 6.91 5.71 13.3
12/29/2022 9:15:00 PM 3.53 38.354 0.032 6.91 5.77 13.29
12/29/2022 9:30:00 PM 3.54 38.372 0.032 6.95 5.77 13.29
12/29/2022 9:45:00 PM 3.55 38.39 0.032 6.93 5.88 13.29
12/29/2022 10:00:00 PM 3.56 38.408 0.032 6.92 5.92 13.28
12/29/2022 10:15:00 PM 3.57 38.426 0.032 6.91 5.95 13.29
12/29/2022 10:30:00 PM 3.58 38.444 0.032 6.91 6.09 13.28
12/29/2022 10:45:00 PM 3.59 38.462 0.032 6.9 5.91 13.28
12/29/2022 11:00:00 PM 3.6 38.48 0.032 6.92 5.75 13.27
12/29/2022 11:15:00 PM 3.61 38.498 0.032 6.92 5.88 13.27
12/29/2022 11:30:00 PM 3.62 38.516 0.032 6.85 6.93 13.27
12/29/2022 11:45:00 PM 3.63 38.534 0.032 6.86 7.01 13.27
12/30/2022 12:00:00 AM 3.64 38.552 0.032 6.91 5.96 13.26
12/30/2022 12:15:00 AM 3.65 38.57 0.032 6.91 5.96 13.26
12/30/2022 12:30:00 AM 3.64 38.552 0.031 6.85 7.07 13.26
12/30/2022 12:45:00 AM 3.65 38.57 0.032 6.91 5.75 13.25
12/30/2022 1:00:00 AM 3.66 38.588 0.032 6.92 5.89 13.25
12/30/2022 1:15:00 AM 3.66 38.588 0.032 6.91 5.87 13.25
12/30/2022 1:30:00 AM 3.67 38.606 0.032 6.93 5.89 13.25
12/30/2022 1:45:00 AM 3.67 38.606 0.032 6.91 5.96 13.25
12/30/2022 2:00:00 AM 3.68 38.624 0.032 6.85 7.11 13.23
12/30/2022 2:15:00 AM 3.68 38.624 0.031 6.85 6.92 13.24
12/30/2022 2:30:00 AM 3.69 38.642 0.032 6.92 5.69 13.24
12/30/2022 2:45:00 AM 3.69 38.642 0.031 6.85 7.11 13.24
12/30/2022 3:00:00 AM 3.69 38.642 0.032 6.86 7.09 13.23
12/30/2022 3:15:00 AM 3.69 38.642 0.032 6.91 5.92 13.24
12/30/2022 3:30:00 AM 3.7 38.66 0.032 6.91 5.84 13.23
12/30/2022 3:45:00 AM 3.71 38.678 0.032 6.86 6.9 13.22
12/30/2022 4:00:00 AM 3.71 38.678 0.032 6.93 7.05 13.23
12/30/2022 4:15:00 AM 3.71 38.678 0.032 6.84 7.13 13.22
12/30/2022 4:30:00 AM 3.72 38.696 0.032 6.86 7.02 13.22
12/30/2022 4:45:00 AM 3.72 38.696 0.032 6.86 7.04 13.22
12/30/2022 5:00:00 AM 3.73 38.714 0.032 6.91 5.94 13.22
12/30/2022 5:15:00 AM 3.73 38.714 0.032 6.85 7.16 13.22
12/30/2022 5:30:00 AM 3.74 38.732 0.032 6.85 7.09 13.21
12/30/2022 5:45:00 AM 3.75 38.75 0.032 6.85 7.24 13.22
12/30/2022 6:00:00 AM 3.75 38.75 0.032 6.9 5.77 13.21
12/30/2022 6:15:00 AM 3.76 38.768 0.032 6.9 6 13.21
12/30/2022 6:30:00 AM 3.77 38.786 0.032 6.91 5.92 13.21
12/30/2022 6:45:00 AM 3.77 38.786 0.032 6.9 6.09 13.2
12/30/2022 7:00:00 AM 3.78 38.804 0.032 6.9 5.77 13.21
12/30/2022 7:15:00 AM 3.79 38.822 0.033 6.91 5.94 13.2
12/30/2022 7:30:00 AM 3.79 38.822 0.033 6.9 5.8 13.2
12/30/2022 7:45:00 AM 3.81 38.858 0.032 6.84 7.02 13.2
12/30/2022 8:00:00 AM 3.81 38.858 0.033 6.93 5.86 13.21
12/30/2022 8:15:00 AM 3.83 38.894 0.032 6.85 7.18 13.24
12/30/2022 8:30:00 AM 3.84 38.912 0.033 6.93 5.9 13.24
12/30/2022 8:45:00 AM 3.85 38.93 0.033 6.93 6 13.27
12/30/2022 9:00:00 AM 3.88 38.984 0.032 6.89 6.93 13.29
12/30/2022 9:15:00 AM 3.91 39.038 0.032 6.89 7.09 13.33
12/30/2022 9:30:00 AM 3.94 39.092 0.032 6.95 5.76 13.35
12/30/2022 9:45:00 AM 3.97 39.146 0.032 6.91 6.96 13.36
12/30/2022 10:00:00 AM 4 39.2 0.031 6.9 6.82 13.36
12/30/2022 10:15:00 AM 4.04 39.272 0.032 6.98 5.83 13.37
12/30/2022 10:30:00 AM 4.08 39.344 0.032 6.99 5.72 13.37
12/30/2022 10:45:00 AM 4.12 39.416 0.032 7 5.82 13.36
12/30/2022 11:00:00 AM 4.18 39.524 0.032 6.99 5.95 13.35
12/30/2022 11:15:00 AM 4.22 39.596 0.032 6.99 5.8 13.33
12/30/2022 11:30:00 AM 4.26 39.668 0.032 7 5.87 13.32
12/30/2022 11:45:00 AM 4.32 39.776 0.032 7 5.83 13.31
12/30/2022 12:00:00 PM 4.39 39.902 0.031 6.95 6.91 13.29
12/30/2022 12:15:00 PM 4.44 39.992 0.032 6.97 5.81 13.26
12/30/2022 12:30:00 PM 4.47 40.046 0.031 6.98 7.04 13.24
12/30/2022 12:45:00 PM 4.53 40.154 0.032 7 5.73 13.23
12/30/2022 1:00:00 PM 4.56 40.208 0.032 6.98 5.69 13.2
12/30/2022 1:15:00 PM 4.61 40.298 0.032 7.02 5.73 13.18
12/30/2022 1:30:00 PM 4.71 40.478 0.031 6.96 7.06 13.16
12/30/2022 1:45:00 PM 4.75 40.55 0.032 7 6 13.14
12/30/2022 2:00:00 PM 4.76 40.568 0.031 6.94 7.15 13.11
12/30/2022 2:15:00 PM 4.81 40.658 0.031 6.95 7.28 13.1
12/30/2022 2:30:00 PM 4.84 40.712 0.031 6.96 7.12 13.07
12/30/2022 2:45:00 PM 4.85 40.73 0.032 7.01 5.99 13.05
12/30/2022 3:00:00 PM 4.85 40.73 0.03 6.93 6.93 13.01
12/30/2022 3:15:00 PM 4.84 40.712 0.032 6.99 5.85 12.99
12/30/2022 3:30:00 PM 4.84 40.712 0.031 6.93 7.15 12.96
12/30/2022 3:45:00 PM 4.82 40.676 0.031 6.93 6.95 12.94
12/30/2022 4:00:00 PM 4.82 40.676 0.031 6.9 6.94 12.93
12/30/2022 4:15:00 PM 4.81 40.658 0.032 6.99 5.71 12.92
12/30/2022 4:30:00 PM 4.79 40.622 0.031 6.91 6.97 12.9
12/30/2022 4:45:00 PM 4.77 40.586 0.031 6.9 7.07 12.87
12/30/2022 5:00:00 PM 4.75 40.55 0.031 6.9 6.99 12.85
12/30/2022 5:15:00 PM 4.72 40.496 0.031 6.89 7.1 12.84
12/30/2022 5:30:00 PM 4.69 40.442 0.03 6.88 7.12 12.83
12/30/2022 5:45:00 PM 4.67 40.406 0.03 6.86 7.14 12.83
12/30/2022 6:00:00 PM 4.64 40.352 0.032 6.91 5.92 12.84
12/30/2022 6:15:00 PM 4.61 40.298 0.032 6.92 5.9 12.84
12/30/2022 6:30:00 PM 4.58 40.244 0.032 6.94 5.88 12.86
12/30/2022 6:45:00 PM 4.56 40.208 0.031 6.85 6.98 12.86
12/30/2022 7:00:00 PM 4.53 40.154 0.03 6.85 6.86 12.88
12/30/2022 7:15:00 PM 4.51 40.118 0.03 6.85 6.9 12.89
12/30/2022 7:30:00 PM 4.49 40.082 0.031 6.85 6.89 12.89
12/30/2022 7:45:00 PM 4.47 40.046 0.03 6.85 7.18 12.9
12/30/2022 8:00:00 PM 4.45 40.01 0.032 6.9 5.87 12.92
12/30/2022 8:15:00 PM 4.43 39.974 0.032 6.92 6.12 12.92
12/30/2022 8:30:00 PM 4.41 39.938 0.031 6.85 7.01 12.93
12/30/2022 8:45:00 PM 4.4 39.92 0.031 6.86 7.19 12.93
12/30/2022 9:00:00 PM 4.38 39.884 0.032 6.9 6.43 12.94
12/30/2022 9:15:00 PM 4.36 39.848 0.031 6.85 7.04 12.95
12/30/2022 9:30:00 PM 4.31 39.758 0.03 6.85 7.15 12.95
12/30/2022 9:45:00 PM 4.3 39.74 0.031 6.86 6.96 12.96
12/30/2022 10:00:00 PM 4.27 39.686 0.031 6.85 6.99 12.98
12/30/2022 10:15:00 PM 4.25 39.65 0.031 6.85 6.88 12.98
12/30/2022 10:30:00 PM 4.22 39.596 0.031 6.84 7.21 12.99
12/30/2022 10:45:00 PM 4.2 39.56 0.031 6.85 7.07 12.99
12/30/2022 11:00:00 PM 4.17 39.506 0.031 6.84 7.01 13
12/30/2022 11:15:00 PM 4.14 39.452 0.032 6.94 5.75 13.01
12/30/2022 11:30:00 PM 4.12 39.416 0.032 6.91 6.09 13.02
12/30/2022 11:45:00 PM 4.1 39.38 0.032 6.9 6.03 13.03
12/31/2022 12:00:00 AM 4.08 39.344 0.032 6.93 5.88 13.04
12/31/2022 12:15:00 AM 4.06 39.308 0.031 6.84 6.98 13.04
12/31/2022 12:30:00 AM 4.04 39.272 0.031 6.83 6.82 13.05
12/31/2022 12:45:00 AM 4.01 39.218 0.032 6.91 5.83 13.05
12/31/2022 1:00:00 AM 4 39.2 0.032 6.9 5.99 13.06
12/31/2022 1:15:00 AM 3.98 39.164 0.032 6.85 7.03 13.07
12/31/2022 1:30:00 AM 3.96 39.128 0.032 6.9 5.78 13.07
12/31/2022 1:45:00 AM 3.95 39.11 0.032 6.85 7.09 13.07
12/31/2022 2:00:00 AM 3.94 39.092 0.031 6.85 7.1 13.07
12/31/2022 2:15:00 AM 3.92 39.056 0.032 6.89 5.82 13.08
12/31/2022 2:30:00 AM 3.91 39.038 0.031 6.83 6.8 13.08
12/31/2022 2:45:00 AM 3.9 39.02 0.033 6.89 5.88 13.08
12/31/2022 3:00:00 AM 3.89 39.002 0.033 6.9 5.82 13.09
12/31/2022 3:15:00 AM 3.88 38.984 0.033 6.9 5.87 13.1
12/31/2022 3:30:00 AM 3.86 38.948 0.033 6.9 5.92 13.1
12/31/2022 3:45:00 AM 3.85 38.93 0.031 6.83 6.73 13.1
12/31/2022 4:00:00 AM 3.83 38.894 0.033 6.9 5.9 13.1
12/31/2022 4:15:00 AM 3.81 38.858 0.033 6.89 6.01 13.11
12/31/2022 4:30:00 AM 3.79 38.822 0.033 6.89 5.83 13.11
12/31/2022 4:45:00 AM 3.78 38.804 0.032 6.84 6.77 13.12
12/31/2022 5:00:00 AM 3.76 38.768 0.033 6.91 5.87 13.13
12/31/2022 5:15:00 AM 3.75 38.75 0.032 6.84 6.91 13.13
12/31/2022 5:30:00 AM 3.74 38.732 0.031 6.83 7.1 13.13
12/31/2022 5:45:00 AM 3.72 38.696 0.033 6.9 5.91 13.13
12/31/2022 6:00:00 AM 3.71 38.678 0.033 6.93 5.87 13.14
12/31/2022 6:15:00 AM 3.7 38.66 0.033 6.9 5.88 13.14
12/31/2022 6:30:00 AM 3.69 38.642 0.032 6.83 6.88 13.14
12/31/2022 6:45:00 AM 3.68 38.624 0.033 6.87 5.89 13.15
12/31/2022 7:00:00 AM 3.69 38.642 0.033 6.91 5.84 13.15
12/31/2022 7:15:00 AM 3.69 38.642 0.032 6.85 6.94 13.15
12/31/2022 7:30:00 AM 3.7 38.66 0.033 6.91 5.91 13.14
12/31/2022 7:45:00 AM 3.7 38.66 0.033 6.9 5.69 13.14
12/31/2022 8:00:00 AM 3.71 38.678 0.032 6.84 6.76 13.15
12/31/2022 8:15:00 AM 3.73 38.714 0.033 6.86 5.78 13.17
12/31/2022 8:30:00 AM 3.74 38.732 0.032 6.88 6.85 13.19
12/31/2022 8:45:00 AM 3.75 38.75 0.033 6.89 5.69 13.19
12/31/2022 9:00:00 AM 3.77 38.786 0.031 6.89 6.8 13.21
12/31/2022 9:15:00 AM 3.8 38.84 0.032 6.92 5.61 13.24
12/31/2022 9:30:00 AM 3.82 38.876 0.032 6.97 5.66 13.26
12/31/2022 9:45:00 AM 3.85 38.93 0.032 6.89 6.83 13.27
12/31/2022 10:00:00 AM 3.88 38.984 0.032 6.97 5.69 13.28
12/31/2022 10:15:00 AM 3.93 39.074 0.032 6.9 6.81 13.29
12/31/2022 10:30:00 AM 3.97 39.146 0.032 6.96 5.64 13.29
12/31/2022 10:45:00 AM 4.02 39.236 0.032 6.98 5.77 13.28
12/31/2022 11:00:00 AM 4.08 39.344 0.032 6.98 5.72 13.27
12/31/2022 11:15:00 AM 4.15 39.47 0.031 6.95 6.67 13.26
12/31/2022 11:30:00 AM 4.2 39.56 0.032 6.97 5.64 13.24
12/31/2022 11:45:00 AM 4.27 39.686 0.031 6.94 6.84 13.21
12/31/2022 12:00:00 PM 4.32 39.776 0.032 6.98 5.71 13.19
12/31/2022 12:15:00 PM 4.39 39.902 0.03 6.94 6.56 13.17
12/31/2022 12:30:00 PM 4.45 40.01 0.032 6.99 5.6 13.14
12/31/2022 12:45:00 PM 4.5 40.1 0.032 7.02 5.63 13.11
12/31/2022 1:00:00 PM 4.55 40.19 0.032 6.98 5.6 13.08
12/31/2022 1:15:00 PM 4.59 40.262 0.031 6.95 6.87 13.05
12/31/2022 1:30:00 PM 4.62 40.316 0.032 6.99 5.58 13.01
12/31/2022 1:45:00 PM 4.65 40.37 0.032 7.01 5.62 12.97
12/31/2022 2:00:00 PM 4.67 40.406 0.032 6.97 5.76 12.94
12/31/2022 2:15:00 PM 4.72 40.496 0.032 6.95 5.61 12.93
12/31/2022 2:30:00 PM 4.75 40.55 0.031 6.95 6.81 12.91
12/31/2022 2:45:00 PM 4.77 40.586 0.03 6.93 7.86 12.88
12/31/2022 3:00:00 PM 4.79 40.622 0.032 6.99 5.6 12.86
12/31/2022 3:15:00 PM 4.81 40.658 0.032 6.97 5.79 12.82
12/31/2022 3:30:00 PM 4.83 40.694 0.032 6.95 5.79 12.79
12/31/2022 3:45:00 PM 4.84 40.712 0.032 6.96 5.7 12.76
12/31/2022 4:00:00 PM 4.85 40.73 0.031 6.88 7.11 12.73
12/31/2022 4:15:00 PM 4.86 40.748 0.031 6.86 7.03 12.71
12/31/2022 4:30:00 PM 4.85 40.73 0.03 6.86 6.87 12.69
12/31/2022 4:45:00 PM 4.86 40.748 0.03 6.84 7.03 12.68
12/31/2022 5:00:00 PM 4.86 40.748 0.03 6.84 6.99 12.67
12/31/2022 5:15:00 PM 4.85 40.73 0.032 6.92 5.95 12.67
12/31/2022 5:30:00 PM 4.85 40.73 0.031 6.84 6.98 12.66
12/31/2022 5:45:00 PM 4.85 40.73 0.03 6.82 7.01 12.65
12/31/2022 6:00:00 PM 4.84 40.712 0.032 6.88 6.07 12.65
12/31/2022 6:15:00 PM 4.84 40.712 0.032 6.87 5.87 12.65
12/31/2022 6:30:00 PM 4.84 40.712 0.032 6.87 5.85 12.65
12/31/2022 6:45:00 PM 4.83 40.694 0.032 6.88 5.85 12.65
12/31/2022 7:00:00 PM 4.82 40.676 0.031 6.81 7.11 12.64
12/31/2022 7:15:00 PM 4.82 40.676 0.032 6.84 5.99 12.66
12/31/2022 7:30:00 PM 4.81 40.658 0.031 6.81 6.82 12.65
12/31/2022 7:45:00 PM 4.8 40.64 0.032 6.85 5.72 12.66
12/31/2022 8:00:00 PM 4.8 40.64 0.032 6.85 5.97 12.66
12/31/2022 8:15:00 PM 4.79 40.622 0.031 6.81 6.81 12.66
12/31/2022 8:30:00 PM 4.79 40.622 0.03 6.8 6.64 12.66
12/31/2022 8:45:00 PM 4.77 40.586 0.03 6.78 6.83 12.67
12/31/2022 9:00:00 PM 4.77 40.586 0.031 6.82 7.03 12.67
12/31/2022 9:15:00 PM 4.75 40.55 0.032 6.82 7.83 12.68
12/31/2022 9:30:00 PM 4.75 40.55 0.032 6.86 5.86 12.68
12/31/2022 9:45:00 PM 4.74 40.532 0.031 6.78 7.3 12.68
12/31/2022 10:00:00 PM 4.73 40.514 0.03 6.76 7.26 12.69
12/31/2022 10:15:00 PM 4.72 40.496 0.03 6.79 7.28 12.68
12/31/2022 10:30:00 PM 4.71 40.478 0.032 6.83 5.63 12.7
12/31/2022 10:45:00 PM 4.7 40.46 0.031 6.77 7.84 12.69
12/31/2022 11:00:00 PM 4.69 40.442 0.032 6.88 5.6 12.7
12/31/2022 11:15:00 PM 4.69 40.442 0.032 6.86 5.81 12.71
12/31/2022 11:30:00 PM 4.68 40.424 0.031 6.82 7.14 12.71
12/31/2022 11:45:00 PM 4.68 40.424 0.031 6.81 7.23 12.72
1/1/2023 12:00:00 AM 4.67 40.406 0.032 6.84 5.77 12.71
1/1/2023 12:15:00 AM 4.66 40.388 0.031 6.81 7.14 12.72
1/1/2023 12:30:00 AM 4.65 40.37 0.03 6.8 7.19 12.72
1/1/2023 12:45:00 AM 4.64 40.352 0.032 6.84 5.86 12.73
1/1/2023 1:00:00 AM 4.64 40.352 0.032 6.84 5.85 12.73
1/1/2023 1:15:00 AM 4.63 40.334 0.032 6.84 5.77 12.73
1/1/2023 1:30:00 AM 4.63 40.334 0.031 6.81 7.04 12.73
1/1/2023 1:45:00 AM 4.63 40.334 0.032 6.84 5.81 12.74
1/1/2023 2:00:00 AM 4.62 40.316 0.032 6.87 5.73 12.74
1/1/2023 2:15:00 AM 4.62 40.316 0.031 6.78 7.05 12.75
1/1/2023 2:30:00 AM 4.59 40.262 0.032 6.83 5.79 12.75
1/1/2023 2:45:00 AM 4.57 40.226 0.031 6.79 7.02 12.76
1/1/2023 3:00:00 AM 4.54 40.172 0.031 6.79 7.15 12.77
1/1/2023 3:15:00 AM 4.52 40.136 0.032 6.84 5.91 12.78
1/1/2023 3:30:00 AM 4.51 40.118 0.032 6.82 5.95 12.8
1/1/2023 3:45:00 AM 4.48 40.064 0.032 6.85 5.62 12.8
1/1/2023 4:00:00 AM 4.45 40.01 0.031 6.78 7.53 12.82
1/1/2023 4:15:00 AM 4.42 39.956 0.031 6.78 7.23 12.82
1/1/2023 4:30:00 AM 4.39 39.902 0.032 6.86 5.85 12.84
1/1/2023 4:45:00 AM 4.37 39.866 0.032 6.76 7.18 12.85
1/1/2023 5:00:00 AM 4.35 39.83 0.031 6.78 7.07 12.85
1/1/2023 5:15:00 AM 4.33 39.794 0.032 6.81 6.19 12.87
1/1/2023 5:30:00 AM 4.31 39.758 0.032 6.79 7.15 12.88
1/1/2023 5:45:00 AM 4.3 39.74 0.032 6.8 7.13 12.9
1/1/2023 6:00:00 AM 4.29 39.722 0.033 6.83 5.86 12.9
1/1/2023 6:15:00 AM 4.28 39.704 0.032 6.78 7.15 12.9
1/1/2023 6:30:00 AM 4.27 39.686 0.031 6.78 7.15 12.91
1/1/2023 6:45:00 AM 4.26 39.668 0.031 6.78 6.96 12.91
1/1/2023 7:00:00 AM 4.26 39.668 0.032 6.85 7.22 12.92
1/1/2023 7:15:00 AM 4.24 39.632 0.032 6.78 7.31 12.92
1/1/2023 7:30:00 AM 4.24 39.632 0.032 6.82 5.72 12.93
1/1/2023 7:45:00 AM 4.24 39.632 0.032 6.83 5.66 12.95
1/1/2023 8:00:00 AM 4.24 39.632 0.032 6.84 5.77 12.96
1/1/2023 8:15:00 AM 4.24 39.632 0.032 6.78 6.95 12.97
1/1/2023 8:30:00 AM 4.25 39.65 0.032 6.78 6.89 12.99
1/1/2023 8:45:00 AM 4.26 39.668 0.032 6.85 5.58 13.02
1/1/2023 9:00:00 AM 4.28 39.704 0.032 6.86 5.91 13.05
1/1/2023 9:15:00 AM 4.3 39.74 0.032 6.83 6.93 13.07
1/1/2023 9:30:00 AM 4.33 39.794 0.032 6.9 6 13.09
1/1/2023 9:45:00 AM 4.36 39.848 0.031 6.82 7.7 13.09
1/1/2023 10:00:00 AM 4.39 39.902 0.031 6.83 7.14 13.1
1/1/2023 10:15:00 AM 4.42 39.956 0.032 6.89 5.8 13.1
1/1/2023 10:30:00 AM 4.47 40.046 0.032 6.88 6.15 13.11
1/1/2023 10:45:00 AM 4.52 40.136 0.031 6.86 6.92 13.09
1/1/2023 11:00:00 AM 4.56 40.208 0.032 6.88 5.22 13.08
1/1/2023 11:15:00 AM 4.63 40.334 0.032 6.87 5.45 13.07
1/1/2023 11:30:00 AM 4.67 40.406 0.03 6.88 6.74 13.05
1/1/2023 11:45:00 AM 4.73 40.514 0.03 6.88 6.39 13.04
1/1/2023 12:00:00 PM 4.82 40.676 0.031 6.9 6.67 13
1/1/2023 12:15:00 PM 4.86 40.748 0.031 6.95 5.14 12.98
1/1/2023 12:30:00 PM 4.91 40.838 0.031 6.9 6.78 12.97
1/1/2023 12:45:00 PM 4.95 40.91 0.031 6.89 6.8 12.94
1/1/2023 1:00:00 PM 4.99 40.982 0.031 6.88 6.91 12.91
1/1/2023 1:15:00 PM 5.04 41.072 0.031 6.92 5.38 12.87
1/1/2023 1:30:00 PM 5.08 41.144 0.03 6.87 6.46 12.85
1/1/2023 1:45:00 PM 5.12 41.216 0.031 6.9 5.41 12.84
1/1/2023 2:00:00 PM 5.15 41.27 0.03 6.88 6.63 12.82
1/1/2023 2:15:00 PM 5.19 41.342 0.029 6.86 6.53 12.81
1/1/2023 2:30:00 PM 5.22 41.396 0.031 6.94 5.47 12.79
1/1/2023 2:45:00 PM 5.27 41.486 0.03 6.88 6.76 12.78
1/1/2023 3:00:00 PM 5.3 41.54 0.03 6.85 7.53 12.76
1/1/2023 3:15:00 PM 5.32 41.576 0.03 6.87 6.97 12.74
1/1/2023 3:30:00 PM 5.34 41.612 0.031 6.9 5.93 12.72
1/1/2023 3:45:00 PM 5.35 41.63 0.03 6.85 6.93 12.69
1/1/2023 4:00:00 PM 5.36 41.648 0.031 6.89 6.14 12.66
1/1/2023 4:15:00 PM 5.36 41.648 0.031 6.88 6.15 12.64
1/1/2023 4:30:00 PM 5.36 41.648 0.03 6.82 7.16 12.62
1/1/2023 4:45:00 PM 5.36 41.648 0.03 6.82 7.34 12.6
1/1/2023 5:00:00 PM 5.35 41.63 0.03 6.83 7.18 12.59
1/1/2023 5:15:00 PM 5.34 41.612 0.031 6.88 5.89 12.57
1/1/2023 5:30:00 PM 5.33 41.594 0.03 6.82 7.45 12.57
1/1/2023 5:45:00 PM 5.32 41.576 0.031 6.84 6.11 12.57
1/1/2023 6:00:00 PM 5.31 41.558 0.031 6.85 6.01 12.57
1/1/2023 6:15:00 PM 5.3 41.54 0.031 6.84 5.86 12.57
1/1/2023 6:30:00 PM 5.3 41.54 0.031 6.79 7.64 12.57
1/1/2023 6:45:00 PM 5.29 41.522 0.031 6.8 7.72 12.57
1/1/2023 7:00:00 PM 5.27 41.486 0.031 6.84 6.19 12.58
1/1/2023 7:15:00 PM 5.27 41.486 0.031 6.87 5.91 12.59
1/1/2023 7:30:00 PM 5.26 41.468 0.031 6.83 5.63 12.59
1/1/2023 7:45:00 PM 5.25 41.45 0.031 6.8 7.34 12.59
1/1/2023 8:00:00 PM 5.24 41.432 0.031 6.83 7.22 12.6
1/1/2023 8:15:00 PM 5.23 41.414 0.031 6.85 5.86 12.61
1/1/2023 8:30:00 PM 5.22 41.396 0.031 6.81 7.35 12.61
1/1/2023 8:45:00 PM 5.22 41.396 0.03 6.79 8.33 12.61
1/1/2023 9:00:00 PM 5.21 41.378 0.03 6.79 7.52 12.62
1/1/2023 9:15:00 PM 5.21 41.378 0.03 6.78 6.65 12.62
1/1/2023 9:30:00 PM 5.2 41.36 0.031 6.85 5.64 12.62
1/1/2023 9:45:00 PM 5.19 41.342 0.031 6.81 7.4 12.62
1/1/2023 10:00:00 PM 5.19 41.342 0.031 6.83 5.85 12.63
1/1/2023 10:15:00 PM 5.18 41.324 0.031 6.8 7.05 12.63
1/1/2023 10:30:00 PM 5.17 41.306 0.031 6.84 5.51 12.63
1/1/2023 10:45:00 PM 5.17 41.306 0.031 6.79 7.17 12.63
1/1/2023 11:00:00 PM 5.17 41.306 0.031 6.85 5.67 12.63
1/1/2023 11:15:00 PM 5.16 41.288 0.031 6.8 7.36 12.63
1/1/2023 11:30:00 PM 5.16 41.288 0.031 6.79 7.79 12.64
1/1/2023 11:45:00 PM 5.16 41.288 0.03 6.79 7.29 12.64
1/2/2023 12:00:00 AM 5.15 41.27 0.03 6.8 7.47 12.64
1/2/2023 12:15:00 AM 5.15 41.27 0.031 6.78 7.46 12.64
1/2/2023 12:30:00 AM 5.14 41.252 0.031 6.81 7.88 12.64
1/2/2023 12:45:00 AM 5.15 41.27 0.031 6.8 7.13 12.64
1/2/2023 1:00:00 AM 5.14 41.252 0.031 6.85 5.49 12.64
1/2/2023 1:15:00 AM 5.14 41.252 0.031 6.77 7.76 12.65
1/2/2023 1:30:00 AM 5.13 41.234 0.031 6.84 5.78 12.65
1/2/2023 1:45:00 AM 5.13 41.234 0.031 6.83 5.45 12.65
1/2/2023 2:00:00 AM 5.13 41.234 0.031 6.83 5.62 12.66
1/2/2023 2:15:00 AM 5.13 41.234 0.031 6.78 8.05 12.65
1/2/2023 2:30:00 AM 5.12 41.216 0.03 6.78 7.5 12.66
1/2/2023 2:45:00 AM 5.12 41.216 0.031 6.79 6.08 12.66
1/2/2023 3:00:00 AM 5.11 41.198 0.031 6.81 8.72 12.67
1/2/2023 3:15:00 AM 5.1 41.18 0.031 6.85 7.11 12.67
1/2/2023 3:30:00 AM 5.1 41.18 0.031 6.81 7.77 12.67
1/2/2023 3:45:00 AM 5.09 41.162 0.031 6.82 7.65 12.68
1/2/2023 4:00:00 AM 5.09 41.162 0.03 6.78 9.15 12.68
1/2/2023 4:15:00 AM 5.09 41.162 0.03 6.77 9.22 12.68
1/2/2023 4:30:00 AM 5.08 41.144 0.031 6.78 8.8 12.68
1/2/2023 4:45:00 AM 5.07 41.126 0.031 6.81 6.76 12.68
1/2/2023 5:00:00 AM 5.06 41.108 0.03 6.78 8.76 12.69
1/2/2023 5:15:00 AM 5.05 41.09 0.031 6.77 8.61 12.69
1/2/2023 5:30:00 AM 5.04 41.072 0.031 6.81 7.36 12.7
1/2/2023 5:45:00 AM 5.04 41.072 0.03 6.77 8.75 12.7
1/2/2023 6:00:00 AM 5.03 41.054 0.031 6.77 8.66 12.71
1/2/2023 6:15:00 AM 5.03 41.054 0.031 6.78 8.56 12.71
1/2/2023 6:30:00 AM 5.02 41.036 0.031 6.81 7.34 12.72
1/2/2023 6:45:00 AM 5.01 41.018 0.031 6.78 8.72 12.72
1/2/2023 7:00:00 AM 5 41 0.031 6.78 8.73 12.72
1/2/2023 7:15:00 AM 4.99 40.982 0.031 6.79 8.76 12.73
1/2/2023 7:30:00 AM 4.98 40.964 0.031 6.76 8.7 12.73
1/2/2023 7:45:00 AM 4.98 40.964 0.031 6.78 8.59 12.73
1/2/2023 8:00:00 AM 4.97 40.946 0.031 6.83 7.3 12.75
1/2/2023 8:15:00 AM 4.98 40.964 0.031 6.79 9.26 12.77
1/2/2023 8:30:00 AM 4.98 40.964 0.031 6.84 7.45 12.79
1/2/2023 8:45:00 AM 5 41 0.031 6.79 8.4 12.8
1/2/2023 9:00:00 AM 5.02 41.036 0.031 6.81 8.28 12.81
1/2/2023 9:15:00 AM 5.03 41.054 0.03 6.79 9.04 12.82
1/2/2023 9:30:00 AM 5.05 41.09 0.031 6.82 7.29 12.84
1/2/2023 9:45:00 AM 5.08 41.144 0.031 6.88 7.26 12.86
1/2/2023 10:00:00 AM 5.11 41.198 0.031 6.88 7.31 12.86
1/2/2023 10:15:00 AM 5.15 41.27 0.03 6.83 8.41 12.87
1/2/2023 10:30:00 AM 5.19 41.342 0.031 6.88 6.88 12.87
1/2/2023 10:45:00 AM 5.24 41.432 0.031 6.89 6.62 12.87
1/2/2023 11:00:00 AM 5.3 41.54 0.031 6.88 6.33 12.86
1/2/2023 11:15:00 AM 5.36 41.648 0.031 6.93 6.56 12.86
1/2/2023 11:30:00 AM 5.43 41.774 0.03 6.87 8.57 12.84
1/2/2023 11:45:00 AM 5.52 41.936 0.029 6.86 8.91 12.82
1/2/2023 12:00:00 PM 5.57 42.026 0.03 6.88 8.53 12.79
1/2/2023 12:15:00 PM 5.61 42.098 0.031 6.88 6.96 12.77
1/2/2023 12:30:00 PM 5.67 42.206 0.03 6.89 8.29 12.74
1/2/2023 12:45:00 PM 5.72 42.296 0.031 6.94 6.61 12.71
1/2/2023 1:00:00 PM 5.77 42.386 0.029 6.85 8.45 12.68
1/2/2023 1:15:00 PM 5.81 42.458 0.031 6.9 6.54 12.65
1/2/2023 1:30:00 PM 5.85 42.53 0.031 6.9 6.72 12.6
1/2/2023 1:45:00 PM 5.89 42.602 0.031 6.89 6.81 12.57
1/2/2023 2:00:00 PM 5.93 42.674 0.031 6.87 7.16 12.54
1/2/2023 2:15:00 PM 5.96 42.728 0.031 6.9 6.79 12.53
1/2/2023 2:30:00 PM 5.99 42.782 0.031 6.88 7.16 12.52
1/2/2023 2:45:00 PM 6.01 42.818 0.031 6.85 6.79 12.5
1/2/2023 3:00:00 PM 6.04 42.872 0.03 6.86 8.94 12.5
1/2/2023 3:15:00 PM 6.07 42.926 0.029 6.84 8.81 12.49
1/2/2023 3:30:00 PM 6.08 42.944 0.031 6.84 7.13 12.48
1/2/2023 3:45:00 PM 6.09 42.962 0.031 6.88 6.9 12.46
1/2/2023 4:00:00 PM 6.1 42.98 0.03 6.81 8.27 12.44
1/2/2023 4:15:00 PM 6.1 42.98 0.031 6.88 7.41 12.42
1/2/2023 4:30:00 PM 6.1 42.98 0.03 6.79 9.67 12.4
1/2/2023 4:45:00 PM 6.1 42.98 0.031 6.86 6.65 12.39
1/2/2023 5:00:00 PM 6.09 42.962 0.031 6.84 6.61 12.38
1/2/2023 5:15:00 PM 6.09 42.962 0.03 6.8 8.52 12.37
1/2/2023 5:30:00 PM 6.09 42.962 0.031 6.81 7.04 12.36
1/2/2023 5:45:00 PM 6.08 42.944 0.029 6.78 9.82 12.36
1/2/2023 6:00:00 PM 6.07 42.926 0.031 6.84 6.97 12.37
1/2/2023 6:15:00 PM 6.06 42.908 0.031 6.82 7.2 12.37
1/2/2023 6:30:00 PM 6.05 42.89 0.031 6.84 6.77 12.37
1/2/2023 6:45:00 PM 6.04 42.872 0.031 6.83 7.25 12.38
1/2/2023 7:00:00 PM 6.02 42.836 0.031 6.81 7.29 12.38
1/2/2023 7:15:00 PM 6.01 42.818 0.03 6.81 9.14 12.38
1/2/2023 7:30:00 PM 5.99 42.782 0.031 6.81 7.48 12.39
1/2/2023 7:45:00 PM 5.98 42.764 0.031 6.84 7.48 12.4
1/2/2023 8:00:00 PM 5.97 42.746 0.031 6.83 6.88 12.41
1/2/2023 8:15:00 PM 5.96 42.728 0.031 6.82 7.33 12.4
1/2/2023 8:30:00 PM 5.94 42.692 0.031 6.81 7.65 12.41
1/2/2023 8:45:00 PM 5.93 42.674 0.031 6.79 7.61 12.41
1/2/2023 9:00:00 PM 5.92 42.656 0.031 6.81 7.29 12.41
1/2/2023 9:15:00 PM 5.91 42.638 0.031 6.82 7.31 12.42
1/2/2023 9:30:00 PM 5.9 42.62 0.031 6.8 7.93 12.42
1/2/2023 9:45:00 PM 5.89 42.602 0.031 6.82 6.74 12.43
1/2/2023 10:00:00 PM 5.88 42.584 0.031 6.82 6.66 12.42
1/2/2023 10:15:00 PM 5.87 42.566 0.031 6.81 7.03 12.43
1/2/2023 10:30:00 PM 5.87 42.566 0.031 6.81 7.16 12.43
1/2/2023 10:45:00 PM 5.86 42.548 0.031 6.84 6.84 12.43
1/2/2023 11:00:00 PM 5.85 42.53 0.031 6.83 6.66 12.43
1/2/2023 11:15:00 PM 5.84 42.512 0.031 6.82 6.94 12.44
1/2/2023 11:30:00 PM 5.84 42.512 0.031 6.81 7.4 12.43
1/2/2023 11:45:00 PM 5.83 42.494 0.031 6.77 6.83 12.44
1/3/2023 12:00:00 AM 5.83 42.494 0.031 6.8 7.19 12.44
1/3/2023 12:15:00 AM 5.83 42.494 0.031 6.82 7.16 12.44
1/3/2023 12:30:00 AM 5.82 42.476 0.031 6.77 7.45 12.43
1/3/2023 12:45:00 AM 5.82 42.476 0.031 6.8 7.19 12.43
1/3/2023 1:00:00 AM 5.82 42.476 0.031 6.81 7.17 12.43
1/3/2023 1:15:00 AM 5.82 42.476 0.031 6.76 6.81 12.43
1/3/2023 1:30:00 AM 5.81 42.458 0.031 6.84 6.83 12.43
1/3/2023 1:45:00 AM 5.81 42.458 0.031 6.82 7.05 12.43
1/3/2023 2:00:00 AM 5.81 42.458 0.031 6.8 6.93 12.43
1/3/2023 2:15:00 AM 5.81 42.458 0.031 6.77 7.5 12.43
1/3/2023 2:30:00 AM 5.81 42.458 0.031 6.78 6.9 12.43
1/3/2023 2:45:00 AM 5.81 42.458 0.031 6.84 6.91 12.43
1/3/2023 3:00:00 AM 5.81 42.458 0.031 6.81 6.96 12.44
1/3/2023 3:15:00 AM 5.81 42.458 0.031 6.79 6.99 12.44
1/3/2023 3:30:00 AM 5.8 42.44 0.031 6.84 6.82 12.43
1/3/2023 3:45:00 AM 5.81 42.458 0.031 6.8 6.9 12.43
1/3/2023 4:00:00 AM 5.81 42.458 0.031 6.82 6.72 12.43
1/3/2023 4:15:00 AM 5.81 42.458 0.031 6.78 7.11 12.43
1/3/2023 4:30:00 AM 5.81 42.458 0.031 6.79 6.76 12.42
1/3/2023 4:45:00 AM 5.81 42.458 0.031 6.8 6.81 12.42
1/3/2023 5:00:00 AM 5.82 42.476 0.031 6.8 7.22 12.41
1/3/2023 5:15:00 AM 5.82 42.476 0.03 6.74 9.92 12.41
1/3/2023 5:30:00 AM 5.82 42.476 0.03 6.75 8.96 12.41
1/3/2023 5:45:00 AM 5.82 42.476 0.031 6.77 6.94 12.41
1/3/2023 6:00:00 AM 5.83 42.494 0.031 6.76 6.91 12.4
1/3/2023 6:15:00 AM 5.83 42.494 0.031 6.8 7.11 12.4
1/3/2023 6:30:00 AM 5.83 42.494 0.031 6.78 6.74 12.39
1/3/2023 6:45:00 AM 5.84 42.512 0.029 6.77 8.9 12.39
1/3/2023 7:00:00 AM 5.84 42.512 0.031 6.79 6.79 12.39
1/3/2023 7:15:00 AM 5.84 42.512 0.031 6.83 6.96 12.39
1/3/2023 7:30:00 AM 5.84 42.512 0.031 6.82 6.99 12.39
1/3/2023 7:45:00 AM 5.84 42.512 0.031 6.81 7.18 12.39
1/3/2023 8:00:00 AM 5.84 42.512 0.031 6.77 6.99 12.39
1/3/2023 8:15:00 AM 5.84 42.512 0.031 6.83 7.17 12.39
1/3/2023 8:30:00 AM 5.84 42.512 0.03 6.82 9.64 12.39
1/3/2023 8:45:00 AM 5.85 42.53 0.031 6.78 7.88 12.4
1/3/2023 9:00:00 AM 5.85 42.53 0.031 6.84 7.76 12.4
1/3/2023 9:15:00 AM 5.85 42.53 0.031 6.82 7.93 12.41
1/3/2023 9:30:00 AM 5.86 42.548 0.031 6.77 8.41 12.41
1/3/2023 9:45:00 AM 5.87 42.566 0.031 6.81 8.58 12.42
1/3/2023 10:00:00 AM 5.88 42.584 0.031 6.84 8.88 12.41
1/3/2023 10:15:00 AM 5.88 42.584 0.031 6.8 9.62 12.4
1/3/2023 10:30:00 AM 5.89 42.602 0.03 6.75 12.25 12.38
1/3/2023 10:45:00 AM 5.9 42.62 0.03 6.77 11.2 12.4
1/3/2023 11:00:00 AM 5.91 42.638 0.03 6.81 12.19 12.39
1/3/2023 11:15:00 AM 5.93 42.674 0.03 6.8 12.56 12.38
1/3/2023 11:30:00 AM 5.94 42.692 0.03 6.79 13.52 12.39
1/3/2023 11:45:00 AM 5.95 42.71 0.03 6.8 14.21 12.38
1/3/2023 12:00:00 PM 5.97 42.746 0.03 6.82 15.79 12.37
1/3/2023 12:15:00 PM 5.98 42.764 0.03 6.81 15.61 12.37
1/3/2023 12:30:00 PM 6 42.8 0.03 6.82 18.09 12.36
1/3/2023 12:45:00 PM 6.03 42.854 0.03 6.75 16.06 12.34
1/3/2023 1:00:00 PM 6.06 42.908 0.03 6.8 20.68 12.34
1/3/2023 1:15:00 PM 6.08 42.944 0.03 6.79 21.92 12.32
1/3/2023 1:30:00 PM 6.1 42.98 0.03 6.8 21.16 12.31
1/3/2023 1:45:00 PM 6.13 43.034 0.03 6.78 20.16 12.29
1/3/2023 2:00:00 PM 6.15 43.07 0.03 6.78 23.65 12.28
1/3/2023 2:15:00 PM 6.17 43.106 0.03 6.78 21.71 12.28
1/3/2023 2:30:00 PM 6.2 43.16 0.029 6.74 24.64 12.26
1/3/2023 2:45:00 PM 6.22 43.196 0.029 6.78 22.49 12.26
1/3/2023 3:00:00 PM 6.25 43.25 0.03 6.74 21.27 12.24
1/3/2023 3:15:00 PM 6.27 43.286 0.03 6.78 21.04 12.24
1/3/2023 3:30:00 PM 6.29 43.322 0.029 6.72 20.34 12.23
1/3/2023 3:45:00 PM 6.3 43.34 0.03 6.78 19.75 12.22
1/3/2023 4:00:00 PM 6.31 43.358 0.03 6.75 20.52 12.21
1/3/2023 4:15:00 PM 6.32 43.376 0.03 6.8 19.28 12.21
1/3/2023 4:30:00 PM 6.32 43.376 0.03 6.77 19.26 12.2
1/3/2023 4:45:00 PM 6.33 43.394 0.03 6.74 18.28 12.19
1/3/2023 5:00:00 PM 6.33 43.394 0.03 6.75 18.74 12.18
1/3/2023 5:15:00 PM 6.33 43.394 0.03 6.75 16.18 12.18
1/3/2023 5:30:00 PM 6.33 43.394 0.03 6.79 17.05 12.18
1/3/2023 5:45:00 PM 6.33 43.394 0.03 6.71 17.31 12.18
1/3/2023 6:00:00 PM 6.34 43.412 0.03 6.75 17.51 12.18
1/3/2023 6:15:00 PM 6.34 43.412 0.03 6.75 17.29 12.18
1/3/2023 6:30:00 PM 6.34 43.412 0.03 6.74 16.38 12.17
1/3/2023 6:45:00 PM 6.35 43.43 0.03 6.74 16.17 12.17
1/3/2023 7:00:00 PM 6.35 43.43 0.03 6.76 15.95 12.17
1/3/2023 7:15:00 PM 6.36 43.448 0.03 6.74 15.75 12.16
1/3/2023 7:30:00 PM 6.37 43.466 0.03 6.75 15.67 12.17
1/3/2023 7:45:00 PM 6.37 43.466 0.03 6.78 14.86 12.17
1/3/2023 8:00:00 PM 6.38 43.484 0.03 6.74 15.45 12.16
1/3/2023 8:15:00 PM 6.39 43.502 0.03 6.74 14.72 12.16
1/3/2023 8:30:00 PM 6.4 43.52 0.03 6.74 14.52 12.16
1/3/2023 8:45:00 PM 6.41 43.538 0.03 6.76 15.1 12.15
1/3/2023 9:00:00 PM 6.42 43.556 0.03 6.72 14.29 12.15
1/3/2023 9:15:00 PM 6.44 43.592 0.03 6.74 14.18 12.14
1/3/2023 9:30:00 PM 6.45 43.61 0.03 6.73 14.15 12.14
1/3/2023 9:45:00 PM 6.46 43.628 0.03 6.73 14.07 12.13
1/3/2023 10:00:00 PM 6.48 43.664 0.03 6.72 13.61 12.13
1/3/2023 10:15:00 PM 6.49 43.682 0.03 6.75 13.82 12.12
1/3/2023 10:30:00 PM 6.51 43.718 0.03 6.73 14.57 12.11
1/3/2023 10:45:00 PM 6.53 43.754 0.03 6.73 13.56 12.11
1/3/2023 11:00:00 PM 6.54 43.772 0.03 6.73 13.85 12.11
1/3/2023 11:15:00 PM 6.56 43.808 0.03 6.69 13.12 12.1
1/3/2023 11:30:00 PM 6.58 43.844 0.029 6.73 14.02 12.09
1/3/2023 11:45:00 PM 6.59 43.862 0.029 6.73 13.93 12.09
1/4/2023 12:00:00 AM 6.61 43.898 0.029 6.74 13.86 12.09
1/4/2023 12:15:00 AM 6.62 43.916 0.029 6.73 17.37 12.09
1/4/2023 12:30:00 AM 6.64 43.952 0.029 6.73 13.41 12.08
1/4/2023 12:45:00 AM 6.66 43.988 0.029 6.73 13.57 12.08
1/4/2023 1:00:00 AM 6.67 44.006 0.029 6.72 12.75 12.07
1/4/2023 1:15:00 AM 6.68 44.024 0.029 6.73 13.1 12.07
1/4/2023 1:30:00 AM 6.69 44.042 0.029 6.72 13.27 12.07
1/4/2023 1:45:00 AM 6.7 44.06 0.029 6.71 12.71 12.06
1/4/2023 2:00:00 AM 6.71 44.078 0.029 6.74 13.17 12.06
1/4/2023 2:15:00 AM 6.72 44.096 0.029 6.71 13.08 12.06
1/4/2023 2:30:00 AM 6.73 44.114 0.029 6.73 12.62 12.06
1/4/2023 2:45:00 AM 6.74 44.132 0.029 6.69 12.08 12.06
1/4/2023 3:00:00 AM 6.74 44.132 0.029 6.75 12.05 12.06
1/4/2023 3:15:00 AM 6.75 44.15 0.029 6.68 13.59 12.06
1/4/2023 3:30:00 AM 6.75 44.15 0.029 6.72 11.62 12.07
1/4/2023 3:45:00 AM 6.75 44.15 0.029 6.72 12.35 12.06
1/4/2023 4:00:00 AM 6.76 44.168 0.029 6.73 12.24 12.06
1/4/2023 4:15:00 AM 6.76 44.168 0.029 6.68 11.66 12.06
1/4/2023 4:30:00 AM 6.76 44.168 0.029 6.73 11.17 12.06
1/4/2023 4:45:00 AM 6.76 44.168 0.029 6.73 10.73 12.06
1/4/2023 5:00:00 AM 6.77 44.186 0.029 6.73 10.79 12.07
1/4/2023 5:15:00 AM 6.78 44.204 0.029 6.68 11.16 12.07
1/4/2023 5:30:00 AM 6.78 44.204 0.029 6.69 12.56 12.06
1/4/2023 5:45:00 AM 6.79 44.222 0.029 6.72 10.9 12.06
1/4/2023 6:00:00 AM 6.79 44.222 0.029 6.75 10.68 12.06
1/4/2023 6:15:00 AM 6.8 44.24 0.029 6.71 11.61 12.06
1/4/2023 6:30:00 AM 6.81 44.258 0.029 6.73 11.23 12.06
1/4/2023 6:45:00 AM 6.81 44.258 0.029 6.71 10.95 12.06
1/4/2023 7:00:00 AM 6.82 44.276 0.029 6.69 10.74 12.06
1/4/2023 7:15:00 AM 6.83 44.294 0.029 6.71 10.82 12.06
1/4/2023 7:30:00 AM 6.84 44.312 0.029 6.75 10.9 12.05
1/4/2023 7:45:00 AM 6.84 44.312 0.029 6.7 10.7 12.05
1/4/2023 8:00:00 AM 6.86 44.348 0.029 6.72 10.27 12.05
1/4/2023 8:15:00 AM 6.87 44.366 0.029 6.76 10.91 12.05
1/4/2023 8:30:00 AM 6.89 44.402 0.029 6.7 10.1 12.06
1/4/2023 8:45:00 AM 6.91 44.438 0.029 6.72 9.92 12.06
1/4/2023 9:00:00 AM 6.92 44.456 0.029 6.75 9.87 12.08
1/4/2023 9:15:00 AM 6.94 44.492 0.029 6.74 9.92 12.09
1/4/2023 9:30:00 AM 6.97 44.546 0.029 6.75 9.48 12.1
1/4/2023 9:45:00 AM 7 44.6 0.029 6.76 9.12 12.1
1/4/2023 10:00:00 AM 7.04 44.672 0.029 6.79 9.27 12.11
1/4/2023 10:15:00 AM 7.08 44.744 0.029 6.77 8.91 12.12
1/4/2023 10:30:00 AM 7.12 44.816 0.029 6.79 9.12 12.11
1/4/2023 10:45:00 AM 7.16 44.888 0.029 6.78 8.92 12.09
1/4/2023 11:00:00 AM 7.2 44.96 0.029 6.78 9.09 12.07
1/4/2023 11:15:00 AM 7.24 45.032 0.029 6.81 8.63 12.06
1/4/2023 11:30:00 AM 7.27 45.086 0.029 6.79 9.1 12.03
1/4/2023 11:45:00 AM 7.31 45.158 0.029 6.76 9.36 12.02
1/4/2023 12:00:00 PM 7.35 45.23 0.029 6.77 9.1 12
1/4/2023 12:15:00 PM 7.38 45.284 0.029 6.77 9.22 11.98
1/4/2023 12:30:00 PM 7.42 45.356 0.029 6.77 8.6 11.97
1/4/2023 12:45:00 PM 7.45 45.41 0.029 6.77 8.93 11.95
1/4/2023 1:00:00 PM 7.48 45.464 0.029 6.78 8.42 11.93
1/4/2023 1:15:00 PM 7.5 45.5 0.029 6.74 8.83 11.91
1/4/2023 1:30:00 PM 7.52 45.536 0.029 6.77 8.85 11.89
1/4/2023 1:45:00 PM 7.55 45.59 0.029 6.77 9.06 11.89
1/4/2023 2:00:00 PM 7.57 45.626 0.029 6.8 8.87 11.88
1/4/2023 2:15:00 PM 7.6 45.68 0.029 6.74 8.89 11.87
1/4/2023 2:30:00 PM 7.62 45.716 0.029 6.77 9.05 11.85
1/4/2023 2:45:00 PM 7.63 45.734 0.029 6.78 8.9 11.83
1/4/2023 3:00:00 PM 7.65 45.77 0.029 6.76 9 11.82
1/4/2023 3:15:00 PM 7.66 45.788 0.029 6.76 9.09 11.82
1/4/2023 3:30:00 PM 7.68 45.824 0.029 6.75 8.94 11.81
1/4/2023 3:45:00 PM 7.69 45.842 0.029 6.76 9.29 11.8
1/4/2023 4:00:00 PM 7.69 45.842 0.029 6.75 8.47 11.78
1/4/2023 4:15:00 PM 7.7 45.86 0.029 6.75 8.83 11.77
1/4/2023 4:30:00 PM 7.7 45.86 0.029 6.75 9.33 11.76
1/4/2023 4:45:00 PM 7.7 45.86 0.029 6.74 8.97 11.75
1/4/2023 5:00:00 PM 7.7 45.86 0.029 6.72 8.55 11.74
1/4/2023 5:15:00 PM 7.7 45.86 0.029 6.71 8.9 11.74
1/4/2023 5:30:00 PM 7.7 45.86 0.029 6.71 8.57 11.74
1/4/2023 5:45:00 PM 7.7 45.86 0.029 6.71 8.54 11.74
1/4/2023 6:00:00 PM 7.7 45.86 0.029 6.74 8.71 11.74
1/4/2023 6:15:00 PM 7.69 45.842 0.029 6.74 8.55 11.74
1/4/2023 6:30:00 PM 7.69 45.842 0.029 6.74 8.77 11.74
1/4/2023 6:45:00 PM 7.68 45.824 0.029 6.76 9.02 11.74
1/4/2023 7:00:00 PM 7.67 45.806 0.029 6.69 8.61 11.75
1/4/2023 7:15:00 PM 7.67 45.806 0.029 6.74 9.1 11.75
1/4/2023 7:30:00 PM 7.67 45.806 0.029 6.73 8.66 11.75
1/4/2023 7:45:00 PM 7.66 45.788 0.029 6.74 8.34 11.76
1/4/2023 8:00:00 PM 7.66 45.788 0.029 6.77 8.38 11.76
1/4/2023 8:15:00 PM 7.66 45.788 0.029 6.72 8.87 11.76
1/4/2023 8:30:00 PM 7.65 45.77 0.029 6.74 8.6 11.75
1/4/2023 8:45:00 PM 7.65 45.77 0.029 6.73 8.31 11.76
1/4/2023 9:00:00 PM 7.65 45.77 0.029 6.72 8.52 11.76
1/4/2023 9:15:00 PM 7.65 45.77 0.029 6.73 8.67 11.76
1/4/2023 9:30:00 PM 7.64 45.752 0.029 6.73 8.73 11.77
1/4/2023 9:45:00 PM 7.64 45.752 0.029 6.73 8.57 11.76
1/4/2023 10:00:00 PM 7.64 45.752 0.029 6.74 8.77 11.76
1/4/2023 10:15:00 PM 7.64 45.752 0.029 6.74 8.49 11.76
1/4/2023 10:30:00 PM 7.63 45.734 0.029 6.73 8.34 11.76
1/4/2023 10:45:00 PM 7.63 45.734 0.029 6.72 8.32 11.77
1/4/2023 11:00:00 PM 7.62 45.716 0.029 6.74 8.59 11.78
1/4/2023 11:15:00 PM 7.62 45.716 0.029 6.73 8.68 11.78
1/4/2023 11:30:00 PM 7.61 45.698 0.029 6.73 8.39 11.79
1/4/2023 11:45:00 PM 7.61 45.698 0.029 6.72 8.31 11.78
1/5/2023 12:00:00 AM 7.61 45.698 0.029 6.74 8.14 11.79
1/5/2023 12:15:00 AM 7.6 45.68 0.029 6.77 8.02 11.8
1/5/2023 12:30:00 AM 7.58 45.644 0.029 6.74 8.47 11.8
1/5/2023 12:45:00 AM 7.57 45.626 0.029 6.74 7.99 11.81
1/5/2023 1:00:00 AM 7.56 45.608 0.029 6.78 8.06 11.82
1/5/2023 1:15:00 AM 7.55 45.59 0.029 6.73 8.46 11.82
1/5/2023 1:30:00 AM 7.53 45.554 0.029 6.75 8.59 11.83
1/5/2023 1:45:00 AM 7.5 45.5 0.029 6.75 8.17 11.84
1/5/2023 2:00:00 AM 7.47 45.446 0.029 6.77 8.97 11.84
1/5/2023 2:15:00 AM 7.44 45.392 0.029 6.73 8.41 11.85
1/5/2023 2:30:00 AM 7.4 45.32 0.029 6.77 8.68 11.88
1/5/2023 2:45:00 AM 7.37 45.266 0.029 6.72 8.65 11.89
1/5/2023 3:00:00 AM 7.34 45.212 0.029 6.73 8.89 11.9
1/5/2023 3:15:00 AM 7.31 45.158 0.029 6.74 8.83 11.92
1/5/2023 3:30:00 AM 7.28 45.104 0.029 6.74 8.75 11.93
1/5/2023 3:45:00 AM 7.24 45.032 0.029 6.78 8.72 11.94
1/5/2023 4:00:00 AM 7.21 44.978 0.029 6.73 8.71 11.94
1/5/2023 4:15:00 AM 7.17 44.906 0.029 6.79 8.65 11.96
1/5/2023 4:30:00 AM 7.14 44.852 0.029 6.78 7.57 11.97
1/5/2023 4:45:00 AM 7.11 44.798 0.029 6.73 8.56 11.98
1/5/2023 5:00:00 AM 7.07 44.726 0.029 6.78 8.24 11.99
1/5/2023 5:15:00 AM 7.04 44.672 0.029 6.77 8.33 12.01
1/5/2023 5:30:00 AM 7.01 44.618 0.029 6.69 8.97 12.02
1/5/2023 5:45:00 AM 6.98 44.564 0.029 6.74 8.81 12.03
1/5/2023 6:00:00 AM 6.95 44.51 0.029 6.74 8.46 12.03
1/5/2023 6:15:00 AM 6.92 44.456 0.029 6.77 9.21 12.05
1/5/2023 6:30:00 AM 6.89 44.402 0.029 6.76 8.79 12.06
1/5/2023 6:45:00 AM 6.87 44.366 0.029 6.75 8.83 12.06
1/5/2023 7:00:00 AM 6.83 44.294 0.029 6.75 8.24 12.07
1/5/2023 7:15:00 AM 6.8 44.24 0.029 6.74 8.81 12.09
1/5/2023 7:30:00 AM 6.78 44.204 0.029 6.7 10.56 12.1
1/5/2023 7:45:00 AM 6.75 44.15 0.029 6.78 8.87 12.11
1/5/2023 8:00:00 AM 6.73 44.114 0.029 6.74 8.5 12.13
1/5/2023 8:15:00 AM 6.71 44.078 0.029 6.76 8.31 12.15
1/5/2023 8:30:00 AM 6.7 44.06 0.029 6.76 8.72 12.17
1/5/2023 8:45:00 AM 6.69 44.042 0.029 6.78 7.74 12.19
1/5/2023 9:00:00 AM 6.68 44.024 0.029 6.79 6.23 12.21
1/5/2023 9:15:00 AM 6.67 44.006 0.029 6.78 6.69 12.22
1/5/2023 9:30:00 AM 6.66 43.988 0.029 6.78 6.68 12.23
1/5/2023 9:45:00 AM 6.65 43.97 0.029 6.75 7.18 12.24
1/5/2023 10:00:00 AM 6.64 43.952 0.029 6.79 6.68 12.25
1/5/2023 10:15:00 AM 6.65 43.97 0.029 6.8 6.53 12.26
1/5/2023 10:30:00 AM 6.67 44.006 0.029 6.79 6.98 12.26
1/5/2023 10:45:00 AM 6.68 44.024 0.029 6.76 7.26 12.27
1/5/2023 11:00:00 AM 6.71 44.078 0.029 6.83 6.34 12.28
1/5/2023 11:15:00 AM 6.74 44.132 0.029 6.82 6.79 12.27
1/5/2023 11:30:00 AM 6.81 44.258 0.029 6.81 6.71 12.27
1/5/2023 11:45:00 AM 6.89 44.402 0.029 6.86 6.79 12.26
1/5/2023 12:00:00 PM 6.96 44.528 0.029 6.82 7.06 12.25
1/5/2023 12:15:00 PM 7.04 44.672 0.029 6.83 6.75 12.23
1/5/2023 12:30:00 PM 7.1 44.78 0.029 6.78 7.13 12.2
1/5/2023 12:45:00 PM 7.17 44.906 0.029 6.82 7.37 12.18
1/5/2023 1:00:00 PM 7.18 44.924 0.029 6.84 7.25 12.16
1/5/2023 1:15:00 PM 7.21 44.978 0.029 6.84 7.23 12.13
1/5/2023 1:30:00 PM 7.24 45.032 0.029 6.85 6.31 12.11
1/5/2023 1:45:00 PM 7.25 45.05 0.029 6.83 7.16 12.11
1/5/2023 2:00:00 PM 7.28 45.104 0.029 6.83 6.33 12.1
1/5/2023 2:15:00 PM 7.28 45.104 0.029 6.82 6.86 12.1
1/5/2023 2:30:00 PM 7.28 45.104 0.029 6.83 6.44 12.09
1/5/2023 2:45:00 PM 7.28 45.104 0.029 6.87 6.69 12.08
1/5/2023 3:00:00 PM 7.28 45.104 0.029 6.81 6.79 12.06
1/5/2023 3:15:00 PM 7.29 45.122 0.029 6.81 6.33 12.06
1/5/2023 3:30:00 PM 7.31 45.158 0.029 6.83 6.82 12.06
1/5/2023 3:45:00 PM 7.32 45.176 0.029 6.85 6.79 12.05
1/5/2023 4:00:00 PM 7.32 45.176 0.029 6.84 6.07 12.05
1/5/2023 4:15:00 PM 7.3 45.14 0.029 6.81 6.95 12.03
1/5/2023 4:30:00 PM 7.27 45.086 0.029 6.79 6.48 12.01
1/5/2023 4:45:00 PM 7.25 45.05 0.029 6.81 6.71 12
1/5/2023 5:00:00 PM 7.24 45.032 0.029 6.79 6.75 11.99
1/5/2023 5:15:00 PM 7.22 44.996 0.029 6.78 6.86 11.98
1/5/2023 5:30:00 PM 7.18 44.924 0.029 6.73 6.34 11.97
1/5/2023 5:45:00 PM 7.14 44.852 0.029 6.81 6.64 11.98
1/5/2023 6:00:00 PM 7.1 44.78 0.029 6.8 6.32 11.99
1/5/2023 6:15:00 PM 7.05 44.69 0.029 6.76 5.94 12
1/5/2023 6:30:00 PM 7.01 44.618 0.029 6.77 6.72 12.02
1/5/2023 6:45:00 PM 6.97 44.546 0.029 6.76 6.51 12.03
1/5/2023 7:00:00 PM 6.93 44.474 0.029 6.77 6.72 12.04
1/5/2023 7:15:00 PM 6.89 44.402 0.029 6.73 9.37 12.05
1/5/2023 7:30:00 PM 6.84 44.312 0.029 6.8 6.59 12.07
1/5/2023 7:45:00 PM 6.79 44.222 0.029 6.81 6.48 12.09
1/5/2023 8:00:00 PM 6.75 44.15 0.029 6.75 6.49 12.1
1/5/2023 8:15:00 PM 6.7 44.06 0.029 6.76 6.54 12.12
1/5/2023 8:30:00 PM 6.66 43.988 0.029 6.77 6.65 12.13
1/5/2023 8:45:00 PM 6.61 43.898 0.029 6.79 6.65 12.14
1/5/2023 9:00:00 PM 6.57 43.826 0.029 6.8 6.92 12.16
1/5/2023 9:15:00 PM 6.52 43.736 0.029 6.76 6.48 12.17
1/5/2023 9:30:00 PM 6.47 43.646 0.029 6.76 6.5 12.19
1/5/2023 9:45:00 PM 6.42 43.556 0.029 6.77 6.69 12.21
1/5/2023 10:00:00 PM 6.38 43.484 0.029 6.72 10.21 12.22
1/5/2023 10:15:00 PM 6.33 43.394 0.029 6.73 6.58 12.24
1/5/2023 10:30:00 PM 6.29 43.322 0.029 6.76 6.76 12.25
1/5/2023 10:45:00 PM 6.24 43.232 0.029 6.76 6.66 12.27
1/5/2023 11:00:00 PM 6.19 43.142 0.029 6.76 7.12 12.28
1/5/2023 11:15:00 PM 6.15 43.07 0.029 6.77 6.78 12.3
1/5/2023 11:30:00 PM 6.12 43.016 0.029 6.77 6.75 12.3
1/5/2023 11:45:00 PM 6.08 42.944 0.029 6.79 6.67 12.32
1/6/2023 12:00:00 AM 6.05 42.89 0.029 6.72 8.76 12.33
1/6/2023 12:15:00 AM 6.03 42.854 0.029 6.75 6.1 12.34
1/6/2023 12:30:00 AM 6 42.8 0.029 6.76 6.58 12.35
1/6/2023 12:45:00 AM 5.98 42.764 0.029 6.71 10.22 12.35
1/6/2023 1:00:00 AM 5.95 42.71 0.029 6.75 6.56 12.36
1/6/2023 1:15:00 AM 5.93 42.674 0.028 6.74 8.41 12.36
1/6/2023 1:30:00 AM 5.91 42.638 0.029 6.75 6.36 12.37
1/6/2023 1:45:00 AM 5.89 42.602 0.029 6.77 6.55 12.37
1/6/2023 2:00:00 AM 5.88 42.584 0.029 6.76 6.52 12.38
1/6/2023 2:15:00 AM 5.87 42.566 0.028 6.71 8.55 12.38
1/6/2023 2:30:00 AM 5.86 42.548 0.028 6.71 8.54 12.39
1/6/2023 2:45:00 AM 5.84 42.512 0.029 6.73 6.25 12.4
1/6/2023 3:00:00 AM 5.83 42.494 0.029 6.74 8.55 12.39
1/6/2023 3:15:00 AM 5.83 42.494 0.029 6.72 8.17 12.4
1/6/2023 3:30:00 AM 5.82 42.476 0.029 6.71 8.23 12.4
1/6/2023 3:45:00 AM 5.81 42.458 0.029 6.77 7.54 12.41
1/6/2023 4:00:00 AM 5.81 42.458 0.028 6.7 11.11 12.41
1/6/2023 4:15:00 AM 5.8 42.44 0.029 6.8 7.12 12.41
1/6/2023 4:30:00 AM 5.79 42.422 0.029 6.75 7.52 12.42
1/6/2023 4:45:00 AM 5.78 42.404 0.029 6.76 7.11 12.41
1/6/2023 5:00:00 AM 5.77 42.386 0.029 6.76 6.97 12.42
1/6/2023 5:15:00 AM 5.77 42.386 0.029 6.73 9.79 12.42
1/6/2023 5:30:00 AM 5.77 42.386 0.029 6.75 6.72 12.42
1/6/2023 5:45:00 AM 5.76 42.368 0.029 6.72 8.76 12.42
1/6/2023 6:00:00 AM 5.73 42.314 0.029 6.75 6.83 12.42
1/6/2023 6:15:00 AM 5.71 42.278 0.029 6.78 6.19 12.43
1/6/2023 6:30:00 AM 5.69 42.242 0.029 6.75 6.86 12.44
1/6/2023 6:45:00 AM 5.67 42.206 0.029 6.75 6.71 12.44
1/6/2023 7:00:00 AM 5.66 42.188 0.029 6.75 6.73 12.45
1/6/2023 7:15:00 AM 5.66 42.188 0.029 6.7 8.86 12.46
1/6/2023 7:30:00 AM 5.64 42.152 0.028 6.69 9.96 12.46
1/6/2023 7:45:00 AM 5.62 42.116 0.029 6.75 6.58 12.48
1/6/2023 8:00:00 AM 5.62 42.116 0.029 6.71 9.1 12.49
1/6/2023 8:15:00 AM 5.61 42.098 0.029 6.72 6.6 12.5
1/6/2023 8:30:00 AM 5.61 42.098 0.029 6.8 6.34 12.52
1/6/2023 8:45:00 AM 5.62 42.116 0.029 6.76 7.29 12.52
1/6/2023 9:00:00 AM 5.63 42.134 0.029 6.72 8.99 12.53
1/6/2023 9:15:00 AM 5.64 42.152 0.028 6.73 8.94 12.53
1/6/2023 9:30:00 AM 5.64 42.152 0.029 6.81 6.07 12.54
1/6/2023 9:45:00 AM 5.66 42.188 0.029 6.8 5.87 12.55
1/6/2023 10:00:00 AM 5.67 42.206 0.029 6.81 6.18 12.57
1/6/2023 10:15:00 AM 5.69 42.242 0.029 6.73 8.49 12.57
1/6/2023 10:30:00 AM 5.72 42.296 0.029 6.82 6.46 12.59
1/6/2023 10:45:00 AM 5.75 42.35 0.029 6.8 6.45 12.6
1/6/2023 11:00:00 AM 5.77 42.386 0.029 6.8 6.52 12.59
1/6/2023 11:15:00 AM 5.8 42.44 0.029 6.82 6.45 12.58
1/6/2023 11:30:00 AM 5.83 42.494 0.029 6.83 6.41 12.58
1/6/2023 11:45:00 AM 5.86 42.548 0.029 6.84 6.69 12.58
1/6/2023 12:00:00 PM 5.91 42.638 0.029 6.83 6.5 12.58
1/6/2023 12:15:00 PM 5.97 42.746 0.028 6.79 8.67 12.57
1/6/2023 12:30:00 PM 6.01 42.818 0.029 6.85 6.24 12.57
1/6/2023 12:45:00 PM 6.06 42.908 0.029 6.84 6.32 12.55
1/6/2023 1:00:00 PM 6.1 42.98 0.029 6.85 6.06 12.54
1/6/2023 1:15:00 PM 6.13 43.034 0.029 6.84 5.96 12.52
1/6/2023 1:30:00 PM 6.16 43.088 0.029 6.86 6.23 12.51
1/6/2023 1:45:00 PM 6.19 43.142 0.028 6.8 8.38 12.49
1/6/2023 2:00:00 PM 6.21 43.178 0.029 6.85 6.25 12.48
1/6/2023 2:15:00 PM 6.22 43.196 0.029 6.85 6.05 12.47
1/6/2023 2:30:00 PM 6.22 43.196 0.029 6.85 6.33 12.46
1/6/2023 2:45:00 PM 6.22 43.196 0.029 6.85 6.21 12.44
1/6/2023 3:00:00 PM 6.22 43.196 0.029 6.84 6.4 12.43
1/6/2023 3:15:00 PM 6.22 43.196 0.029 6.84 6.52 12.43
1/6/2023 3:30:00 PM 6.22 43.196 0.029 6.83 6.3 12.43
1/6/2023 3:45:00 PM 6.23 43.214 0.029 6.83 6.29 12.42
1/6/2023 4:00:00 PM 6.23 43.214 0.029 6.83 6.32 12.41
1/6/2023 4:15:00 PM 6.22 43.196 0.029 6.83 6.18 12.4
1/6/2023 4:30:00 PM 6.19 43.142 0.029 6.8 6.44 12.39
1/6/2023 4:45:00 PM 6.16 43.088 0.029 6.82 6.63 12.38
1/6/2023 5:00:00 PM 6.14 43.052 0.029 6.8 6.85 12.36
1/6/2023 5:15:00 PM 6.13 43.034 0.029 6.79 6.87 12.36
1/6/2023 5:30:00 PM 6.12 43.016 0.029 6.81 6.66 12.37
1/6/2023 5:45:00 PM 6.1 42.98 0.029 6.8 6.89 12.36
1/6/2023 6:00:00 PM 6.08 42.944 0.029 6.77 6.87 12.37
1/6/2023 6:15:00 PM 6.07 42.926 0.029 6.78 6.07 12.37
1/6/2023 6:30:00 PM 6.05 42.89 0.029 6.77 6.65 12.38
1/6/2023 6:45:00 PM 6.04 42.872 0.029 6.78 6.94 12.39
1/6/2023 7:00:00 PM 6.02 42.836 0.03 6.77 6.67 12.4
1/6/2023 7:15:00 PM 6 42.8 0.03 6.8 6.82 12.4
1/6/2023 7:30:00 PM 5.99 42.782 0.03 6.73 7.31 12.4
1/6/2023 7:45:00 PM 5.97 42.746 0.03 6.82 6.44 12.42
1/6/2023 8:00:00 PM 5.95 42.71 0.029 6.72 8.15 12.42
1/6/2023 8:15:00 PM 5.92 42.656 0.03 6.78 5.94 12.44
1/6/2023 8:30:00 PM 5.9 42.62 0.03 6.78 6.63 12.44
1/6/2023 8:45:00 PM 5.88 42.584 0.028 6.72 8.38 12.45
1/6/2023 9:00:00 PM 5.85 42.53 0.03 6.74 6.63 12.46
1/6/2023 9:15:00 PM 5.83 42.494 0.03 6.77 6.34 12.47
1/6/2023 9:30:00 PM 5.81 42.458 0.03 6.77 6.76 12.48
1/6/2023 9:45:00 PM 5.79 42.422 0.03 6.76 6.43 12.48
1/6/2023 10:00:00 PM 5.77 42.386 0.028 6.73 9.12 12.49
1/6/2023 10:15:00 PM 5.75 42.35 0.03 6.77 6.21 12.49
1/6/2023 10:30:00 PM 5.73 42.314 0.028 6.72 8.21 12.5
1/6/2023 10:45:00 PM 5.71 42.278 0.03 6.77 6.49 12.5
1/6/2023 11:00:00 PM 5.7 42.26 0.029 6.72 8.5 12.51
1/6/2023 11:15:00 PM 5.68 42.224 0.028 6.72 8.78 12.51
1/6/2023 11:30:00 PM 5.66 42.188 0.028 6.71 9.35 12.52
1/6/2023 11:45:00 PM 5.64 42.152 0.03 6.77 6.11 12.54
1/7/2023 12:00:00 AM 5.62 42.116 0.028 6.72 8.45 12.53
1/7/2023 12:15:00 AM 5.61 42.098 0.028 6.72 8.43 12.54
1/7/2023 12:30:00 AM 5.59 42.062 0.03 6.76 6.75 12.55
1/7/2023 12:45:00 AM 5.58 42.044 0.03 6.79 6.49 12.55
1/7/2023 1:00:00 AM 5.57 42.026 0.03 6.75 6.63 12.55
1/7/2023 1:15:00 AM 5.56 42.008 0.029 6.72 8.53 12.55
1/7/2023 1:30:00 AM 5.55 41.99 0.03 6.75 6.17 12.56
1/7/2023 1:45:00 AM 5.55 41.99 0.028 6.71 8.5 12.56
1/7/2023 2:00:00 AM 5.54 41.972 0.03 6.76 6.42 12.56
1/7/2023 2:15:00 AM 5.54 41.972 0.03 6.76 6.06 12.56
1/7/2023 2:30:00 AM 5.53 41.954 0.03 6.77 6.32 12.56
1/7/2023 2:45:00 AM 5.53 41.954 0.029 6.72 8.8 12.56
1/7/2023 3:00:00 AM 5.52 41.936 0.03 6.76 6.54 12.57
1/7/2023 3:15:00 AM 5.52 41.936 0.028 6.74 10.81 12.57
1/7/2023 3:30:00 AM 5.51 41.918 0.03 6.77 6.24 12.57
1/7/2023 3:45:00 AM 5.5 41.9 0.03 6.76 6.68 12.58
1/7/2023 4:00:00 AM 5.5 41.9 0.029 6.72 9.13 12.58
1/7/2023 4:15:00 AM 5.49 41.882 0.03 6.73 6.73 12.58
1/7/2023 4:30:00 AM 5.48 41.864 0.03 6.78 6.6 12.58
1/7/2023 4:45:00 AM 5.48 41.864 0.03 6.75 6.36 12.58
1/7/2023 5:00:00 AM 5.47 41.846 0.03 6.75 6.99 12.58
1/7/2023 5:15:00 AM 5.47 41.846 0.028 6.74 9.37 12.58
1/7/2023 5:30:00 AM 5.47 41.846 0.03 6.76 5.88 12.59
1/7/2023 5:45:00 AM 5.46 41.828 0.03 6.8 6.1 12.59
1/7/2023 6:00:00 AM 5.46 41.828 0.03 6.76 7.29 12.59
1/7/2023 6:15:00 AM 5.46 41.828 0.03 6.75 7.52 12.59
1/7/2023 6:30:00 AM 5.46 41.828 0.029 6.71 9.5 12.59
1/7/2023 6:45:00 AM 5.45 41.81 0.03 6.72 7.64 12.6
1/7/2023 7:00:00 AM 5.45 41.81 0.03 6.78 7.51 12.6
1/7/2023 7:15:00 AM 5.45 41.81 0.029 6.71 8.78 12.6
1/7/2023 7:30:00 AM 5.44 41.792 0.03 6.75 7.26 12.6
1/7/2023 7:45:00 AM 5.44 41.792 0.03 6.76 7.72 12.61
1/7/2023 8:00:00 AM 5.44 41.792 0.029 6.72 18.07 12.62
1/7/2023 8:15:00 AM 5.44 41.792 0.028 6.72 10.4 12.64
1/7/2023 8:30:00 AM 5.43 41.774 0.03 6.79 7.18 12.66
1/7/2023 8:45:00 AM 5.45 41.81 0.029 6.74 11.88 12.67
1/7/2023 9:00:00 AM 5.45 41.81 0.03 6.75 9.35 12.69
1/7/2023 9:15:00 AM 5.46 41.828 0.03 6.81 8.59 12.7
1/7/2023 9:30:00 AM 5.48 41.864 0.028 6.75 9.67 12.72
1/7/2023 9:45:00 AM 5.5 41.9 0.028 6.75 9.66 12.73
1/7/2023 10:00:00 AM 5.52 41.936 0.03 6.85 7.35 12.74
1/7/2023 10:15:00 AM 5.54 41.972 0.029 6.75 10.71 12.74
1/7/2023 10:30:00 AM 5.55 41.99 0.03 6.77 11.14 12.73
1/7/2023 10:45:00 AM 5.57 42.026 0.03 6.84 10.58 12.74
1/7/2023 11:00:00 AM 5.6 42.08 0.028 6.76 12.05 12.74
1/7/2023 11:15:00 AM 5.62 42.116 0.029 6.77 11.84 12.73
1/7/2023 11:30:00 AM 5.64 42.152 0.029 6.78 12.22 12.73
1/7/2023 11:45:00 AM 5.67 42.206 0.029 6.85 10.36 12.72
1/7/2023 12:00:00 PM 5.7 42.26 0.029 6.79 12.11 12.71
1/7/2023 12:15:00 PM 5.73 42.314 0.029 6.79 9.9 12.7
1/7/2023 12:30:00 PM 5.77 42.386 0.029 6.84 11.15 12.7
1/7/2023 12:45:00 PM 5.81 42.458 0.029 6.86 10.27 12.69
1/7/2023 1:00:00 PM 5.85 42.53 0.029 6.84 8.5 12.67
1/7/2023 1:15:00 PM 5.89 42.602 0.029 6.81 9.64 12.65
1/7/2023 1:30:00 PM 5.92 42.656 0.029 6.86 8.44 12.64
1/7/2023 1:45:00 PM 5.96 42.728 0.029 6.86 8.66 12.63
1/7/2023 2:00:00 PM 5.97 42.746 0.029 6.82 10.28 12.61
1/7/2023 2:15:00 PM 5.97 42.746 0.029 6.82 10.68 12.6
1/7/2023 2:30:00 PM 5.98 42.764 0.029 6.8 11.74 12.59
1/7/2023 2:45:00 PM 5.99 42.782 0.029 6.83 10.38 12.58
1/7/2023 3:00:00 PM 6 42.8 0.029 6.83 8.94 12.58
1/7/2023 3:15:00 PM 6 42.8 0.029 6.81 8.92 12.58
1/7/2023 3:30:00 PM 6 42.8 0.029 6.87 8.43 12.59
1/7/2023 3:45:00 PM 6.01 42.818 0.029 6.86 8.95 12.59
1/7/2023 4:00:00 PM 6 42.8 0.029 6.85 8.52 12.56
1/7/2023 4:15:00 PM 5.99 42.782 0.029 6.83 7.32 12.53
1/7/2023 4:30:00 PM 5.98 42.764 0.029 6.8 9.67 12.52
1/7/2023 4:45:00 PM 5.97 42.746 0.029 6.81 8.2 12.5
1/7/2023 5:00:00 PM 5.96 42.728 0.03 6.8 9.04 12.48
1/7/2023 5:15:00 PM 5.94 42.692 0.03 6.8 9.33 12.49
1/7/2023 5:30:00 PM 5.92 42.656 0.03 6.78 10.01 12.48
1/7/2023 5:45:00 PM 5.89 42.602 0.03 6.8 9.62 12.49
1/7/2023 6:00:00 PM 5.86 42.548 0.03 6.79 9.75 12.49
1/7/2023 6:15:00 PM 5.83 42.494 0.03 6.78 12.02 12.5
1/7/2023 6:30:00 PM 5.81 42.458 0.03 6.78 10.24 12.51
1/7/2023 6:45:00 PM 5.79 42.422 0.03 6.79 11 12.52
1/7/2023 7:00:00 PM 5.77 42.386 0.03 6.78 9.35 12.52
1/7/2023 7:15:00 PM 5.75 42.35 0.029 6.72 14.61 12.53
1/7/2023 7:30:00 PM 5.73 42.314 0.03 6.79 14.28 12.54
1/7/2023 7:45:00 PM 5.72 42.296 0.03 6.78 12.73 12.55
1/7/2023 8:00:00 PM 5.7 42.26 0.03 6.78 11.75 12.56
1/7/2023 8:15:00 PM 5.67 42.206 0.03 6.78 12.05 12.57
1/7/2023 8:30:00 PM 5.65 42.17 0.03 6.82 11.49 12.58
1/7/2023 8:45:00 PM 5.63 42.134 0.03 6.73 10.27 12.58
1/7/2023 9:00:00 PM 5.62 42.116 0.029 6.76 14.19 12.59
1/7/2023 9:15:00 PM 5.6 42.08 0.03 6.76 13.04 12.6
1/7/2023 9:30:00 PM 5.58 42.044 0.03 6.77 14.53 12.61
1/7/2023 9:45:00 PM 5.56 42.008 0.029 6.75 15.43 12.61
1/7/2023 10:00:00 PM 5.55 41.99 0.03 6.79 10.5 12.62
1/7/2023 10:15:00 PM 5.54 41.972 0.029 6.74 12.35 12.62
1/7/2023 10:30:00 PM 5.52 41.936 0.03 6.78 11.4 12.63
1/7/2023 10:45:00 PM 5.5 41.9 0.03 6.78 11.65 12.64
1/7/2023 11:00:00 PM 5.49 41.882 0.03 6.78 10.69 12.65
1/7/2023 11:15:00 PM 5.48 41.864 0.029 6.73 12.63 12.65
1/7/2023 11:30:00 PM 5.46 41.828 0.03 6.78 10.37 12.65
1/7/2023 11:45:00 PM 5.45 41.81 0.03 6.77 9.39 12.66
1/8/2023 12:00:00 AM 5.44 41.792 0.03 6.79 11.48 12.66
1/8/2023 12:15:00 AM 5.43 41.774 0.02 6.73 10.22 12.67
1/8/2023 12:30:00 AM 5.42 41.756 0.029 6.75 12.4 12.66
1/8/2023 12:45:00 AM 5.4 41.72 0.03 6.74 11.43 12.67
1/8/2023 1:00:00 AM 5.4 41.72 0.029 6.76 13.29 12.67
1/8/2023 1:15:00 AM 5.39 41.702 0.03 6.77 12.08 12.67
1/8/2023 1:30:00 AM 5.38 41.684 0.03 6.8 11.49 12.68
1/8/2023 1:45:00 AM 5.37 41.666 0.03 6.77 11.03 12.68
1/8/2023 2:00:00 AM 5.36 41.648 0.029 6.75 13.61 12.69
1/8/2023 2:15:00 AM 5.34 41.612 0.03 6.82 10.77 12.69
1/8/2023 2:30:00 AM 5.33 41.594 0.03 6.76 9.97 12.7
1/8/2023 2:45:00 AM 5.32 41.576 0.029 6.75 13.58 12.7
1/8/2023 3:00:00 AM 5.31 41.558 0.029 6.75 13.96 12.7
1/8/2023 3:15:00 AM 5.3 41.54 0.03 6.78 11.11 12.71
1/8/2023 3:30:00 AM 5.29 41.522 0.03 6.83 10.33 12.71
1/8/2023 3:45:00 AM 5.28 41.504 0.03 6.74 10 12.72
1/8/2023 4:00:00 AM 5.27 41.486 0.03 6.77 11.78 12.72
1/8/2023 4:15:00 AM 5.27 41.486 0.028 6.75 15.57 12.72
1/8/2023 4:30:00 AM 5.26 41.468 0.028 6.73 13.48 12.72
1/8/2023 4:45:00 AM 5.25 41.45 0.03 6.78 10.79 12.73
1/8/2023 5:00:00 AM 5.23 41.414 0.029 6.73 13.62 12.73
1/8/2023 5:15:00 AM 5.21 41.378 0.028 6.73 13.33 12.73
1/8/2023 5:30:00 AM 5.19 41.342 0.029 6.74 13.57 12.74
1/8/2023 5:45:00 AM 5.18 41.324 0.03 6.75 11.86 12.74
1/8/2023 6:00:00 AM 5.18 41.324 0.03 6.77 11.05 12.75
1/8/2023 6:15:00 AM 5.17 41.306 0.03 6.77 10.87 12.75
1/8/2023 6:30:00 AM 5.15 41.27 0.029 6.75 14.03 12.75
1/8/2023 6:45:00 AM 5.14 41.252 0.03 6.8 10.25 12.76
1/8/2023 7:00:00 AM 5.13 41.234 0.029 6.73 12.64 12.76
1/8/2023 7:15:00 AM 5.12 41.216 0.029 6.73 11.97 12.76
1/8/2023 7:30:00 AM 5.11 41.198 0.029 6.73 15.2 12.77
1/8/2023 7:45:00 AM 5.1 41.18 0.03 6.76 14.09 12.78
1/8/2023 8:00:00 AM 5.09 41.162 0.029 6.74 15.59 12.79
1/8/2023 8:15:00 AM 5.08 41.144 0.03 6.8 13.92 12.81
1/8/2023 8:30:00 AM 5.07 41.126 0.03 6.78 14.08 12.82
1/8/2023 8:45:00 AM 5.06 41.108 0.03 6.79 13.04 12.85
1/8/2023 9:00:00 AM 5.06 41.108 0.029 6.77 14.69 12.87
1/8/2023 9:15:00 AM 5.05 41.09 0.028 6.76 13.29 12.9
1/8/2023 9:30:00 AM 5.05 41.09 0.029 6.77 13.88 12.92
1/8/2023 9:45:00 AM 5.06 41.108 0.028 6.8 14.65 12.94
1/8/2023 10:00:00 AM 5.07 41.126 0.028 6.79 15.41 12.96
1/8/2023 10:15:00 AM 5.08 41.144 0.028 6.81 14.46 12.97
1/8/2023 10:30:00 AM 5.09 41.162 0.028 6.8 12.76 12.98
1/8/2023 10:45:00 AM 5.1 41.18 0.028 6.8 12.76 12.98
1/8/2023 11:00:00 AM 5.12 41.216 0.03 6.85 10.87 12.98
1/8/2023 11:15:00 AM 5.14 41.252 0.029 6.81 12.33 12.97
1/8/2023 11:30:00 AM 5.17 41.306 0.028 6.81 12.71 12.97
1/8/2023 11:45:00 AM 5.21 41.378 0.03 6.9 12.94 12.97
1/8/2023 12:00:00 PM 5.24 41.432 0.03 6.87 13.25 12.95
1/8/2023 12:15:00 PM 5.29 41.522 0.03 6.88 10.96 12.94
1/8/2023 12:30:00 PM 5.36 41.648 0.03 6.88 12.06 12.93
1/8/2023 12:45:00 PM 5.38 41.684 0.029 6.83 13.09 12.9
1/8/2023 1:00:00 PM 5.42 41.756 0.03 6.89 10.4 12.88
1/8/2023 1:15:00 PM 5.42 41.756 0.03 6.87 11.29 12.86
1/8/2023 1:30:00 PM 5.44 41.792 0.03 6.87 11 12.85
1/8/2023 1:45:00 PM 5.46 41.828 0.03 6.87 11.64 12.84
1/8/2023 2:00:00 PM 5.48 41.864 0.028 6.82 13.52 12.82
1/8/2023 2:15:00 PM 5.49 41.882 0.03 6.87 10.74 12.82
1/8/2023 2:30:00 PM 5.5 41.9 0.03 6.87 10.3 12.8
1/8/2023 2:45:00 PM 5.5 41.9 0.029 6.83 11.73 12.78
1/8/2023 3:00:00 PM 5.5 41.9 0.028 6.81 13.24 12.75
1/8/2023 3:15:00 PM 5.49 41.882 0.03 6.86 10.21 12.74
1/8/2023 3:30:00 PM 5.48 41.864 0.03 6.86 10.09 12.73
1/8/2023 3:45:00 PM 5.47 41.846 0.029 6.8 14.81 12.71
1/8/2023 4:00:00 PM 5.45 41.81 0.03 6.85 10.53 12.7
1/8/2023 4:15:00 PM 5.43 41.774 0.03 6.86 8.71 12.69
1/8/2023 4:30:00 PM 5.4 41.72 0.03 6.84 9.55 12.68
1/8/2023 4:45:00 PM 5.38 41.684 0.03 6.8 10.61 12.67
1/8/2023 5:00:00 PM 5.34 41.612 0.03 6.82 10.11 12.66
1/8/2023 5:15:00 PM 5.32 41.576 0.03 6.82 10.63 12.65
1/8/2023 5:30:00 PM 5.3 41.54 0.03 6.81 10.18 12.65
1/8/2023 5:45:00 PM 5.26 41.468 0.029 6.75 12.31 12.65
1/8/2023 6:00:00 PM 5.22 41.396 0.03 6.8 13.15 12.67
1/8/2023 6:15:00 PM 5.18 41.324 0.029 6.76 12.73 12.66
1/8/2023 6:30:00 PM 5.13 41.234 0.029 6.76 12.85 12.68
1/8/2023 6:45:00 PM 5.08 41.144 0.029 6.75 13.69 12.69
1/8/2023 7:00:00 PM 5.03 41.054 0.029 6.74 12.61 12.71
1/8/2023 7:15:00 PM 4.98 40.964 0.03 6.8 15.87 12.73
1/8/2023 7:30:00 PM 4.94 40.892 0.03 6.79 11.67 12.74
1/8/2023 7:45:00 PM 4.91 40.838 0.03 6.76 13.01 12.75
1/8/2023 8:00:00 PM 4.88 40.784 0.03 6.79 11.72 12.76
1/8/2023 8:15:00 PM 4.85 40.73 0.03 6.75 12.73 12.77
1/8/2023 8:30:00 PM 4.83 40.694 0.03 6.75 13.56 12.77
1/8/2023 8:45:00 PM 4.8 40.64 0.029 6.75 13.37 12.79
1/8/2023 9:00:00 PM 4.77 40.586 0.029 6.74 13.71 12.79
1/8/2023 9:15:00 PM 4.73 40.514 0.03 6.79 12.29 12.8
1/8/2023 9:30:00 PM 4.7 40.46 0.03 6.76 13.82 12.81
1/8/2023 9:45:00 PM 4.66 40.388 0.03 6.83 11.61 12.82
1/8/2023 10:00:00 PM 4.62 40.316 0.03 6.74 15.29 12.83
1/8/2023 10:15:00 PM 4.59 40.262 0.03 6.82 12.24 12.84
1/8/2023 10:30:00 PM 4.57 40.226 0.03 6.8 12.05 12.84
1/8/2023 10:45:00 PM 4.55 40.19 0.03 6.77 13.62 12.85
1/8/2023 11:00:00 PM 4.53 40.154 0.03 6.83 11.85 12.86
1/8/2023 11:15:00 PM 4.52 40.136 0.03 6.75 13.02 12.85
1/8/2023 11:30:00 PM 4.51 40.118 0.03 6.75 12.89 12.86
1/8/2023 11:45:00 PM 4.5 40.1 0.03 6.79 11.01 12.87
1/9/2023 12:00:00 AM 4.49 40.082 0.03 6.82 10.44 12.87
1/9/2023 12:15:00 AM 4.47 40.046 0.03 6.75 11.53 12.88
1/9/2023 12:30:00 AM 4.46 40.028 0.029 6.75 10.64 12.88
1/9/2023 12:45:00 AM 4.45 40.01 0.029 6.75 12.45 12.88
1/9/2023 1:00:00 AM 4.44 39.992 0.03 6.8 11.13 12.88
1/9/2023 1:15:00 AM 4.44 39.992 0.03 6.74 11.85 12.88
1/9/2023 1:30:00 AM 4.43 39.974 0.029 6.75 11.15 12.88
1/9/2023 1:45:00 AM 4.42 39.956 0.029 6.75 11.67 12.88
1/9/2023 2:00:00 AM 4.41 39.938 0.03 6.81 10.33 12.89
1/9/2023 2:15:00 AM 4.41 39.938 0.029 6.75 12.36 12.88
1/9/2023 2:30:00 AM 4.4 39.92 0.03 6.75 11.86 12.89
1/9/2023 2:45:00 AM 4.39 39.902 0.03 6.8 10.5 12.89
1/9/2023 3:00:00 AM 4.38 39.884 0.029 6.75 11.82 12.9
1/9/2023 3:15:00 AM 4.37 39.866 0.029 6.74 11.01 12.89
1/9/2023 3:30:00 AM 4.36 39.848 0.03 6.79 9.63 12.9
1/9/2023 3:45:00 AM 4.35 39.83 0.029 6.74 13.04 12.9
1/9/2023 4:00:00 AM 4.33 39.794 0.03 6.79 10.3 12.91
1/9/2023 4:15:00 AM 4.31 39.758 0.029 6.74 12.51 12.91
1/9/2023 4:30:00 AM 4.28 39.704 0.03 6.8 10.02 12.91
1/9/2023 4:45:00 AM 4.26 39.668 0.03 6.8 10.43 12.92
1/9/2023 5:00:00 AM 4.25 39.65 0.03 6.82 10.57 12.92
1/9/2023 5:15:00 AM 4.24 39.632 0.03 6.79 10.19 12.93
1/9/2023 5:30:00 AM 4.22 39.596 0.03 6.8 12.45 12.93
1/9/2023 5:45:00 AM 4.21 39.578 0.03 6.79 12.7 12.95
1/9/2023 6:00:00 AM 4.2 39.56 0.03 6.79 12.28 12.95
1/9/2023 6:15:00 AM 4.19 39.542 0.03 6.81 12.29 12.95
1/9/2023 6:30:00 AM 4.19 39.542 0.03 6.75 13.6 12.96
1/9/2023 6:45:00 AM 4.18 39.524 0.03 6.79 12.43 12.96
1/9/2023 7:00:00 AM 4.18 39.524 0.03 6.82 12.35 12.97
1/9/2023 7:15:00 AM 4.18 39.524 0.03 6.8 12.42 12.97
1/9/2023 7:30:00 AM 4.17 39.506 0.03 6.76 13.47 12.97
1/9/2023 7:45:00 AM 4.17 39.506 0.03 6.8 12.42 12.98
1/9/2023 8:00:00 AM 4.17 39.506 0.03 6.76 12.22 12.99
1/9/2023 8:15:00 AM 4.17 39.506 0.03 6.82 11.99 13.01
1/9/2023 8:30:00 AM 4.17 39.506 0.03 6.83 11 13.03
1/9/2023 8:45:00 AM 4.19 39.542 0.03 6.84 12.25 13.06
1/9/2023 9:00:00 AM 4.2 39.56 0.03 6.84 11.98 13.09
1/9/2023 9:15:00 AM 4.2 39.56 0.03 6.81 13.04 13.11
1/9/2023 9:30:00 AM 4.22 39.596 0.03 6.9 12.98 13.13
1/9/2023 9:45:00 AM 4.24 39.632 0.03 6.88 13.35 13.14
1/9/2023 10:00:00 AM 4.28 39.704 0.029 6.85 12.82 13.15
1/9/2023 10:15:00 AM 4.29 39.722 0.03 6.86 12.56 13.16
1/9/2023 10:30:00 AM 4.31 39.758 0.03 6.88 12.11 13.17
1/9/2023 10:45:00 AM 4.32 39.776 0.028 6.87 13.28 13.15
1/9/2023 11:00:00 AM 4.34 39.812 0.028 6.86 12.62 13.14
1/9/2023 11:15:00 AM 4.39 39.902 0.03 6.88 12.12 13.14
1/9/2023 11:30:00 AM 4.46 40.028 0.028 6.86 12.04 13.12
1/9/2023 11:45:00 AM 4.46 40.028 0.028 6.87 13.4 13.12
1/9/2023 12:00:00 PM 4.52 40.136 0.03 6.9 12.53 13.1
1/9/2023 12:15:00 PM 4.59 40.262 0.029 6.85 12.55 13.07
1/9/2023 12:30:00 PM 4.65 40.37 0.03 6.89 12.57 13.05
1/9/2023 12:45:00 PM 4.68 40.424 0.029 6.85 13.3 13.04
1/9/2023 1:00:00 PM 4.7 40.46 0.029 6.86 12.75 13.02
1/9/2023 1:15:00 PM 4.72 40.496 0.03 6.89 12.23 13.01
1/9/2023 1:30:00 PM 4.74 40.532 0.03 6.9 11.93 12.99
1/9/2023 1:45:00 PM 4.76 40.568 0.029 6.85 12.54 12.97
1/9/2023 2:00:00 PM 4.8 40.64 0.03 6.88 11.42 12.95
1/9/2023 2:15:00 PM 4.81 40.658 0.029 6.85 11.65 12.95
1/9/2023 2:30:00 PM 4.83 40.694 0.029 6.85 11.82 12.92
1/9/2023 2:45:00 PM 4.85 40.73 0.03 6.89 11 12.91
1/9/2023 3:00:00 PM 4.84 40.712 0.028 6.85 11.53 12.89
1/9/2023 3:15:00 PM 4.84 40.712 0.03 6.92 11.05 12.88
1/9/2023 3:30:00 PM 4.84 40.712 0.029 6.84 11.19 12.86
1/9/2023 3:45:00 PM 4.83 40.694 0.03 6.89 11.48 12.85
1/9/2023 4:00:00 PM 4.84 40.712 0.029 6.84 11.87 12.83
1/9/2023 4:15:00 PM 4.85 40.73 0.029 6.83 11.36 12.83
1/9/2023 4:30:00 PM 4.83 40.694 0.029 6.83 11.77 12.82
1/9/2023 4:45:00 PM 4.81 40.658 0.029 6.83 12.45 12.81
1/9/2023 5:00:00 PM 4.78 40.604 0.03 6.86 11.95 12.8
1/9/2023 5:15:00 PM 4.74 40.532 0.029 6.81 11.92 12.79
1/9/2023 5:30:00 PM 4.7 40.46 0.029 6.8 12.6 12.79
1/9/2023 5:45:00 PM 4.66 40.388 0.03 6.86 11.81 12.8
1/9/2023 6:00:00 PM 4.61 40.298 0.03 6.79 12.66 12.81
1/9/2023 6:15:00 PM 4.57 40.226 0.03 6.8 12.85 12.82
1/9/2023 6:30:00 PM 4.52 40.136 0.03 6.83 12.58 12.84
1/9/2023 6:45:00 PM 4.47 40.046 0.03 6.84 12.06 12.85
1/9/2023 7:00:00 PM 4.42 39.956 0.03 6.87 12.19 12.87
1/9/2023 7:15:00 PM 4.38 39.884 0.03 6.82 12.38 12.88
1/9/2023 7:30:00 PM 4.33 39.794 0.03 6.79 12.1 12.9
1/9/2023 7:45:00 PM 4.29 39.722 0.03 6.79 11.77 12.91
1/9/2023 8:00:00 PM 4.25 39.65 0.029 6.79 12.56 12.93
1/9/2023 8:15:00 PM 4.21 39.578 0.03 6.77 12.25 12.94
1/9/2023 8:30:00 PM 4.18 39.524 0.03 6.79 12.24 12.95
1/9/2023 8:45:00 PM 4.14 39.452 0.03 6.78 12.27 12.97
1/9/2023 9:00:00 PM 4.13 39.434 0.03 6.79 11.54 12.98
1/9/2023 9:15:00 PM 4.12 39.416 0.031 6.84 11.44 12.98
1/9/2023 9:30:00 PM 4.09 39.362 0.031 6.83 11.27 13
1/9/2023 9:45:00 PM 4.07 39.326 0.031 6.83 11.22 13
1/9/2023 10:00:00 PM 4.06 39.308 0.031 6.84 10.14 13.01
1/9/2023 10:15:00 PM 4.05 39.29 0.031 6.85 10.24 13.01
1/9/2023 10:30:00 PM 4.05 39.29 0.03 6.78 10.56 13.02
1/9/2023 10:45:00 PM 4.04 39.272 0.031 6.86 10.18 13.03
1/9/2023 11:00:00 PM 4.04 39.272 0.03 6.79 10.62 13.02
1/9/2023 11:15:00 PM 4.06 39.308 0.029 6.78 10.73 13.02
1/9/2023 11:30:00 PM 4.07 39.326 0.029 6.79 10.16 13.02
1/9/2023 11:45:00 PM 4.08 39.344 0.031 6.83 9.69 13.02
1/10/2023 12:00:00 AM 4.09 39.362 0.03 6.79 10.29 13.02
1/10/2023 12:15:00 AM 4.1 39.38 0.031 6.87 9.34 13.01
1/10/2023 12:30:00 AM 4.11 39.398 0.03 6.77 10.62 13
1/10/2023 12:45:00 AM 4.12 39.416 0.03 6.79 10.61 13
1/10/2023 1:00:00 AM 4.14 39.452 0.03 6.77 10.35 12.99
1/10/2023 1:15:00 AM 4.15 39.47 0.03 6.79 9.98 12.99
1/10/2023 1:30:00 AM 4.16 39.488 0.031 6.85 10.22 12.99
1/10/2023 1:45:00 AM 4.17 39.506 0.031 6.88 9.3 12.98
1/10/2023 2:00:00 AM 4.18 39.524 0.031 6.83 9.38 12.98
1/10/2023 2:15:00 AM 4.19 39.542 0.029 6.77 9.83 12.98
1/10/2023 2:30:00 AM 4.19 39.542 0.029 6.79 10.38 12.98
1/10/2023 2:45:00 AM 4.2 39.56 0.031 6.84 8.65 12.98
1/10/2023 3:00:00 AM 4.2 39.56 0.031 6.84 9 12.97
1/10/2023 3:15:00 AM 4.22 39.596 0.03 6.79 9.8 12.97
1/10/2023 3:30:00 AM 4.22 39.596 0.029 6.78 9.56 12.97
1/10/2023 3:45:00 AM 4.23 39.614 0.031 6.83 8.91 12.96
1/10/2023 4:00:00 AM 4.23 39.614 0.031 6.83 9.25 12.96
1/10/2023 4:15:00 AM 4.23 39.614 0.031 6.83 9.24 12.96
1/10/2023 4:30:00 AM 4.24 39.632 0.03 6.79 10.01 12.95
1/10/2023 4:45:00 AM 4.24 39.632 0.031 6.85 9.41 12.96
1/10/2023 5:00:00 AM 4.24 39.632 0.031 6.83 9.37 12.95
1/10/2023 5:15:00 AM 4.25 39.65 0.03 6.79 10.4 12.95
1/10/2023 5:30:00 AM 4.26 39.668 0.03 6.79 10.36 12.95
1/10/2023 5:45:00 AM 4.26 39.668 0.03 6.79 10.42 12.95
1/10/2023 6:00:00 AM 4.27 39.686 0.031 6.86 9.6 12.95
1/10/2023 6:15:00 AM 4.27 39.686 0.031 6.84 9.65 12.95
1/10/2023 6:30:00 AM 4.27 39.686 0.031 6.83 9.79 12.95
1/10/2023 6:45:00 AM 4.27 39.686 0.031 6.83 9.71 12.95
1/10/2023 7:00:00 AM 4.27 39.686 0.031 6.83 9.82 12.95
1/10/2023 7:15:00 AM 4.28 39.704 0.03 6.78 10.57 12.95
1/10/2023 7:30:00 AM 4.28 39.704 0.03 6.8 10.18 12.95
1/10/2023 7:45:00 AM 4.29 39.722 0.031 6.83 9.43 12.95
1/10/2023 8:00:00 AM 4.29 39.722 0.03 6.79 10.38 12.96
1/10/2023 8:15:00 AM 4.3 39.74 0.029 6.79 9.64 12.97
1/10/2023 8:30:00 AM 4.3 39.74 0.031 6.84 8.57 12.98
1/10/2023 8:45:00 AM 4.31 39.758 0.031 6.85 8.71 12.99
1/10/2023 9:00:00 AM 4.32 39.776 0.031 6.88 8.81 13.01
1/10/2023 9:15:00 AM 4.33 39.794 0.03 6.83 9.81 13.04
1/10/2023 9:30:00 AM 4.35 39.83 0.031 6.92 8.67 13.06
1/10/2023 9:45:00 AM 4.37 39.866 0.03 6.83 9.45 13.08
1/10/2023 10:00:00 AM 4.4 39.92 0.03 6.94 8.57 13.1
1/10/2023 10:15:00 AM 4.43 39.974 0.03 6.9 8.74 13.11
1/10/2023 10:30:00 AM 4.46 40.028 0.03 6.92 8.61 13.11
1/10/2023 10:45:00 AM 4.5 40.1 0.03 6.92 8.33 13.11
1/10/2023 11:00:00 AM 4.55 40.19 0.03 6.88 9.21 13.11
1/10/2023 11:15:00 AM 4.58 40.244 0.03 6.94 8.46 13.09
1/10/2023 11:30:00 AM 4.62 40.316 0.029 6.87 9.73 13.08
1/10/2023 11:45:00 AM 4.65 40.37 0.029 6.87 9.4 13.07
1/10/2023 12:00:00 PM 4.69 40.442 0.029 6.88 9.23 13.06
1/10/2023 12:15:00 PM 4.74 40.532 0.03 6.96 8.13 13.05
1/10/2023 12:30:00 PM 4.8 40.64 0.029 6.89 9.5 13.03
1/10/2023 12:45:00 PM 4.84 40.712 0.029 6.9 9.31 13.01
1/10/2023 1:00:00 PM 4.89 40.802 0.03 6.94 8.21 13
1/10/2023 1:15:00 PM 4.93 40.874 0.03 6.95 8.32 12.98
1/10/2023 1:30:00 PM 4.97 40.946 0.029 6.9 9.27 12.96
1/10/2023 1:45:00 PM 5.01 41.018 0.03 6.94 8.06 12.94
1/10/2023 2:00:00 PM 5.05 41.09 0.029 6.89 9.19 12.93
1/10/2023 2:15:00 PM 5.08 41.144 0.03 6.94 8.05 12.91
1/10/2023 2:30:00 PM 5.12 41.216 0.029 6.9 9.14 12.89
1/10/2023 2:45:00 PM 5.14 41.252 0.029 6.91 9.12 12.86
1/10/2023 3:00:00 PM 5.17 41.306 0.028 6.89 9.17 12.86
1/10/2023 3:15:00 PM 5.18 41.324 0.03 6.98 8.23 12.85
1/10/2023 3:30:00 PM 5.19 41.342 0.028 6.88 9.38 12.83
1/10/2023 3:45:00 PM 5.19 41.342 0.028 6.87 8.89 12.81
1/10/2023 4:00:00 PM 5.19 41.342 0.028 6.88 8.96 12.78
1/10/2023 4:15:00 PM 5.2 41.36 0.03 6.95 8.16 12.76
1/10/2023 4:30:00 PM 5.2 41.36 0.029 6.86 9.29 12.73
1/10/2023 4:45:00 PM 5.19 41.342 0.03 6.9 8.25 12.71
1/10/2023 5:00:00 PM 5.19 41.342 0.03 6.91 8.25 12.69
1/10/2023 5:15:00 PM 5.17 41.306 0.03 6.83 9.41 12.66
1/10/2023 5:30:00 PM 5.16 41.288 0.03 6.9 8.23 12.66
1/10/2023 5:45:00 PM 5.15 41.27 0.03 6.87 8.29 12.65
1/10/2023 6:00:00 PM 5.13 41.234 0.03 6.91 8.22 12.65
1/10/2023 6:15:00 PM 5.11 41.198 0.03 6.81 9.48 12.65
1/10/2023 6:30:00 PM 5.08 41.144 0.03 6.9 8.37 12.66
1/10/2023 6:45:00 PM 5.06 41.108 0.029 6.79 9.45 12.66
1/10/2023 7:00:00 PM 5.02 41.036 0.03 6.85 8.24 12.67
1/10/2023 7:15:00 PM 5 41 0.03 6.83 9.34 12.68
1/10/2023 7:30:00 PM 4.97 40.946 0.03 6.82 9.1 12.69
1/10/2023 7:45:00 PM 4.95 40.91 0.03 6.91 9.24 12.7
1/10/2023 8:00:00 PM 4.92 40.856 0.03 6.8 9.13 12.71
1/10/2023 8:15:00 PM 4.89 40.802 0.03 6.81 9 12.72
1/10/2023 8:30:00 PM 4.87 40.766 0.03 6.81 9.06 12.73
1/10/2023 8:45:00 PM 4.84 40.712 0.031 6.86 8.12 12.74
1/10/2023 9:00:00 PM 4.82 40.676 0.031 6.86 8 12.75
1/10/2023 9:15:00 PM 4.8 40.64 0.031 6.86 8.08 12.77
1/10/2023 9:30:00 PM 4.78 40.604 0.029 6.82 9.03 12.77
1/10/2023 9:45:00 PM 4.76 40.568 0.031 6.87 8.05 12.78
1/10/2023 10:00:00 PM 4.73 40.514 0.031 6.85 8.04 12.79
1/10/2023 10:15:00 PM 4.71 40.478 0.031 6.86 8.01 12.8
1/10/2023 10:30:00 PM 4.68 40.424 0.031 6.86 7.97 12.81
1/10/2023 10:45:00 PM 4.64 40.352 0.03 6.82 8.84 12.82
1/10/2023 11:00:00 PM 4.61 40.298 0.029 6.8 8.88 12.83
1/10/2023 11:15:00 PM 4.59 40.262 0.031 6.89 7.82 12.84
1/10/2023 11:30:00 PM 4.57 40.226 0.031 6.86 7.9 12.85
1/10/2023 11:45:00 PM 4.54 40.172 0.031 6.86 8.02 12.86
1/11/2023 12:00:00 AM 4.52 40.136 0.031 6.85 8.08 12.87
1/11/2023 12:15:00 AM 4.49 40.082 0.031 6.85 7.85 12.88
1/11/2023 12:30:00 AM 4.47 40.046 0.03 6.82 8.88 12.89
1/11/2023 12:45:00 AM 4.44 39.992 0.031 6.85 7.95 12.9
1/11/2023 1:00:00 AM 4.41 39.938 0.029 6.8 8.7 12.9
1/11/2023 1:15:00 AM 4.37 39.866 0.031 6.88 7.87 12.92
1/11/2023 1:30:00 AM 4.33 39.794 0.031 6.86 7.99 12.94
1/11/2023 1:45:00 AM 4.3 39.74 0.031 6.89 7.93 12.95
1/11/2023 2:00:00 AM 4.28 39.704 0.03 6.82 8.93 12.96
1/11/2023 2:15:00 AM 4.26 39.668 0.031 6.85 7.7 12.97
1/11/2023 2:30:00 AM 4.25 39.65 0.03 6.81 8.9 12.98
1/11/2023 2:45:00 AM 4.24 39.632 0.031 6.9 7.84 12.99
1/11/2023 3:00:00 AM 4.23 39.614 0.031 6.86 7.94 13
1/11/2023 3:15:00 AM 4.23 39.614 0.03 6.82 8.95 12.99
1/11/2023 3:30:00 AM 4.22 39.596 0.029 6.8 8.59 12.99
1/11/2023 3:45:00 AM 4.21 39.578 0.031 6.88 7.68 13
1/11/2023 4:00:00 AM 4.21 39.578 0.03 6.82 8.97 12.99
1/11/2023 4:15:00 AM 4.2 39.56 0.031 6.85 7.8 12.99
1/11/2023 4:30:00 AM 4.2 39.56 0.03 6.81 8.93 13
1/11/2023 4:45:00 AM 4.2 39.56 0.03 6.84 8.83 13
1/11/2023 5:00:00 AM 4.19 39.542 0.031 6.85 7.7 13
1/11/2023 5:15:00 AM 4.19 39.542 0.031 6.87 7.71 13
1/11/2023 5:30:00 AM 4.19 39.542 0.03 6.82 8.94 13
1/11/2023 5:45:00 AM 4.19 39.542 0.031 6.88 7.78 13
1/11/2023 6:00:00 AM 4.17 39.506 0.031 6.89 7.79 13
1/11/2023 6:15:00 AM 4.16 39.488 0.031 6.81 8.09 13.01
1/11/2023 6:30:00 AM 4.16 39.488 0.03 6.84 8.83 13.01
1/11/2023 6:45:00 AM 4.14 39.452 0.03 6.8 8.75 13.02
1/11/2023 7:00:00 AM 4.12 39.416 0.03 6.82 8.88 13.02
1/11/2023 7:15:00 AM 4.09 39.362 0.031 6.86 7.81 13.04
1/11/2023 7:30:00 AM 4.07 39.326 0.031 6.88 7.6 13.05
1/11/2023 7:45:00 AM 4.06 39.308 0.03 6.82 8.59 13.06
1/11/2023 8:00:00 AM 4.04 39.272 0.03 6.83 8.72 13.09
1/11/2023 8:15:00 AM 4.03 39.254 0.029 6.83 8.44 13.13
1/11/2023 8:30:00 AM 4.03 39.254 0.03 6.84 8.79 13.16
1/11/2023 8:45:00 AM 4.02 39.236 0.03 6.91 8.8 13.2
1/11/2023 9:00:00 AM 4.03 39.254 0.03 6.87 8.89 13.23
1/11/2023 9:15:00 AM 4.03 39.254 0.03 6.87 8.96 13.25
1/11/2023 9:30:00 AM 4.05 39.29 0.031 6.92 7.71 13.27
1/11/2023 9:45:00 AM 4.07 39.326 0.031 6.94 7.73 13.28
1/11/2023 10:00:00 AM 4.09 39.362 0.031 6.93 7.91 13.29
1/11/2023 10:15:00 AM 4.12 39.416 0.03 6.9 8.93 13.3
1/11/2023 10:30:00 AM 4.16 39.488 0.03 6.99 8.89 13.3
1/11/2023 10:45:00 AM 4.21 39.578 0.031 6.94 7.76 13.28
1/11/2023 11:00:00 AM 4.26 39.668 0.031 6.96 7.74 13.28
1/11/2023 11:15:00 AM 4.31 39.758 0.03 6.92 9.24 13.26
1/11/2023 11:30:00 AM 4.37 39.866 0.03 6.93 8.93 13.25
1/11/2023 11:45:00 AM 4.43 39.974 0.03 6.92 8.7 13.23
1/11/2023 12:00:00 PM 4.49 40.082 0.029 6.91 8.41 13.2
1/11/2023 12:15:00 PM 4.55 40.19 0.029 6.91 8.75 13.18
1/11/2023 12:30:00 PM 4.62 40.316 0.03 6.91 8.54 13.16
1/11/2023 12:45:00 PM 4.67 40.406 0.03 6.94 8.61 13.13
1/11/2023 1:00:00 PM 4.72 40.496 0.03 6.97 7.6 13.11
1/11/2023 1:15:00 PM 4.75 40.55 0.03 6.95 8.75 13.08
1/11/2023 1:30:00 PM 4.81 40.658 0.029 6.92 8.54 13.06
1/11/2023 1:45:00 PM 4.86 40.748 0.03 6.9 8.52 13.04
1/11/2023 2:00:00 PM 4.9 40.82 0.03 6.97 7.58 13.02
1/11/2023 2:15:00 PM 4.95 40.91 0.03 6.98 7.5 13
1/11/2023 2:30:00 PM 4.99 40.982 0.03 7.01 7.52 12.98
1/11/2023 2:45:00 PM 5.04 41.072 0.03 6.97 7.67 12.96
1/11/2023 3:00:00 PM 5.06 41.108 0.03 6.96 7.54 12.94
1/11/2023 3:15:00 PM 5.1 41.18 0.03 6.91 8.6 12.91
1/11/2023 3:30:00 PM 5.12 41.216 0.03 7.01 7.61 12.88
1/11/2023 3:45:00 PM 5.15 41.27 0.03 6.96 7.62 12.86
1/11/2023 4:00:00 PM 5.16 41.288 0.03 6.96 7.65 12.82
1/11/2023 4:15:00 PM 5.18 41.324 0.03 6.99 7.6 12.81
1/11/2023 4:30:00 PM 5.18 41.324 0.03 6.87 8.55 12.77
1/11/2023 4:45:00 PM 5.18 41.324 0.03 6.87 8.75 12.76
1/11/2023 5:00:00 PM 5.16 41.288 0.029 6.87 8.46 12.73
1/11/2023 5:15:00 PM 5.13 41.234 0.03 6.92 7.7 12.7
1/11/2023 5:30:00 PM 5.11 41.198 0.03 6.92 7.78 12.69
1/11/2023 5:45:00 PM 5.08 41.144 0.03 6.85 8.69 12.68
1/11/2023 6:00:00 PM 5.04 41.072 0.031 6.94 7.77 12.68
1/11/2023 6:15:00 PM 5 41 0.03 6.94 8.7 12.69
1/11/2023 6:30:00 PM 4.97 40.946 0.031 6.94 7.7 12.69
1/11/2023 6:45:00 PM 4.93 40.874 0.031 6.88 7.85 12.71
1/11/2023 7:00:00 PM 4.9 40.82 0.031 6.89 7.84 12.71
1/11/2023 7:15:00 PM 4.88 40.784 0.029 6.83 8.34 12.73
1/11/2023 7:30:00 PM 4.84 40.712 0.029 6.83 8.65 12.75
1/11/2023 7:45:00 PM 4.82 40.676 0.03 6.94 8.69 12.75
1/11/2023 8:00:00 PM 4.79 40.622 0.03 6.93 8.73 12.77
1/11/2023 8:15:00 PM 4.77 40.586 0.031 6.93 7.77 12.78
1/11/2023 8:30:00 PM 4.74 40.532 0.03 6.84 8.64 12.78
1/11/2023 8:45:00 PM 4.72 40.496 0.03 6.84 8.73 12.79
1/11/2023 9:00:00 PM 4.7 40.46 0.03 6.86 8.67 12.8
1/11/2023 9:15:00 PM 4.68 40.424 0.03 6.85 8.63 12.81
1/11/2023 9:30:00 PM 4.65 40.37 0.03 6.85 8.99 12.82
1/11/2023 9:45:00 PM 4.62 40.316 0.03 6.86 8.99 12.82
1/11/2023 10:00:00 PM 4.6 40.28 0.03 6.91 8.65 12.83
1/11/2023 10:15:00 PM 4.57 40.226 0.031 6.9 7.7 12.84
1/11/2023 10:30:00 PM 4.54 40.172 0.031 6.83 8.75 12.85
1/11/2023 10:45:00 PM 4.51 40.118 0.031 6.89 7.63 12.87
1/11/2023 11:00:00 PM 4.49 40.082 0.03 6.88 8.84 12.87
1/11/2023 11:15:00 PM 4.48 40.064 0.03 6.87 8.76 12.87
1/11/2023 11:30:00 PM 4.46 40.028 0.031 6.89 7.73 12.88
1/11/2023 11:45:00 PM 4.46 40.028 0.031 6.89 7.88 12.89
1/12/2023 12:00:00 AM 4.45 40.01 0.031 6.89 7.6 12.89
1/12/2023 12:15:00 AM 4.45 40.01 0.031 6.89 8.82 12.88
1/12/2023 12:30:00 AM 4.45 40.01 0.03 6.84 8.74 12.89
1/12/2023 12:45:00 AM 4.44 39.992 0.031 6.88 7.62 12.88
1/12/2023 1:00:00 AM 4.44 39.992 0.031 6.94 7.64 12.88
1/12/2023 1:15:00 AM 4.44 39.992 0.031 6.92 7.61 12.88
1/12/2023 1:30:00 AM 4.44 39.992 0.031 6.93 7.75 12.88
1/12/2023 1:45:00 AM 4.44 39.992 0.031 6.82 8.8 12.88
1/12/2023 2:00:00 AM 4.45 40.01 0.031 6.88 7.74 12.88
1/12/2023 2:15:00 AM 4.46 40.028 0.031 6.86 8.65 12.87
1/12/2023 2:30:00 AM 4.43 39.974 0.031 6.84 8.67 12.87
1/12/2023 2:45:00 AM 4.43 39.974 0.031 6.84 8.55 12.87
1/12/2023 3:00:00 AM 4.42 39.956 0.031 6.86 8.73 12.87
1/12/2023 3:15:00 AM 4.44 39.992 0.031 6.89 7.81 12.87
1/12/2023 3:30:00 AM 4.45 40.01 0.031 6.88 7.69 12.87
1/12/2023 3:45:00 AM 4.46 40.028 0.031 6.93 7.71 12.87
1/12/2023 4:00:00 AM 4.46 40.028 0.031 6.81 8.5 12.86
1/12/2023 4:15:00 AM 4.47 40.046 0.031 6.88 7.74 12.86
1/12/2023 4:30:00 AM 4.47 40.046 0.03 6.82 8.57 12.86
1/12/2023 4:45:00 AM 4.48 40.064 0.03 6.83 8.28 12.85
1/12/2023 5:00:00 AM 4.48 40.064 0.03 6.82 8.3 12.85
1/12/2023 5:15:00 AM 4.49 40.082 0.03 6.83 8.5 12.85
1/12/2023 5:30:00 AM 4.49 40.082 0.03 6.83 8.45 12.84
1/12/2023 5:45:00 AM 4.5 40.1 0.031 6.9 7.62 12.85
1/12/2023 6:00:00 AM 4.51 40.118 0.031 6.89 8.56 12.85
1/12/2023 6:15:00 AM 4.51 40.118 0.03 6.87 8.27 12.84
1/12/2023 6:30:00 AM 4.52 40.136 0.03 6.82 8.54 12.84
1/12/2023 6:45:00 AM 4.53 40.154 0.03 6.82 8.49 12.84
1/12/2023 7:00:00 AM 4.54 40.172 0.03 6.88 8.66 12.83
1/12/2023 7:15:00 AM 4.55 40.19 0.031 6.83 8.53 12.83
1/12/2023 7:30:00 AM 4.56 40.208 0.031 6.84 8.48 12.83
1/12/2023 7:45:00 AM 4.57 40.226 0.031 6.88 7.68 12.82
1/12/2023 8:00:00 AM 4.58 40.244 0.031 6.85 8.62 12.82
1/12/2023 8:15:00 AM 4.59 40.262 0.031 6.91 7.78 12.83
1/12/2023 8:30:00 AM 4.6 40.28 0.031 6.89 7.8 12.83
1/12/2023 8:45:00 AM 4.62 40.316 0.031 6.93 7.77 12.84
1/12/2023 9:00:00 AM 4.63 40.334 0.03 6.88 8.65 12.84
1/12/2023 9:15:00 AM 4.64 40.352 0.031 6.95 7.49 12.85
1/12/2023 9:30:00 AM 4.66 40.388 0.03 6.86 8.53 12.85
1/12/2023 9:45:00 AM 4.67 40.406 0.031 6.93 7.69 12.85
1/12/2023 10:00:00 AM 4.69 40.442 0.031 6.97 7.63 12.87
1/12/2023 10:15:00 AM 4.71 40.478 0.03 6.92 8.67 12.88
1/12/2023 10:30:00 AM 4.73 40.514 0.029 6.98 8.48 12.89
1/12/2023 10:45:00 AM 4.75 40.55 0.03 7 8.58 12.89
1/12/2023 11:00:00 AM 4.77 40.586 0.031 6.95 7.64 12.88
1/12/2023 11:15:00 AM 4.79 40.622 0.03 6.96 8.41 12.89
1/12/2023 11:30:00 AM 4.81 40.658 0.03 6.91 8.58 12.89
1/12/2023 11:45:00 AM 4.84 40.712 0.031 6.95 7.65 12.89
1/12/2023 12:00:00 PM 4.86 40.748 0.031 7.01 7.67 12.87
1/12/2023 12:15:00 PM 4.88 40.784 0.03 7.01 8.54 12.86
1/12/2023 12:30:00 PM 4.91 40.838 0.03 6.99 8.64 12.87
1/12/2023 12:45:00 PM 4.94 40.892 0.03 6.92 8.54 12.87
1/12/2023 1:00:00 PM 4.97 40.946 0.031 6.97 7.68 12.86
1/12/2023 1:15:00 PM 4.99 40.982 0.03 6.94 8.7 12.83
1/12/2023 1:30:00 PM 5.01 41.018 0.03 6.93 8.56 12.81
1/12/2023 1:45:00 PM 5.03 41.054 0.031 6.97 7.68 12.8
1/12/2023 2:00:00 PM 5.04 41.072 0.03 6.92 8.61 12.76
1/12/2023 2:15:00 PM 5.05 41.09 0.031 6.95 7.75 12.73
1/12/2023 2:30:00 PM 5.06 41.108 0.029 6.9 8.25 12.71
1/12/2023 2:45:00 PM 5.07 41.126 0.029 6.87 8.44 12.69
1/12/2023 3:00:00 PM 5.07 41.126 0.031 6.98 8.05 12.68
1/12/2023 3:15:00 PM 5.09 41.162 0.03 6.98 8.85 12.67
1/12/2023 3:30:00 PM 5.1 41.18 0.03 6.88 8.88 12.66
1/12/2023 3:45:00 PM 5.11 41.198 0.03 6.97 8.64 12.63
1/12/2023 4:00:00 PM 5.12 41.216 0.031 6.91 7.88 12.62
1/12/2023 4:15:00 PM 5.13 41.234 0.031 6.96 7.85 12.59
1/12/2023 4:30:00 PM 5.13 41.234 0.031 6.91 7.97 12.58
1/12/2023 4:45:00 PM 5.14 41.252 0.031 6.9 7.93 12.56
1/12/2023 5:00:00 PM 5.15 41.27 0.031 6.9 7.95 12.54
1/12/2023 5:15:00 PM 5.15 41.27 0.03 6.84 9.01 12.53
1/12/2023 5:30:00 PM 5.15 41.27 0.031 6.89 8.01 12.52
1/12/2023 5:45:00 PM 5.16 41.288 0.031 6.92 8.11 12.52
1/12/2023 6:00:00 PM 5.16 41.288 0.031 6.88 8.07 12.51
1/12/2023 6:15:00 PM 5.17 41.306 0.031 6.88 8.11 12.5
1/12/2023 6:30:00 PM 5.17 41.306 0.03 6.85 9 12.5
1/12/2023 6:45:00 PM 5.18 41.324 0.031 6.91 8.4 12.5
1/12/2023 7:00:00 PM 5.18 41.324 0.031 6.88 8.23 12.49
1/12/2023 7:15:00 PM 5.18 41.324 0.031 6.88 8.23 12.49
1/12/2023 7:30:00 PM 5.19 41.342 0.031 6.88 8.19 12.49
1/12/2023 7:45:00 PM 5.19 41.342 0.031 6.88 8.24 12.49
1/12/2023 8:00:00 PM 5.2 41.36 0.031 6.91 8.28 12.48
1/12/2023 8:15:00 PM 5.21 41.378 0.031 6.87 8.29 12.48
1/12/2023 8:30:00 PM 5.22 41.396 0.03 6.88 8.92 12.47
1/12/2023 8:45:00 PM 5.22 41.396 0.031 6.91 8.31 12.46
1/12/2023 9:00:00 PM 5.23 41.414 0.031 6.86 8.19 12.46
1/12/2023 9:15:00 PM 5.24 41.432 0.031 6.88 8.16 12.45
1/12/2023 9:30:00 PM 5.24 41.432 0.031 6.91 8.29 12.45
1/12/2023 9:45:00 PM 5.25 41.45 0.031 6.87 8.21 12.44
1/12/2023 10:00:00 PM 5.26 41.468 0.031 6.9 8.28 12.44
1/12/2023 10:15:00 PM 5.27 41.486 0.031 6.88 8.22 12.43
1/12/2023 10:30:00 PM 5.28 41.504 0.031 6.9 8.3 12.43
1/12/2023 10:45:00 PM 5.29 41.522 0.031 6.89 8.13 12.41
1/12/2023 11:00:00 PM 5.3 41.54 0.031 6.92 8.12 12.41
1/12/2023 11:15:00 PM 5.32 41.576 0.031 6.87 8.59 12.41
1/12/2023 11:30:00 PM 5.33 41.594 0.031 6.89 8.04 12.4
1/12/2023 11:45:00 PM 5.34 41.612 0.031 6.89 8.19 12.4
1/13/2023 12:00:00 AM 5.35 41.63 0.03 6.82 9.13 12.38
1/13/2023 12:15:00 AM 5.36 41.648 0.031 6.87 8.12 12.38
1/13/2023 12:30:00 AM 5.38 41.684 0.031 6.89 8.12 12.37
1/13/2023 12:45:00 AM 5.39 41.702 0.031 6.87 8.1 12.36
1/13/2023 1:00:00 AM 5.4 41.72 0.031 6.88 8.2 12.35
1/13/2023 1:15:00 AM 5.41 41.738 0.031 6.89 8.19 12.35
1/13/2023 1:30:00 AM 5.42 41.756 0.031 6.9 8.13 12.34
1/13/2023 1:45:00 AM 5.43 41.774 0.03 6.9 8.99 12.33
1/13/2023 2:00:00 AM 5.44 41.792 0.031 6.87 8.16 12.32
1/13/2023 2:15:00 AM 5.45 41.81 0.031 6.88 8.24 12.32
1/13/2023 2:30:00 AM 5.46 41.828 0.031 6.85 8.23 12.32
1/13/2023 2:45:00 AM 5.47 41.846 0.031 6.85 8.33 12.32
1/13/2023 3:00:00 AM 5.48 41.864 0.031 6.85 8.29 12.31
1/13/2023 3:15:00 AM 5.49 41.882 0.03 6.8 9.24 12.31
1/13/2023 3:30:00 AM 5.5 41.9 0.031 6.84 8.42 12.31
1/13/2023 3:45:00 AM 5.51 41.918 0.031 6.85 8.34 12.3
1/13/2023 4:00:00 AM 5.52 41.936 0.031 6.87 8.59 12.3
1/13/2023 4:15:00 AM 5.53 41.954 0.031 6.86 8.46 12.29
1/13/2023 4:30:00 AM 5.54 41.972 0.032 6.83 8.53 12.28
1/13/2023 4:45:00 AM 5.56 42.008 0.032 6.84 8.54 12.28
1/13/2023 5:00:00 AM 5.56 42.008 0.032 6.84 8.63 12.28
1/13/2023 5:15:00 AM 5.57 42.026 0.032 6.86 8.62 12.29
1/13/2023 5:30:00 AM 5.58 42.044 0.032 6.88 8.78 12.29
1/13/2023 5:45:00 AM 5.59 42.062 0.032 6.89 8.97 12.29
1/13/2023 6:00:00 AM 5.59 42.062 0.032 6.84 8.77 12.3
1/13/2023 6:15:00 AM 5.59 42.062 0.032 6.9 8.42 12.3
1/13/2023 6:30:00 AM 5.6 42.08 0.032 6.89 8.79 12.3
1/13/2023 6:45:00 AM 5.6 42.08 0.032 6.84 9 12.3
1/13/2023 7:00:00 AM 5.59 42.062 0.032 6.89 9.01 12.31
1/13/2023 7:15:00 AM 5.58 42.044 0.031 6.87 8.88 12.32
1/13/2023 7:30:00 AM 5.57 42.026 0.031 6.85 8.9 12.33
1/13/2023 7:45:00 AM 5.56 42.008 0.031 6.8 9.66 12.34
1/13/2023 8:00:00 AM 5.54 41.972 0.031 6.86 8.95 12.35
1/13/2023 8:15:00 AM 5.52 41.936 0.031 6.84 10.07 12.38
1/13/2023 8:30:00 AM 5.52 41.936 0.031 6.87 8.67 12.41
1/13/2023 8:45:00 AM 5.52 41.936 0.031 6.87 8.51 12.46
1/13/2023 9:00:00 AM 5.52 41.936 0.031 6.88 8.45 12.48
1/13/2023 9:15:00 AM 5.5 41.9 0.031 6.91 8.41 12.5
1/13/2023 9:30:00 AM 5.5 41.9 0.031 6.89 8.52 12.53
1/13/2023 9:45:00 AM 5.48 41.864 0.031 6.9 8.52 12.54
1/13/2023 10:00:00 AM 5.47 41.846 0.031 6.9 8.07 12.55
1/13/2023 10:15:00 AM 5.45 41.81 0.031 6.93 8.41 12.56
1/13/2023 10:30:00 AM 5.44 41.792 0.031 6.93 7.86 12.58
1/13/2023 10:45:00 AM 5.42 41.756 0.031 6.95 8.1 12.6
1/13/2023 11:00:00 AM 5.41 41.738 0.031 6.91 7.98 12.61
1/13/2023 11:15:00 AM 5.41 41.738 0.031 6.97 7.85 12.64
1/13/2023 11:30:00 AM 5.4 41.72 0.03 6.97 8.62 12.64
1/13/2023 11:45:00 AM 5.41 41.738 0.03 6.92 8.69 12.64
1/13/2023 12:00:00 PM 5.4 41.72 0.031 6.97 7.62 12.65
1/13/2023 12:15:00 PM 5.39 41.702 0.031 6.97 8.3 12.65
1/13/2023 12:30:00 PM 5.37 41.666 0.031 6.95 7.58 12.65
1/13/2023 12:45:00 PM 5.35 41.63 0.031 6.97 7.5 12.66
1/13/2023 1:00:00 PM 5.33 41.594 0.031 6.96 7.41 12.65
1/13/2023 1:15:00 PM 5.31 41.558 0.031 6.94 7.57 12.66
1/13/2023 1:30:00 PM 5.29 41.522 0.031 6.93 7.5 12.67
1/13/2023 1:45:00 PM 5.27 41.486 0.031 6.96 7.4 12.68
1/13/2023 2:00:00 PM 5.24 41.432 0.03 6.88 8.5 12.67
1/13/2023 2:15:00 PM 5.21 41.378 0.031 6.93 7.42 12.67
1/13/2023 2:30:00 PM 5.19 41.342 0.031 6.92 7.55 12.67
1/13/2023 2:45:00 PM 5.17 41.306 0.031 6.95 7.58 12.66
1/13/2023 3:00:00 PM 5.13 41.234 0.031 6.94 7.47 12.67
1/13/2023 3:15:00 PM 5.1 41.18 0.031 6.97 7.61 12.68
1/13/2023 3:30:00 PM 5.09 41.162 0.03 6.89 8.4 12.67
1/13/2023 3:45:00 PM 5.06 41.108 0.031 6.95 7.54 12.67
1/13/2023 4:00:00 PM 5.04 41.072 0.03 6.87 8.45 12.66
1/13/2023 4:15:00 PM 5.01 41.018 0.031 6.91 7.56 12.65
1/13/2023 4:30:00 PM 4.99 40.982 0.03 6.89 8.34 12.65
1/13/2023 4:45:00 PM 4.95 40.91 0.03 6.87 8.43 12.64
1/13/2023 5:00:00 PM 4.91 40.838 0.031 6.84 8.43 12.65
1/13/2023 5:15:00 PM 4.87 40.766 0.031 6.9 7.57 12.66
1/13/2023 5:30:00 PM 4.83 40.694 0.031 6.86 8.43 12.66
1/13/2023 5:45:00 PM 4.8 40.64 0.031 6.9 7.66 12.68
1/13/2023 6:00:00 PM 4.76 40.568 0.031 6.9 7.7 12.69
1/13/2023 6:15:00 PM 4.72 40.496 0.031 6.83 8.65 12.7
1/13/2023 6:30:00 PM 4.69 40.442 0.03 6.84 8.17 12.72
1/13/2023 6:45:00 PM 4.65 40.37 0.03 6.84 8.65 12.73
1/13/2023 7:00:00 PM 4.62 40.316 0.031 6.88 7.66 12.74
1/13/2023 7:15:00 PM 4.58 40.244 0.03 6.84 8.52 12.75
1/13/2023 7:30:00 PM 4.55 40.19 0.031 6.87 7.66 12.77
1/13/2023 7:45:00 PM 4.51 40.118 0.03 6.84 8.26 12.78
1/13/2023 8:00:00 PM 4.47 40.046 0.031 6.88 7.53 12.8
1/13/2023 8:15:00 PM 4.43 39.974 0.031 6.91 7.54 12.81
1/13/2023 8:30:00 PM 4.4 39.92 0.031 6.83 8.66 12.82
1/13/2023 8:45:00 PM 4.36 39.848 0.031 6.91 7.53 12.84
1/13/2023 9:00:00 PM 4.33 39.794 0.03 6.83 8.14 12.85
1/13/2023 9:15:00 PM 4.3 39.74 0.03 6.85 8.2 12.88
1/13/2023 9:30:00 PM 4.25 39.65 0.031 6.86 8.29 12.88
1/13/2023 9:45:00 PM 4.22 39.596 0.03 6.83 8.28 12.9
1/13/2023 10:00:00 PM 4.19 39.542 0.03 6.83 8.22 12.91
1/13/2023 10:15:00 PM 4.16 39.488 0.031 6.93 7.6 12.93
1/13/2023 10:30:00 PM 4.14 39.452 0.031 6.9 8.54 12.93
1/13/2023 10:45:00 PM 4.1 39.38 0.032 6.88 7.59 12.95
1/13/2023 11:00:00 PM 4.07 39.326 0.032 6.9 7.48 12.95
1/13/2023 11:15:00 PM 4.04 39.272 0.031 6.85 8.43 12.97
1/13/2023 11:30:00 PM 4.01 39.218 0.031 6.84 8.55 12.97
1/13/2023 11:45:00 PM 3.98 39.164 0.031 6.86 8.41 12.99
1/14/2023 12:00:00 AM 3.94 39.092 0.031 6.83 8.54 12.99
1/14/2023 12:15:00 AM 3.91 39.038 0.032 6.9 7.51 13.01
1/14/2023 12:30:00 AM 3.87 38.966 0.032 6.88 7.58 13.02
1/14/2023 12:45:00 AM 3.85 38.93 0.03 6.83 8.46 13.03
1/14/2023 1:00:00 AM 3.82 38.876 0.031 6.84 8.35 13.05
1/14/2023 1:15:00 AM 3.79 38.822 0.032 6.91 7.59 13.06
1/14/2023 1:30:00 AM 3.76 38.768 0.032 6.89 7.65 13.07
1/14/2023 1:45:00 AM 3.74 38.732 0.031 6.87 8.41 13.07
1/14/2023 2:00:00 AM 3.71 38.678 0.032 6.88 7.62 13.09
1/14/2023 2:15:00 AM 3.69 38.642 0.03 6.83 8.31 13.1
1/14/2023 2:30:00 AM 3.67 38.606 0.03 6.83 8.14 13.11
1/14/2023 2:45:00 AM 3.64 38.552 0.032 6.88 7.56 13.12
1/14/2023 3:00:00 AM 3.61 38.498 0.032 6.88 7.45 13.14
1/14/2023 3:15:00 AM 3.58 38.444 0.032 6.91 7.52 13.15
1/14/2023 3:30:00 AM 3.56 38.408 0.031 6.86 8.49 13.15
1/14/2023 3:45:00 AM 3.53 38.354 0.031 6.87 8.49 13.17
1/14/2023 4:00:00 AM 3.51 38.318 0.032 6.87 7.48 13.18
1/14/2023 4:15:00 AM 3.49 38.282 0.032 6.88 7.52 13.19
1/14/2023 4:30:00 AM 3.47 38.246 0.032 6.93 7.44 13.19
1/14/2023 4:45:00 AM 3.44 38.192 0.032 6.9 7.51 13.2
1/14/2023 5:00:00 AM 3.42 38.156 0.032 6.91 7.53 13.22
1/14/2023 5:15:00 AM 3.4 38.12 0.032 6.92 7.52 13.23
1/14/2023 5:30:00 AM 3.38 38.084 0.032 6.88 7.48 13.24
1/14/2023 5:45:00 AM 3.36 38.048 0.032 6.88 7.47 13.24
1/14/2023 6:00:00 AM 3.33 37.994 0.032 6.88 7.49 13.25
1/14/2023 6:15:00 AM 3.32 37.976 0.031 6.85 8.42 13.25
1/14/2023 6:30:00 AM 3.31 37.958 0.032 6.92 7.44 13.27
1/14/2023 6:45:00 AM 3.29 37.922 0.032 6.92 7.44 13.27
1/14/2023 7:00:00 AM 3.27 37.886 0.031 6.82 8.57 13.29
1/14/2023 7:15:00 AM 3.25 37.85 0.032 6.93 7.44 13.29
1/14/2023 7:30:00 AM 3.23 37.814 0.032 6.9 7.5 13.3
1/14/2023 7:45:00 AM 3.21 37.778 0.031 6.89 8.38 13.31
1/14/2023 8:00:00 AM 3.19 37.742 0.032 6.91 7.33 13.33
1/14/2023 8:15:00 AM 3.18 37.724 0.032 6.9 7.39 13.35
1/14/2023 8:30:00 AM 3.17 37.706 0.031 6.91 7.47 13.38
1/14/2023 8:45:00 AM 3.16 37.688 0.031 6.87 8.36 13.41
1/14/2023 9:00:00 AM 3.14 37.652 0.031 6.86 8.34 13.43
1/14/2023 9:15:00 AM 3.13 37.634 0.03 6.86 8.21 13.46
1/14/2023 9:30:00 AM 3.12 37.616 0.031 6.91 7.39 13.49
1/14/2023 9:45:00 AM 3.12 37.616 0.031 6.93 7.27 13.52
1/14/2023 10:00:00 AM 3.13 37.634 0.031 6.88 8.36 13.54
1/14/2023 10:15:00 AM 3.14 37.652 0.031 6.97 7.29 13.55
1/14/2023 10:30:00 AM 3.16 37.688 0.031 6.9 8.12 13.56
1/14/2023 10:45:00 AM 3.16 37.688 0.031 6.95 7.44 13.57
1/14/2023 11:00:00 AM 3.17 37.706 0.031 6.95 7.32 13.58
1/14/2023 11:15:00 AM 3.18 37.724 0.031 6.98 7.27 13.59
1/14/2023 11:30:00 AM 3.2 37.76 0.03 6.91 8.31 13.58
1/14/2023 11:45:00 AM 3.22 37.796 0.03 6.9 8.27 13.58
1/14/2023 12:00:00 PM 3.23 37.814 0.03 6.91 8.44 13.58
1/14/2023 12:15:00 PM 3.25 37.85 0.031 7.02 7.44 13.57
1/14/2023 12:30:00 PM 3.28 37.904 0.031 6.97 7.44 13.57
1/14/2023 12:45:00 PM 3.29 37.922 0.031 6.97 7.4 13.56
1/14/2023 1:00:00 PM 3.3 37.94 0.03 6.92 8.32 13.56
1/14/2023 1:15:00 PM 3.32 37.976 0.031 6.96 7.42 13.55
1/14/2023 1:30:00 PM 3.32 37.976 0.031 6.98 7.43 13.54
1/14/2023 1:45:00 PM 3.32 37.976 0.031 6.96 7.44 13.54
1/14/2023 2:00:00 PM 3.33 37.994 0.031 6.99 7.4 13.53
1/14/2023 2:15:00 PM 3.34 38.012 0.031 7.01 7.39 13.53
1/14/2023 2:30:00 PM 3.32 37.976 0.031 6.95 7.4 13.53
1/14/2023 2:45:00 PM 3.34 38.012 0.031 6.97 7.46 13.52
1/14/2023 3:00:00 PM 3.35 38.03 0.031 7.01 7.4 13.52
1/14/2023 3:15:00 PM 3.37 38.066 0.031 6.97 7.45 13.49
1/14/2023 3:30:00 PM 3.37 38.066 0.03 6.9 8.37 13.49
1/14/2023 3:45:00 PM 3.38 38.084 0.031 7.01 7.43 13.48
1/14/2023 4:00:00 PM 3.38 38.084 0.031 6.97 7.45 13.47
1/14/2023 4:15:00 PM 3.37 38.066 0.03 6.9 8.29 13.45
1/14/2023 4:30:00 PM 3.37 38.066 0.031 6.93 7.57 13.43
1/14/2023 4:45:00 PM 3.36 38.048 0.031 6.95 7.42 13.4
1/14/2023 5:00:00 PM 3.34 38.012 0.031 6.95 7.46 13.39
1/14/2023 5:15:00 PM 3.32 37.976 0.031 6.94 7.49 13.36
1/14/2023 5:30:00 PM 3.3 37.94 0.031 6.93 7.45 13.36
1/14/2023 5:45:00 PM 3.28 37.904 0.03 6.87 8.41 13.35
1/14/2023 6:00:00 PM 3.26 37.868 0.031 6.93 7.56 13.34
1/14/2023 6:15:00 PM 3.25 37.85 0.031 6.89 7.46 13.35
1/14/2023 6:30:00 PM 3.22 37.796 0.031 6.93 7.59 13.36
1/14/2023 6:45:00 PM 3.19 37.742 0.031 6.92 7.51 13.37
1/14/2023 7:00:00 PM 3.17 37.706 0.031 6.83 8.27 13.38
1/14/2023 7:15:00 PM 3.14 37.652 0.031 6.88 7.58 13.4
1/14/2023 7:30:00 PM 3.12 37.616 0.031 6.93 7.53 13.41
1/14/2023 7:45:00 PM 3.09 37.562 0.03 6.85 8.42 13.42
1/14/2023 8:00:00 PM 3.07 37.526 0.031 6.84 8.42 13.42
1/14/2023 8:15:00 PM 3.04 37.472 0.031 6.93 7.46 13.44
1/14/2023 8:30:00 PM 3.02 37.436 0.031 6.93 7.43 13.45
1/14/2023 8:45:00 PM 2.99 37.382 0.031 6.88 7.49 13.46
1/14/2023 9:00:00 PM 2.96 37.328 0.031 6.9 7.54 13.47
1/14/2023 9:15:00 PM 2.94 37.292 0.031 6.86 8.39 13.47
1/14/2023 9:30:00 PM 2.93 37.274 0.03 6.86 8.17 13.49
1/14/2023 9:45:00 PM 2.92 37.256 0.031 6.85 8.4 13.49
1/14/2023 10:00:00 PM 2.9 37.22 0.032 6.92 7.97 13.5
1/14/2023 10:15:00 PM 2.89 37.202 0.032 6.93 7.63 13.5
1/14/2023 10:30:00 PM 2.87 37.166 0.032 6.93 7.54 13.51
1/14/2023 10:45:00 PM 2.87 37.166 0.031 6.87 8.45 13.51
1/14/2023 11:00:00 PM 2.84 37.112 0.03 6.83 8.43 13.52
1/14/2023 11:15:00 PM 2.83 37.094 0.032 6.95 7.64 13.52
1/14/2023 11:30:00 PM 2.82 37.076 0.032 6.89 7.6 13.53
1/14/2023 11:45:00 PM 2.8 37.04 0.031 6.88 8.25 13.53
1/15/2023 12:00:00 AM 2.77 36.986 0.032 6.88 7.65 13.54
1/15/2023 12:15:00 AM 2.76 36.968 0.031 6.86 8.49 13.54
1/15/2023 12:30:00 AM 2.74 36.932 0.031 6.82 8.39 13.55
1/15/2023 12:45:00 AM 2.73 36.914 0.03 6.84 8.17 13.56
1/15/2023 1:00:00 AM 2.72 36.896 0.032 6.88 7.58 13.57
1/15/2023 1:15:00 AM 2.71 36.878 0.032 6.93 7.78 13.57
1/15/2023 1:30:00 AM 2.71 36.878 0.032 6.89 7.73 13.58
1/15/2023 1:45:00 AM 2.7 36.86 0.031 6.84 8.43 13.59
1/15/2023 2:00:00 AM 2.7 36.86 0.031 6.84 8.28 13.6
1/15/2023 2:15:00 AM 2.68 36.824 0.032 6.93 7.65 13.6
1/15/2023 2:30:00 AM 2.68 36.824 0.031 6.83 8.44 13.61
1/15/2023 2:45:00 AM 2.67 36.806 0.031 6.93 8.49 13.61
1/15/2023 3:00:00 AM 2.66 36.788 0.032 6.87 7.63 13.62
1/15/2023 3:15:00 AM 2.65 36.77 0.031 6.86 8.5 13.62
1/15/2023 3:30:00 AM 2.65 36.77 0.031 6.86 8.42 13.62
1/15/2023 3:45:00 AM 2.63 36.734 0.032 6.93 7.67 13.63
1/15/2023 4:00:00 AM 2.63 36.734 0.03 6.81 8.73 13.63
1/15/2023 4:15:00 AM 2.62 36.716 0.03 6.82 8.26 13.64
1/15/2023 4:30:00 AM 2.6 36.68 0.032 6.93 7.69 13.64
1/15/2023 4:45:00 AM 2.58 36.644 0.032 6.89 7.77 13.65
1/15/2023 5:00:00 AM 2.58 36.644 0.031 6.89 8.52 13.66
1/15/2023 5:15:00 AM 2.57 36.626 0.032 6.89 7.75 13.66
1/15/2023 5:30:00 AM 2.56 36.608 0.031 6.88 8.5 13.66
1/15/2023 5:45:00 AM 2.54 36.572 0.031 6.84 8.43 13.67
1/15/2023 6:00:00 AM 2.52 36.536 0.031 6.84 8.51 13.68
1/15/2023 6:15:00 AM 2.51 36.518 0.031 6.84 8.44 13.69
1/15/2023 6:30:00 AM 2.48 36.464 0.031 6.92 8.66 13.68
1/15/2023 6:45:00 AM 2.47 36.446 0.031 6.85 8.65 13.7
1/15/2023 7:00:00 AM 2.46 36.428 0.032 6.87 7.8 13.7
1/15/2023 7:15:00 AM 2.45 36.41 0.032 6.88 7.71 13.71
1/15/2023 7:30:00 AM 2.44 36.392 0.032 6.89 7.7 13.73
1/15/2023 7:45:00 AM 2.44 36.392 0.031 6.9 8.44 13.73
1/15/2023 8:00:00 AM 2.43 36.374 0.031 6.92 8.38 13.75
1/15/2023 8:15:00 AM 2.43 36.374 0.031 6.89 7.72 13.78
1/15/2023 8:30:00 AM 2.44 36.392 0.031 6.91 7.76 13.82
1/15/2023 8:45:00 AM 2.44 36.392 0.031 6.93 7.77 13.84
1/15/2023 9:00:00 AM 2.43 36.374 0.031 6.97 7.59 13.87
1/15/2023 9:15:00 AM 2.42 36.356 0.031 6.96 8.41 13.89
1/15/2023 9:30:00 AM 2.41 36.338 0.031 6.88 8.38 13.89
1/15/2023 9:45:00 AM 2.4 36.32 0.03 6.88 8.15 13.89
1/15/2023 10:00:00 AM 2.39 36.302 0.031 6.88 8.37 13.9
1/15/2023 10:15:00 AM 2.39 36.302 0.031 6.88 8.44 13.92
1/15/2023 10:30:00 AM 2.39 36.302 0.031 6.98 8.17 13.92
1/15/2023 10:45:00 AM 2.42 36.356 0.031 6.99 7.57 13.93
1/15/2023 11:00:00 AM 2.46 36.428 0.03 6.9 8.36 13.92
1/15/2023 11:15:00 AM 2.52 36.536 0.031 6.94 7.49 13.92
1/15/2023 11:30:00 AM 2.59 36.662 0.03 6.9 8.46 13.91
1/15/2023 11:45:00 AM 2.68 36.824 0.031 6.94 7.57 13.89
1/15/2023 12:00:00 PM 2.78 37.004 0.031 6.95 7.92 13.86
1/15/2023 12:15:00 PM 2.87 37.166 0.031 6.97 7.56 13.83
1/15/2023 12:30:00 PM 2.94 37.292 0.03 6.91 8.2 13.81
1/15/2023 12:45:00 PM 2.99 37.382 0.031 6.98 7.59 13.79
1/15/2023 1:00:00 PM 3.05 37.49 0.031 6.96 7.57 13.76
1/15/2023 1:15:00 PM 3.09 37.562 0.031 6.95 7.65 13.73
1/15/2023 1:30:00 PM 3.11 37.598 0.031 6.96 7.38 13.7
1/15/2023 1:45:00 PM 3.16 37.688 0.031 6.97 7.59 13.68
1/15/2023 2:00:00 PM 3.21 37.778 0.031 6.94 7.55 13.65
1/15/2023 2:15:00 PM 3.26 37.868 0.031 6.95 7.67 13.61
1/15/2023 2:30:00 PM 3.31 37.958 0.031 6.95 7.47 13.59
1/15/2023 2:45:00 PM 3.35 38.03 0.031 6.95 7.46 13.56
1/15/2023 3:00:00 PM 3.36 38.048 0.031 6.95 7.46 13.54
1/15/2023 3:15:00 PM 3.38 38.084 0.03 6.9 8.22 13.5
1/15/2023 3:30:00 PM 3.4 38.12 0.029 6.91 8.11 13.48
1/15/2023 3:45:00 PM 3.42 38.156 0.029 6.88 8.27 13.45
1/15/2023 4:00:00 PM 3.44 38.192 0.031 6.95 7.44 13.43
1/15/2023 4:15:00 PM 3.46 38.228 0.03 6.99 8.34 13.41
1/15/2023 4:30:00 PM 3.47 38.246 0.031 6.91 7.46 13.4
1/15/2023 4:45:00 PM 3.47 38.246 0.03 6.9 8.22 13.37
1/15/2023 5:00:00 PM 3.46 38.228 0.031 6.94 7.38 13.36
1/15/2023 5:15:00 PM 3.44 38.192 0.031 6.91 7.43 13.35
1/15/2023 5:30:00 PM 3.42 38.156 0.031 6.91 7.49 13.35
1/15/2023 5:45:00 PM 3.39 38.102 0.031 6.9 7.42 13.34
1/15/2023 6:00:00 PM 3.36 38.048 0.03 6.95 8.49 13.34
1/15/2023 6:15:00 PM 3.33 37.994 0.03 6.84 8.38 13.36
1/15/2023 6:30:00 PM 3.29 37.922 0.031 6.9 7.58 13.36
1/15/2023 6:45:00 PM 3.25 37.85 0.031 6.89 7.65 13.38
1/15/2023 7:00:00 PM 3.21 37.778 0.031 6.9 7.36 13.4
1/15/2023 7:15:00 PM 3.18 37.724 0.031 6.89 7.58 13.41
1/15/2023 7:30:00 PM 3.14 37.652 0.031 6.86 8.31 13.43
1/15/2023 7:45:00 PM 3.1 37.58 0.031 6.92 7.72 13.44
1/15/2023 8:00:00 PM 3.06 37.508 0.031 6.91 7.47 13.46
1/15/2023 8:15:00 PM 3.03 37.454 0.03 6.88 8.24 13.47
1/15/2023 8:30:00 PM 2.99 37.382 0.03 6.83 8.14 13.49
1/15/2023 8:45:00 PM 2.95 37.31 0.031 6.87 7.46 13.5
1/15/2023 9:00:00 PM 2.92 37.256 0.031 6.88 7.49 13.51
1/15/2023 9:15:00 PM 2.88 37.184 0.031 6.9 8.55 13.52
1/15/2023 9:30:00 PM 2.85 37.13 0.031 6.9 7.45 13.54
1/15/2023 9:45:00 PM 2.82 37.076 0.031 6.93 7.33 13.55
1/15/2023 10:00:00 PM 2.78 37.004 0.031 6.83 8.38 13.56
1/15/2023 10:15:00 PM 2.75 36.95 0.032 6.94 7.45 13.58
1/15/2023 10:30:00 PM 2.72 36.896 0.031 6.94 8.51 13.59
1/15/2023 10:45:00 PM 2.69 36.842 0.031 6.87 8.33 13.6
1/15/2023 11:00:00 PM 2.65 36.77 0.032 6.88 7.43 13.61
1/15/2023 11:15:00 PM 2.62 36.716 0.032 6.93 7.47 13.63
1/15/2023 11:30:00 PM 2.59 36.662 0.032 6.93 7.49 13.64
1/15/2023 11:45:00 PM 2.55 36.59 0.03 6.84 8.11 13.65
1/16/2023 12:00:00 AM 2.52 36.536 0.03 6.83 8.18 13.66
1/16/2023 12:15:00 AM 2.49 36.482 0.031 6.82 8.27 13.67
1/16/2023 12:30:00 AM 2.46 36.428 0.031 6.83 8.35 13.69
1/16/2023 12:45:00 AM 2.42 36.356 0.032 6.93 7.33 13.7
1/16/2023 1:00:00 AM 2.39 36.302 0.032 6.87 7.31 13.72
1/16/2023 1:15:00 AM 2.36 36.248 0.032 6.92 7.35 13.72
1/16/2023 1:30:00 AM 2.32 36.176 0.032 6.92 7.32 13.75
1/16/2023 1:45:00 AM 2.29 36.122 0.032 6.93 7.33 13.75
1/16/2023 2:00:00 AM 2.25 36.05 0.031 6.85 8.2 13.76
1/16/2023 2:15:00 AM 2.21 35.978 0.032 6.93 7.34 13.77
1/16/2023 2:30:00 AM 2.18 35.924 0.032 6.87 7.38 13.8
1/16/2023 2:45:00 AM 2.15 35.87 0.03 6.85 8.17 13.81
1/16/2023 3:00:00 AM 2.11 35.798 0.032 6.87 7.6 13.82
1/16/2023 3:15:00 AM 2.07 35.726 0.032 6.88 7.59 13.84
1/16/2023 3:30:00 AM 2.04 35.672 0.031 6.84 8.37 13.84
1/16/2023 3:45:00 AM 2 35.6 0.032 6.93 7.63 13.86
1/16/2023 4:00:00 AM 1.97 35.546 0.032 6.93 7.64 13.88
1/16/2023 4:15:00 AM 1.93 35.474 0.032 6.86 7.78 13.89
1/16/2023 4:30:00 AM 1.9 35.42 0.032 6.88 7.71 13.91
1/16/2023 4:45:00 AM 1.86 35.348 0.032 6.91 7.69 13.93
1/16/2023 5:00:00 AM 1.83 35.294 0.032 6.9 7.68 13.94
1/16/2023 5:15:00 AM 1.8 35.24 0.032 6.93 7.59 13.95
1/16/2023 5:30:00 AM 1.77 35.186 0.032 6.9 7.58 13.96
1/16/2023 5:45:00 AM 1.74 35.132 0.031 6.82 8.49 13.97
1/16/2023 6:00:00 AM 1.71 35.078 0.031 6.83 8.45 13.99
1/16/2023 6:15:00 AM 1.68 35.024 0.031 6.88 8.56 14
1/16/2023 6:30:00 AM 1.65 34.97 0.032 6.9 7.53 14.01
1/16/2023 6:45:00 AM 1.63 34.934 0.031 6.94 8.39 14.03
1/16/2023 7:00:00 AM 1.6 34.88 0.032 6.88 7.6 14.04
1/16/2023 7:15:00 AM 1.57 34.826 0.032 6.89 7.63 14.05
1/16/2023 7:30:00 AM 1.55 34.79 0.031 6.85 8.47 14.07
1/16/2023 7:45:00 AM 1.52 34.736 0.031 6.83 8.38 14.08
1/16/2023 8:00:00 AM 1.5 34.7 0.032 6.94 7.66 14.1
1/16/2023 8:15:00 AM 1.48 34.664 0.032 6.86 7.55 14.13
1/16/2023 8:30:00 AM 1.46 34.628 0.031 6.84 8.36 14.14
1/16/2023 8:45:00 AM 1.44 34.592 0.031 6.91 8.4 14.17
1/16/2023 9:00:00 AM 1.43 34.574 0.032 6.89 7.47 14.19